ftp/pub/palmer/observations_modified/2016/November/AR161120_BASE.txt

Download

Sample DateTime	Unit Id	WS Avg 2min	WD Avg 2min	WGS 10min	WGD 10min	Air Temp	Rel Humidity	Dew Point	Pyranometer	Quantum	Air Pressure	Snow Level	Rainfall	PW Current	Visibility	CBase 1	CBase 2	CBase 3	Vert Vis
2016/11/20 00:00:00	BASE	1.27	42	1.80	44	0.2	61	-6.4	49	132	1010.6	NA	0.0000		9999	0	0	0	0
2016/11/20 00:01:00	BASE	0.81	42	1.80	44	0.1	61	-6.4	48	130	1010.6	NA	0.0000		9999	0	0	0	0
2016/11/20 00:02:00	BASE	0.91	45	1.80	44	0.1	61	-6.4	47	127	1010.6	NA	0.0000		9999	0	0	0	0
2016/11/20 00:03:00	BASE	1.49	46	1.85	44	0.0	61	-6.5	46	125	1010.6	NA	0.0000		9999	0	0	0	0
2016/11/20 00:04:00	BASE	1.39	51	1.85	44	-0.0	61	-6.6	45	123	1010.6	NA	0.0000		9999	0	0	0	0
2016/11/20 00:05:00	BASE	1.26	58	1.85	44	-0.1	62	-6.6	45	121	1010.6	NA	0.0000		9999	0	0	0	0
2016/11/20 00:06:00	BASE	1.21	56	1.85	44	-0.2	62	-6.5	44	119	1010.6	NA	0.0000		9999	0	0	0	0
2016/11/20 00:07:00	BASE	1.05	50	1.85	44	-0.2	63	-6.5	43	117	1010.5	NA	0.0000		9999	0	0	0	0
2016/11/20 00:08:00	BASE	0.92	47	1.85	44	-0.2	63	-6.5	42	115	1010.5	NA	0.0000		9999	0	0	0	0
2016/11/20 00:09:00	BASE	1.09	49	1.85	44	-0.3	63	-6.5	42	112	1010.4	NA	0.0000		9999	0	0	0	0
2016/11/20 00:10:00	BASE	1.24	49	1.85	44	-0.2	63	-6.5	41	110	1010.4	NA	0.0000		9999	0	0	0	0
2016/11/20 00:11:00	BASE	1.10	48	1.85	44	-0.2	62	-6.5	40	108	1010.4	NA	0.0000		9999	0	0	0	0
2016/11/20 00:12:00	BASE	1.17	46	1.85	44	-0.2	62	-6.6	39	106	1010.4	NA	0.0000		9999	0	0	0	0
2016/11/20 00:13:00	BASE	0.86	43	1.70	42	-0.2	62	-6.6	39	104	1010.4	NA	0.0000		9999	0	0	0	0
2016/11/20 00:14:00	BASE	0.32	41	1.70	42	-0.1	62	-6.5	38	102	1010.5	NA	0.0000		9999	0	0	0	0
2016/11/20 00:15:00	BASE	0.42	34	1.70	42	-0.1	62	-6.5	37	101	1010.6	NA	0.0000		9999	0	0	0	0
2016/11/20 00:16:00	BASE	0.43	27	1.70	42	-0.1	62	-6.5	37	99	1010.6	NA	0.0000		9999	0	0	0	0
2016/11/20 00:17:00	BASE	0.32	27	1.70	42	-0.1	62	-6.5	36	97	1010.6	NA	0.0000		9999	0	0	0	0
2016/11/20 00:18:00	BASE	0.32	27	1.70	42	-0.1	62	-6.5	35	95	1010.6	NA	0.0000		9999	0	0	0	0
2016/11/20 00:19:00	BASE	0.46	27	1.70	42	-0.2	62	-6.5	34	93	1010.6	NA	0.0000		9999	0	0	0	0
2016/11/20 00:20:00	BASE	0.59	27	1.44	45	-0.2	62	-6.5	34	91	1010.6	NA	0.0000		9999	0	0	0	0
2016/11/20 00:21:00	BASE	0.49	27	1.44	45	-0.2	63	-6.5	33	89	1010.6	NA	0.0000		9999	0	0	0	0
2016/11/20 00:22:00	BASE	0.26	27	1.23	27	-0.2	63	-6.4	32	87	1010.6	NA	0.0000		9999	0	0	0	0
2016/11/20 00:23:00	BASE	0.00	27	1.23	27	-0.2	64	-6.2	31	85	1010.6	NA	0.0000		9999	0	0	0	0
2016/11/20 00:24:00	BASE	0.14	26	1.23	27	-0.3	65	-6.1	30	83	1010.6	NA	0.0000		9999	0	0	0	0
2016/11/20 00:25:00	BASE	0.41	28	1.23	27	-0.3	65	-6.1	30	81	1010.6	NA	0.0000		9999	0	0	0	0
2016/11/20 00:26:00	BASE	0.28	31	1.23	27	-0.3	65	-6.0	29	78	1010.6	NA	0.0000		9999	0	0	0	0
2016/11/20 00:27:00	BASE	0.04	30	1.23	27	-0.3	65	-6.2	28	76	1010.6	NA	0.0000		9999	0	0	0	0
2016/11/20 00:28:00	BASE	0.04	27	1.18	30	-0.3	64	-6.3	27	75	1010.6	NA	0.0000		9999	0	0	0	0
2016/11/20 00:29:00	BASE	0.05	25	1.18	30	-0.3	63	-6.5	27	73	1010.6	NA	0.0000		9999	0	0	0	0
2016/11/20 00:30:00	BASE	0.05	25	1.18	30	-0.4	63	-6.5	26	71	1010.6	NA	0.0000		9999	0	0	0	0
2016/11/20 00:31:00	BASE	0.04	25	1.18	30	-0.4	63	-6.5	25	70	1010.6	NA	0.0000		9999	0	0	0	0
2016/11/20 00:32:00	BASE	0.19	25	1.18	25	-0.4	63	-6.5	25	68	1010.6	NA	0.0000		9999	0	0	0	0
2016/11/20 00:33:00	BASE	0.19	25	1.18	25	-0.4	64	-6.5	24	67	1010.6	NA	0.0000		9999	0	0	0	0
2016/11/20 00:34:00	BASE	0.04	25	1.18	25	-0.4	64	-6.4	24	65	1010.6	NA	0.0000		9999	0	0	0	0
2016/11/20 00:35:00	BASE	0.00	25	1.18	25	-0.4	64	-6.4	23	64	1010.6	NA	0.0000		9999	0	0	0	0
2016/11/20 00:36:00	BASE	0.00	25	1.18	25	-0.4	64	-6.3	23	62	1010.6	NA	0.0000		9999	0	0	0	0
2016/11/20 00:37:00	BASE	0.00	25	1.18	25	-0.3	64	-6.4	22	61	1010.6	NA	0.0000		9999	0	0	0	0
2016/11/20 00:38:00	BASE	0.00	25	1.18	25	-0.2	63	-6.4	22	59	1010.6	NA	0.0000		9999	0	0	0	0
2016/11/20 00:39:00	BASE	0.00	25	1.18	25	-0.2	63	-6.5	21	58	1010.6	NA	0.0000		9999	0	0	0	0
2016/11/20 00:40:00	BASE	0.00	25	1.18	25	-0.1	62	-6.5	20	56	1010.6	NA	0.0000		9999	0	0	0	0
2016/11/20 00:41:00	BASE	0.00	25	1.18	25	-0.1	62	-6.5	20	55	1010.6	NA	0.0000		9999	0	0	0	0
2016/11/20 00:42:00	BASE	0.00	26	1.03	25	-0.1	62	-6.6	19	53	1010.6	NA	0.0000		9999	0	0	0	0
2016/11/20 00:43:00	BASE	0.00	26	M	M	-0.0	62	-6.5	19	52	1010.6	NA	0.0000		9999	0	0	0	0
2016/11/20 00:44:00	BASE	0.00	26	M	M	-0.0	61	-6.6	18	51	1010.6	NA	0.0000		9999	0	0	0	0
2016/11/20 00:45:00	BASE	0.00	26	M	M	-0.0	61	-6.6	18	49	1010.6	NA	0.0000		9999	0	0	0	0
2016/11/20 00:46:00	BASE	0.00	26	M	M	0.0	61	-6.5	17	48	1010.6	NA	0.0000		9999	0	0	0	0
2016/11/20 00:47:00	BASE	0.00	26	M	M	0.0	62	-6.4	17	46	1010.6	NA	0.0000		9999	14900	0	0	0
2016/11/20 00:48:00	BASE	0.00	26	M	M	0.0	63	-6.3	16	45	1010.6	NA	0.0000		9999	14760	0	0	0
2016/11/20 00:49:00	BASE	0.00	26	M	M	-0.0	63	-6.2	16	44	1010.6	NA	0.0000		9999	14800	0	0	0
2016/11/20 00:50:00	BASE	0.00	26	M	M	-0.1	64	-6.0	15	43	1010.6	NA	0.0000		9999	14730	0	0	0
2016/11/20 00:51:00	BASE	0.00	26	M	M	-0.1	65	-6.0	15	42	1010.6	NA	0.0000		9999	14830	0	0	0
2016/11/20 00:52:00	BASE	0.00	26	M	M	-0.2	65	-6.0	15	41	1010.6	NA	0.0000		9999	14760	0	0	0
2016/11/20 00:53:00	BASE	0.00	26	M	M	-0.2	65	-6.1	14	39	1010.6	NA	0.0000		9999	14670	0	0	0
2016/11/20 00:54:00	BASE	0.00	26	M	M	-0.2	64	-6.1	14	38	1010.6	NA	0.0000		9999	14800	0	0	0
2016/11/20 00:55:00	BASE	0.00	26	M	M	-0.2	64	-6.2	13	37	1010.6	NA	0.0000		9999	14760	0	0	0
2016/11/20 00:56:00	BASE	0.00	26	M	M	-0.3	63	-6.4	13	36	1010.6	NA	0.0000		9999	14800	0	0	0
2016/11/20 00:57:00	BASE	0.00	26	M	M	-0.3	63	-6.6	13	35	1010.6	NA	0.0000		9999	14670	0	0	0
2016/11/20 00:58:00	BASE	0.00	26	M	M	-0.4	62	-6.8	12	34	1010.6	NA	0.0000		9999	14630	0	0	0
2016/11/20 00:59:00	BASE	0.00	26	M	M	-0.4	61	-7.0	12	33	1010.6	NA	0.0000		9999	14600	0	0	0
2016/11/20 01:00:00	BASE	0.00	26	M	M	-0.4	60	-7.3	11	32	1010.6	NA	0.0000		9999	14800	0	0	0
2016/11/20 01:01:00	BASE	0.00	26	M	M	-0.4	59	-7.4	11	31	1010.5	NA	0.0000		9999	14630	0	0	0
2016/11/20 01:02:00	BASE	0.00	26	M	M	-0.4	59	-7.5	10	30	1010.4	NA	0.0000		9999	14700	0	0	0
2016/11/20 01:03:00	BASE	0.00	26	M	M	-0.4	59	-7.5	10	29	1010.4	NA	0.0000		9999	14760	0	0	0
2016/11/20 01:04:00	BASE	0.00	26	M	M	-0.4	58	-7.5	10	28	1010.4	NA	0.0000		9999	14570	0	0	0
2016/11/20 01:05:00	BASE	0.00	26	M	M	-0.3	58	-7.6	9	27	1010.5	NA	0.0000		9999	14630	0	0	0
2016/11/20 01:06:00	BASE	0.00	26	M	M	-0.3	58	-7.6	9	25	1010.6	NA	0.0000		9999	14570	0	0	0
2016/11/20 01:07:00	BASE	0.00	26	M	M	-0.3	58	-7.6	8	25	1010.6	NA	0.0000		9999	14670	0	0	0
2016/11/20 01:08:00	BASE	0.00	26	M	M	-0.2	58	-7.5	8	24	1010.6	NA	0.0000		9999	14600	0	0	0
2016/11/20 01:09:00	BASE	0.00	26	M	M	-0.1	58	-7.3	8	23	1010.6	NA	0.0000		9999	14670	0	0	0
2016/11/20 01:10:00	BASE	0.00	26	M	M	-0.1	60	-7.0	7	22	1010.6	NA	0.0000		9999	14700	0	0	0
2016/11/20 01:11:00	BASE	0.04	26	1.03	26	-0.1	62	-6.5	7	21	1010.6	NA	0.0000		9999	14700	0	0	0
2016/11/20 01:12:00	BASE	0.30	26	1.08	26	-0.2	65	-6.1	7	20	1010.6	NA	0.0000		9999	14600	0	0	0
2016/11/20 01:13:00	BASE	0.86	30	1.34	34	-0.3	67	-5.7	6	20	1010.6	NA	0.0000		9999	14700	0	0	0
2016/11/20 01:14:00	BASE	0.97	34	1.34	34	-0.4	68	-5.5	6	19	1010.6	NA	0.0000		9999	14700	0	0	0
2016/11/20 01:15:00	BASE	0.37	34	1.34	34	-0.5	68	-5.6	6	18	1010.6	NA	0.0000		9999	14700	0	0	0
2016/11/20 01:16:00	BASE	0.00	29	1.34	34	-0.5	68	-5.7	5	17	1010.6	NA	0.0000		9999	14600	0	0	0
2016/11/20 01:17:00	BASE	0.00	16	1.34	34	-0.4	67	-5.9	5	17	1010.6	NA	0.0000		9999	14530	0	0	0
2016/11/20 01:18:00	BASE	0.00	8	1.34	34	-0.5	66	-6.0	5	16	1010.6	NA	0.0000		9999	14530	0	0	0
2016/11/20 01:19:00	BASE	0.00	8	1.34	34	-0.6	66	-6.2	5	15	1010.6	NA	0.0000		9999	14500	0	0	0
2016/11/20 01:20:00	BASE	0.00	8	1.34	34	-0.6	66	-6.3	4	15	1010.6	NA	0.0000		9999	14470	0	0	0
2016/11/20 01:21:00	BASE	0.00	8	1.34	34	-0.6	65	-6.3	4	14	1010.6	NA	0.0000		9999	14400	0	0	0
2016/11/20 01:22:00	BASE	0.00	8	1.34	34	-0.7	65	-6.4	4	13	1010.6	NA	0.0000		9999	14700	0	0	0
2016/11/20 01:23:00	BASE	0.00	8	1.23	34	-0.7	65	-6.4	3	13	1010.6	NA	0.0000		9999	14860	0	0	0
2016/11/20 01:24:00	BASE	0.00	8	M	M	-0.6	65	-6.4	3	12	1010.6	NA	0.0000		9999	14270	14900	0	0
2016/11/20 01:25:00	BASE	0.00	8	M	M	-0.6	65	-6.3	3	12	1010.5	NA	0.0000		9999	14310	14860	0	0
2016/11/20 01:26:00	BASE	0.00	6	M	M	-0.6	65	-6.4	3	11	1010.6	NA	0.0000		9999	14340	14990	0	0
2016/11/20 01:27:00	BASE	0.15	357	1.44	340	-0.7	66	-6.3	3	11	1010.6	NA	0.0000		9999	14140	14990	0	0
2016/11/20 01:28:00	BASE	0.88	344	1.65	340	-0.7	67	-6.1	2	10	1010.6	NA	0.0000		9999	14080	0	0	0
2016/11/20 01:29:00	BASE	1.46	340	1.65	340	-0.8	68	-5.9	2	10	1010.6	NA	0.0000		9999	13980	0	0	0
2016/11/20 01:30:00	BASE	1.42	340	1.65	340	-0.9	69	-5.8	2	9	1010.6	NA	0.0000		9999	14040	0	0	0
2016/11/20 01:31:00	BASE	1.12	345	1.65	340	-0.9	70	-5.6	2	9	1010.6	NA	0.0000		9999	14080	0	0	0
2016/11/20 01:32:00	BASE	0.94	350	1.65	340	-0.9	71	-5.5	2	8	1010.6	NA	0.0000		9999	14400	0	0	0
2016/11/20 01:33:00	BASE	1.00	352	1.65	340	-0.9	71	-5.5	2	8	1010.5	NA	0.0000		9999	13910	0	0	0
2016/11/20 01:34:00	BASE	0.98	353	1.65	340	-0.9	71	-5.5	2	8	1010.5	NA	0.0000		9999	12930	0	0	0
2016/11/20 01:35:00	BASE	0.96	353	1.65	340	-0.8	71	-5.5	2	8	1010.5	NA	0.0000		9999	12730	0	0	0
2016/11/20 01:36:00	BASE	0.59	353	1.65	340	-0.8	71	-5.5	2	7	1010.4	NA	0.0000		9999	12960	0	0	0
2016/11/20 01:37:00	BASE	0.27	353	1.65	340	-0.8	71	-5.4	2	7	1010.4	NA	0.0000		9999	13030	0	0	0
2016/11/20 01:38:00	BASE	0.13	359	1.54	340	-0.8	71	-5.4	2	7	1010.4	NA	0.0000		9999	12990	0	0	0
2016/11/20 01:39:00	BASE	0.00	12	1.49	339	-0.8	71	-5.4	1	7	1010.4	NA	0.0000		9999	13030	0	0	0
2016/11/20 01:40:00	BASE	0.17	23	1.39	353	-0.8	71	-5.3	1	6	1010.4	NA	0.0000		9999	13940	0	0	0
2016/11/20 01:41:00	BASE	0.54	15	1.39	353	-0.8	71	-5.4	1	6	1010.4	NA	0.0000		9999	14080	0	0	0
2016/11/20 01:42:00	BASE	0.41	3	1.39	353	-0.7	70	-5.5	1	6	1010.4	NA	0.0000		9999	14310	0	0	0
2016/11/20 01:43:00	BASE	0.27	4	1.39	353	-0.6	69	-5.5	1	6	1010.4	NA	0.0000		9999	14400	0	0	0
2016/11/20 01:44:00	BASE	0.27	3	1.18	353	-0.6	68	-5.7	1	6	1010.4	NA	0.0000		9999	13390	0	0	0
2016/11/20 01:45:00	BASE	0.17	3	1.13	3	-0.6	67	-5.9	1	5	1010.4	NA	0.0000		9999	13390	0	0	0
2016/11/20 01:46:00	BASE	0.13	3	1.13	3	-0.6	68	-5.8	1	5	1010.4	NA	0.0000		9999	13320	0	0	0
2016/11/20 01:47:00	BASE	0.00	3	1.13	3	-0.6	68	-5.9	1	5	1010.4	NA	0.0000		9999	13190	14170	0	0
2016/11/20 01:48:00	BASE	0.23	3	1.18	3	-0.7	68	-5.9	1	5	1010.4	NA	0.0000		9999	14040	0	0	0
2016/11/20 01:49:00	BASE	0.50	3	1.18	3	-0.7	68	-5.9	1	5	1010.4	NA	0.0000		9999	13260	0	0	0
2016/11/20 01:50:00	BASE	0.41	3	1.18	3	-0.7	68	-5.9	1	5	1010.4	NA	0.0000		9999	13810	0	0	0
2016/11/20 01:51:00	BASE	0.35	3	1.18	3	-0.7	68	-5.9	1	4	1010.4	NA	0.0000		9999	13910	0	0	0
2016/11/20 01:52:00	BASE	0.22	4	1.18	3	-0.6	68	-5.9	1	4	1010.4	NA	0.0000		9999	13910	0	0	0
2016/11/20 01:53:00	BASE	0.05	5	1.18	3	-0.6	68	-5.8	1	4	1010.4	NA	0.0000		9999	12630	13910	0	0
2016/11/20 01:54:00	BASE	0.13	11	1.18	3	-0.6	68	-5.7	1	4	1010.4	NA	0.0000		9999	12700	13780	0	0
2016/11/20 01:55:00	BASE	0.09	18	1.18	3	-0.6	68	-5.7	1	4	1010.4	NA	0.0000		9999	12730	13680	0	0
2016/11/20 01:56:00	BASE	0.04	18	1.18	3	-0.6	68	-5.8	1	4	1010.4	NA	0.0000		9999	13680	0	0	0
2016/11/20 01:57:00	BASE	0.04	18	1.18	3	-0.5	67	-5.8	1	4	1010.4	NA	0.0000		9999	13580	0	0	0
2016/11/20 01:58:00	BASE	0.32	23	1.18	34	-0.5	66	-6.0	1	3	1010.5	NA	0.0000		9999	13580	0	0	0
2016/11/20 01:59:00	BASE	0.77	31	1.39	34	-0.4	66	-6.1	1	3	1010.5	NA	0.0000		9999	13940	0	0	0
2016/11/20 02:00:00	BASE	0.97	34	1.39	34	-0.4	65	-6.1	1	3	1010.4	NA	0.0000		9999	13320	13880	0	0
2016/11/20 02:01:00	BASE	1.19	37	1.44	42	-0.3	65	-6.1	1	3	1010.4	NA	0.0000		9999	13160	13880	0	0
2016/11/20 02:02:00	BASE	1.35	41	1.44	42	-0.3	66	-6.0	1	3	1010.4	NA	0.0000		9999	11520	13190	0	0
2016/11/20 02:03:00	BASE	1.40	42	1.54	42	-0.3	67	-5.8	1	3	1010.4	NA	0.0000		9999	11580	13120	0	0
2016/11/20 02:04:00	BASE	1.49	42	1.59	42	-0.3	67	-5.7	1	3	1010.4	NA	0.0000		9999	11420	0	0	0
2016/11/20 02:05:00	BASE	1.54	41	1.59	38	-0.3	67	-5.7	1	3	1010.4	NA	0.0000		9999	11390	13780	0	0
2016/11/20 02:06:00	BASE	1.59	35	1.85	33	-0.3	67	-5.6	1	2	1010.4	NA	0.0000		9999	13580	0	0	0
2016/11/20 02:07:00	BASE	1.82	31	2.11	32	-0.3	67	-5.7	1	2	1010.4	NA	0.0000		9999	11420	13550	0	0
2016/11/20 02:08:00	BASE	1.86	34	2.11	32	-0.3	67	-5.7	1	2	1010.3	NA	0.0000		9999	11420	0	0	0
2016/11/20 02:09:00	BASE	1.82	38	2.11	42	-0.3	67	-5.7	1	2	1010.3	NA	0.0000		9999	11390	0	0	0
2016/11/20 02:10:00	BASE	1.92	41	2.11	42	-0.3	67	-5.7	0	2	1010.3	NA	0.0000		9999	11320	0	0	0
2016/11/20 02:11:00	BASE	1.88	46	2.11	42	-0.4	67	-5.8	0	2	1010.3	NA	0.0000		9999	11350	0	0	0
2016/11/20 02:12:00	BASE	1.69	48	2.11	42	-0.4	67	-5.8	0	2	1010.3	NA	0.0000		9999	11350	0	0	0
2016/11/20 02:13:00	BASE	1.56	45	2.11	42	-0.4	66	-6.0	0	2	1010.3	NA	0.0000		9999	11320	0	0	0
2016/11/20 02:14:00	BASE	1.45	45	2.11	42	-0.4	65	-6.1	0	2	1010.3	NA	0.0000		9999	11290	0	0	0
2016/11/20 02:15:00	BASE	1.52	48	2.11	42	-0.4	65	-6.2	0	1	1010.3	NA	0.0000		9999	11320	11880	0	0
2016/11/20 02:16:00	BASE	1.47	54	2.11	42	-0.4	65	-6.2	0	1	1010.3	NA	0.0000		9999	11290	11810	0	0
2016/11/20 02:17:00	BASE	1.03	53	2.11	42	-0.4	65	-6.2	0	1	1010.3	NA	0.0000		9999	11320	13480	0	0
2016/11/20 02:18:00	BASE	1.02	47	2.11	42	-0.4	65	-6.1	0	1	1010.3	NA	0.0000		9999	11390	0	0	0
2016/11/20 02:19:00	BASE	1.01	46	2.11	42	-0.4	65	-6.1	0	1	1010.3	NA	0.0000		9999	11350	13060	0	0
2016/11/20 02:20:00	BASE	0.38	46	2.01	43	-0.3	65	-6.1	0	1	1010.3	NA	0.0000		9999	11350	13060	0	0
2016/11/20 02:21:00	BASE	0.29	46	1.95	49	-0.3	65	-6.1	0	1	1010.3	NA	0.0000		9999	11350	13090	0	0
2016/11/20 02:22:00	BASE	0.43	46	1.85	52	-0.3	65	-6.1	0	1	1010.3	NA	0.0000		9999	11320	13060	0	0
2016/11/20 02:23:00	BASE	0.74	46	1.85	52	-0.3	65	-6.2	0	1	1010.3	NA	0.0000		9999	11320	12990	0	0
2016/11/20 02:24:00	BASE	1.11	48	1.85	52	-0.4	64	-6.3	0	1	1010.3	NA	0.0000		9999	11290	12270	13060	0
2016/11/20 02:25:00	BASE	0.88	56	1.59	61	-0.4	64	-6.3	0	1	1010.3	NA	0.0000		9999	11250	12270	0	0
2016/11/20 02:26:00	BASE	0.92	61	1.44	46	-0.4	65	-6.3	0	1	1010.3	NA	0.0000		9999	11320	12300	0	0
2016/11/20 02:27:00	BASE	1.17	64	1.44	46	-0.5	65	-6.3	0	1	1010.3	NA	0.0000		9999	11220	0	0	0
2016/11/20 02:28:00	BASE	1.35	66	1.54	66	-0.6	65	-6.3	0	1	1010.3	NA	0.0000		9999	11220	0	0	0
2016/11/20 02:29:00	BASE	1.26	63	1.54	66	-0.6	66	-6.2	0	1	1010.3	NA	0.0000		9999	11220	0	0	0
2016/11/20 02:30:00	BASE	1.02	64	1.54	66	-0.7	66	-6.2	0	1	1010.3	NA	0.0000		9999	11190	12570	0	0
2016/11/20 02:31:00	BASE	1.11	68	1.54	64	-0.7	66	-6.2	0	1	1010.3	NA	0.0000		9999	11190	12660	0	0
2016/11/20 02:32:00	BASE	1.27	66	1.54	64	-0.7	66	-6.2	0	1	1010.3	NA	0.0000		9999	11190	12830	0	0
2016/11/20 02:33:00	BASE	1.27	60	1.54	64	-0.7	66	-6.2	0	1	1010.3	NA	0.0000		9999	11220	12830	0	0
2016/11/20 02:34:00	BASE	1.32	53	1.54	46	-0.6	65	-6.3	0	1	1010.3	NA	0.0000		9999	11250	0	0	0
2016/11/20 02:35:00	BASE	1.31	51	1.54	46	-0.6	65	-6.4	0	1	1010.3	NA	0.0000		9999	11220	0	0	0
2016/11/20 02:36:00	BASE	1.10	45	1.54	46	-0.5	64	-6.4	0	1	1010.3	NA	0.0000		9999	11190	12760	0	0
2016/11/20 02:37:00	BASE	0.81	35	1.54	46	-0.5	64	-6.4	0	1	1010.3	NA	0.0000		9999	11250	12860	0	0
2016/11/20 02:38:00	BASE	0.33	36	1.54	46	-0.4	64	-6.5	0	1	1010.3	NA	0.0000		9999	11190	0	0	0
2016/11/20 02:39:00	BASE	0.27	41	1.54	46	-0.4	64	-6.4	0	1	1010.3	NA	0.0000		9999	11220	0	0	0
2016/11/20 02:40:00	BASE	0.41	41	1.54	46	-0.4	64	-6.4	0	0	1010.3	NA	0.0000		9999	11250	0	0	0
2016/11/20 02:41:00	BASE	0.19	44	1.54	46	-0.3	64	-6.3	0	0	1010.3	NA	0.0000		9999	11320	0	0	0
2016/11/20 02:42:00	BASE	0.26	45	1.59	52	-0.2	64	-6.3	0	0	1010.3	NA	0.0000		9999	11250	0	0	0
2016/11/20 02:43:00	BASE	0.92	51	1.59	52	-0.2	64	-6.2	0	0	1010.3	NA	0.0000		9999	11160	0	0	0
2016/11/20 02:44:00	BASE	1.13	57	1.59	52	-0.2	64	-6.2	0	0	1010.3	NA	0.0000		9999	11160	0	0	0
2016/11/20 02:45:00	BASE	1.13	53	1.59	52	-0.2	64	-6.2	0	0	1010.3	NA	0.0000		9999	11190	0	0	0
2016/11/20 02:46:00	BASE	1.19	47	1.59	52	-0.2	64	-6.2	0	0	1010.3	NA	0.0000		9999	11160	0	0	0
2016/11/20 02:47:00	BASE	1.03	40	1.59	52	-0.2	64	-6.3	0	0	1010.3	NA	0.0000		9999	11120	0	0	0
2016/11/20 02:48:00	BASE	0.67	39	1.59	52	-0.2	63	-6.3	0	0	1010.3	NA	0.0000		9999	11120	0	0	0
2016/11/20 02:49:00	BASE	0.13	38	1.59	52	-0.2	63	-6.4	0	0	1010.3	NA	0.0000		9999	11060	0	0	0
2016/11/20 02:50:00	BASE	0.00	35	1.59	52	-0.2	63	-6.4	0	0	1010.3	NA	0.0000		9999	11060	0	0	0
2016/11/20 02:51:00	BASE	0.00	35	1.59	52	-0.2	63	-6.3	0	0	1010.3	NA	0.0000		9999	11060	0	0	0
2016/11/20 02:52:00	BASE	0.00	35	1.54	52	-0.2	63	-6.4	0	0	1010.3	NA	0.0000		9999	11020	0	0	0
2016/11/20 02:53:00	BASE	0.19	35	1.54	52	-0.2	63	-6.4	0	0	1010.3	NA	0.0000		9999	11020	0	0	0
2016/11/20 02:54:00	BASE	0.88	31	1.70	19	-0.2	63	-6.4	0	0	1010.2	NA	0.0000		9999	10960	12340	0	0
2016/11/20 02:55:00	BASE	1.54	19	2.01	9	-0.2	62	-6.5	0	0	1010.3	NA	0.0000		9999	10930	0	0	0
2016/11/20 02:56:00	BASE	0.99	5	2.01	9	-0.2	62	-6.5	0	0	1010.3	NA	0.0000		9999	10830	0	0	0
2016/11/20 02:57:00	BASE	0.66	13	2.01	9	-0.2	63	-6.4	0	0	1010.2	NA	0.0000		9999	10830	0	0	0
2016/11/20 02:58:00	BASE	1.28	31	2.01	9	-0.2	63	-6.5	0	0	1010.2	NA	0.0000		9999	10790	11320	0	0
2016/11/20 02:59:00	BASE	1.56	29	2.01	9	-0.1	62	-6.5	0	0	1010.2	NA	0.0000		9999	10630	11250	0	0
2016/11/20 03:00:00	BASE	1.47	19	2.01	9	-0.1	62	-6.4	0	0	1010.2	NA	0.0000		9999	10600	11160	12040	0
2016/11/20 03:01:00	BASE	1.27	18	2.01	9	-0.1	62	-6.4	0	0	1010.2	NA	0.0000		9999	10560	11160	0	0
2016/11/20 03:02:00	BASE	1.21	20	2.01	9	-0.0	62	-6.5	0	0	1010.2	NA	0.0000		9999	10470	11250	0	0
2016/11/20 03:03:00	BASE	1.29	26	2.01	9	-0.1	62	-6.5	0	0	1010.2	NA	0.0000		9999	10470	11160	0	0
2016/11/20 03:04:00	BASE	1.45	23	2.01	9	-0.1	62	-6.5	0	0	1010.2	NA	0.0000		9999	10430	11160	0	0
2016/11/20 03:05:00	BASE	1.40	8	1.90	18	-0.1	62	-6.5	0	0	1010.2	NA	0.0000		9999	10500	11220	0	0
2016/11/20 03:06:00	BASE	0.98	5	1.90	18	-0.1	62	-6.6	0	0	1010.2	NA	0.0000		9999	10430	11250	0	0
2016/11/20 03:07:00	BASE	0.90	15	1.90	18	-0.1	62	-6.6	0	0	1010.3	NA	0.0000		9999	10430	11220	0	0
2016/11/20 03:08:00	BASE	0.97	11	1.90	18	-0.1	62	-6.6	0	0	1010.3	NA	0.0000		9999	10300	0	0	0
2016/11/20 03:09:00	BASE	1.16	354	1.85	28	-0.1	62	-6.6	0	0	1010.3	NA	0.0000		9999	10270	11220	0	0
2016/11/20 03:10:00	BASE	0.98	345	1.85	28	-0.1	61	-6.7	0	0	1010.3	NA	0.0000		9999	10270	11190	0	0
2016/11/20 03:11:00	BASE	0.71	342	1.80	353	-0.2	61	-6.7	0	0	1010.3	NA	0.0000		9999	10300	11160	0	0
2016/11/20 03:12:00	BASE	0.46	337	1.80	353	-0.2	61	-6.7	0	0	1010.3	NA	0.0000		9999	10240	11160	0	0
2016/11/20 03:13:00	BASE	0.00	338	1.80	353	-0.2	61	-6.8	0	0	1010.3	NA	0.0000		9999	10140	11220	0	0
2016/11/20 03:14:00	BASE	0.00	341	1.80	353	-0.2	61	-6.8	0	0	1010.3	NA	0.0000		9999	10140	11190	0	0
2016/11/20 03:15:00	BASE	0.00	349	1.80	353	-0.2	61	-6.7	0	0	1010.2	NA	0.0000		9999	11120	0	0	0
2016/11/20 03:16:00	BASE	0.00	358	1.80	353	-0.2	62	-6.6	0	0	1010.2	NA	0.0000		9999	11060	0	0	0
2016/11/20 03:17:00	BASE	0.22	357	1.80	353	-0.2	62	-6.5	0	0	1010.2	NA	0.0000		9999	11060	0	0	0
2016/11/20 03:18:00	BASE	0.27	346	1.80	353	-0.2	63	-6.4	0	0	1010.2	NA	0.0000		9999	10990	0	0	0
2016/11/20 03:19:00	BASE	0.05	332	1.54	352	-0.2	63	-6.3	0	0	1010.1	NA	0.0000		9999	11060	0	0	0
2016/11/20 03:20:00	BASE	0.00	327	1.54	352	-0.2	63	-6.3	0	0	1010.1	NA	0.0000		9999	10990	0	0	0
2016/11/20 03:21:00	BASE	0.26	317	1.59	308	-0.2	63	-6.4	0	0	1010.1	NA	0.0000		9999	11160	0	0	0
2016/11/20 03:22:00	BASE	0.64	308	1.59	308	-0.3	63	-6.4	0	0	1010.0	NA	0.0000		9999	11120	0	0	0
2016/11/20 03:23:00	BASE	0.43	325	1.59	308	-0.3	63	-6.4	0	0	1010.0	NA	0.0000		9999	11090	0	0	0
2016/11/20 03:24:00	BASE	0.05	342	1.59	308	-0.3	63	-6.4	0	0	1010.0	NA	0.0000		9999	10990	0	0	0
2016/11/20 03:25:00	BASE	0.00	339	1.59	308	-0.2	63	-6.4	0	0	1010.0	NA	0.0000		9999	11020	0	0	0
2016/11/20 03:26:00	BASE	0.00	337	1.59	308	-0.2	63	-6.4	0	0	1009.9	NA	0.0000		9999	10990	0	0	0
2016/11/20 03:27:00	BASE	0.00	337	1.59	308	-0.2	63	-6.3	0	0	1009.9	NA	0.0000		9999	10930	0	0	0
2016/11/20 03:28:00	BASE	0.00	337	1.59	308	-0.1	63	-6.4	0	0	1009.9	NA	0.0000		9999	10990	0	0	0
2016/11/20 03:29:00	BASE	0.00	337	1.59	308	-0.1	62	-6.4	0	0	1009.8	NA	0.0000		9999	10930	0	0	0
2016/11/20 03:30:00	BASE	0.00	337	1.59	308	-0.1	62	-6.5	0	0	1009.8	NA	0.0000		9999	9880	11020	0	0
2016/11/20 03:31:00	BASE	0.00	337	1.54	318	-0.1	62	-6.4	0	0	1009.8	NA	0.0000		9999	9740	11090	0	0
2016/11/20 03:32:00	BASE	0.00	337	1.08	314	-0.1	62	-6.5	0	0	1009.8	NA	0.0000		9999	9740	11120	0	0
2016/11/20 03:33:00	BASE	0.00	337	M	M	-0.1	62	-6.5	0	0	1009.8	NA	0.0000		9999	9710	10990	0	0
2016/11/20 03:34:00	BASE	0.00	337	M	M	-0.1	62	-6.5	0	0	1009.8	NA	0.0000		9999	10960	0	0	0
2016/11/20 03:35:00	BASE	0.00	337	M	M	-0.1	62	-6.5	0	0	1009.8	NA	0.0000		9999	9710	11020	0	0
2016/11/20 03:36:00	BASE	0.00	337	M	M	-0.2	62	-6.5	0	0	1009.8	NA	0.0000		9999	10860	0	0	0
2016/11/20 03:37:00	BASE	0.00	298	M	M	-0.3	63	-6.5	0	0	1009.8	NA	0.0000		9999	10830	0	0	0
2016/11/20 03:38:00	BASE	0.00	198	M	M	-0.3	63	-6.6	0	0	1009.8	NA	0.0000		9999	10830	0	0	0
2016/11/20 03:39:00	BASE	0.00	192	M	M	-0.4	63	-6.6	0	0	1009.8	NA	0.0000		9999	10860	0	0	0
2016/11/20 03:40:00	BASE	0.00	192	M	M	-0.4	63	-6.5	0	0	1009.8	NA	0.0000		9999	10790	0	0	0
2016/11/20 03:41:00	BASE	0.00	192	M	M	-0.4	63	-6.5	0	0	1009.8	NA	0.0000		9999	10930	0	0	0
2016/11/20 03:42:00	BASE	0.00	192	M	M	-0.4	64	-6.5	0	0	1009.8	NA	0.0000		9999	10790	0	0	0
2016/11/20 03:43:00	BASE	0.00	193	M	M	-0.4	64	-6.4	0	0	1009.8	NA	0.0000		9999	10830	0	0	0
2016/11/20 03:44:00	BASE	0.00	203	M	M	-0.4	64	-6.3	0	0	1009.8	NA	0.0000		9999	10790	0	0	0
2016/11/20 03:45:00	BASE	0.00	212	M	M	-0.3	64	-6.3	0	0	1009.8	NA	0.0000		9999	10730	0	0	0
2016/11/20 03:46:00	BASE	0.00	212	M	M	-0.3	64	-6.3	0	0	1009.8	NA	0.0000		9999	10730	0	0	0
2016/11/20 03:47:00	BASE	0.00	213	M	M	-0.4	64	-6.3	0	0	1009.8	NA	0.0000		9999	10730	0	0	0
2016/11/20 03:48:00	BASE	0.00	220	M	M	-0.4	65	-6.2	0	0	1009.8	NA	0.0000		9999	10660	0	0	0
2016/11/20 03:49:00	BASE	0.00	228	M	M	-0.5	66	-6.1	0	0	1009.8	NA	0.0000		9999	10660	0	0	0
2016/11/20 03:50:00	BASE	0.00	232	M	M	-0.5	67	-6.0	0	0	1009.8	NA	0.0000		9999	10600	0	0	0
2016/11/20 03:51:00	BASE	0.09	233	1.03	234	-0.6	68	-5.8	0	0	1009.8	NA	0.0000		9999	10600	0	0	0
2016/11/20 03:52:00	BASE	0.09	226	1.03	234	-0.6	68	-5.7	0	0	1009.8	NA	0.0000		9999	10630	0	0	0
2016/11/20 03:53:00	BASE	0.04	219	1.03	221	-0.5	68	-5.8	0	0	1009.8	NA	0.0000		9999	10630	0	0	0
2016/11/20 03:54:00	BASE	0.09	213	1.08	207	-0.5	67	-5.8	0	0	1009.8	NA	0.0000		9999	10560	0	0	0
2016/11/20 03:55:00	BASE	0.18	207	1.08	207	-0.5	67	-5.9	0	0	1009.9	NA	0.0000		9999	10530	0	0	0
2016/11/20 03:56:00	BASE	0.44	207	1.08	207	-0.4	67	-5.9	0	0	1010.0	NA	0.0000		9999	10430	0	0	0
2016/11/20 03:57:00	BASE	0.88	207	1.23	207	-0.4	66	-6.0	0	0	1010.0	NA	0.0000		9999	10470	0	0	0
2016/11/20 03:58:00	BASE	1.21	209	1.29	213	-0.4	66	-6.0	0	0	1010.0	NA	0.0000		9999	10430	0	0	0
2016/11/20 03:59:00	BASE	1.25	212	1.29	213	-0.4	67	-5.9	0	0	1010.0	NA	0.0000		9999	10470	0	0	0
2016/11/20 04:00:00	BASE	1.19	213	1.29	213	-0.5	67	-5.8	0	0	1010.0	NA	0.0000		9999	10430	0	0	0
2016/11/20 04:01:00	BASE	0.69	213	1.29	213	-0.5	68	-5.6	0	0	1010.0	NA	0.0000		9999	10400	0	0	0
2016/11/20 04:02:00	BASE	0.13	213	1.29	213	-0.6	69	-5.6	0	0	1010.0	NA	0.0000		9999	10400	0	0	0
2016/11/20 04:03:00	BASE	0.00	213	1.29	213	-0.6	70	-5.5	0	0	1010.0	NA	0.0000		9999	10400	0	0	0
2016/11/20 04:04:00	BASE	0.00	213	1.29	213	-0.6	69	-5.5	0	0	1010.0	NA	0.0000		9999	10430	0	0	0
2016/11/20 04:05:00	BASE	0.00	213	1.29	213	-0.5	69	-5.6	0	0	1010.0	NA	0.0000		9999	10430	0	0	0
2016/11/20 04:06:00	BASE	0.00	213	1.29	213	-0.5	67	-5.8	0	0	1010.0	NA	0.0000		9999	10370	0	0	0
2016/11/20 04:07:00	BASE	0.00	213	1.29	213	-0.4	66	-5.9	0	0	1010.0	NA	0.0000		9999	10300	0	0	0
2016/11/20 04:08:00	BASE	0.00	212	1.29	213	-0.3	66	-5.9	0	0	1010.0	NA	0.0000		9999	10370	0	0	0
2016/11/20 04:09:00	BASE	0.00	212	1.18	213	-0.4	67	-5.8	0	0	1009.9	NA	0.0000		9999	10370	0	0	0
2016/11/20 04:10:00	BASE	0.00	212	1.08	213	-0.4	68	-5.7	0	0	1009.8	NA	0.0000		9999	10400	0	0	0
2016/11/20 04:11:00	BASE	0.00	213	M	M	-0.5	69	-5.5	0	0	1009.8	NA	0.0000		9999	10370	0	0	0
2016/11/20 04:12:00	BASE	0.00	213	M	M	-0.5	70	-5.4	0	0	1009.8	NA	0.0000		9999	10340	0	0	0
2016/11/20 04:13:00	BASE	0.16	209	1.39	52	-0.6	69	-5.5	0	0	1009.8	NA	0.0000		9999	10400	0	0	0
2016/11/20 04:14:00	BASE	0.79	61	1.39	38	-0.5	69	-5.5	0	0	1009.7	NA	0.0000		9999	10300	0	0	0
2016/11/20 04:15:00	BASE	0.74	42	1.39	36	-0.5	69	-5.4	0	0	1009.7	NA	0.0000		9999	10340	0	0	0
2016/11/20 04:16:00	BASE	0.11	40	1.39	36	-0.5	70	-5.4	0	0	1009.7	NA	0.0000		9999	10400	0	0	0
2016/11/20 04:17:00	BASE	0.00	46	1.39	36	-0.5	71	-5.2	0	0	1009.7	NA	0.0000		9999	10400	0	0	0
2016/11/20 04:18:00	BASE	0.00	48	1.39	36	-0.5	71	-5.1	0	0	1009.7	NA	0.0000		9999	10400	0	0	0
2016/11/20 04:19:00	BASE	0.38	44	1.39	36	-0.5	72	-5.0	0	0	1009.7	NA	0.0000		9999	10430	0	0	0
2016/11/20 04:20:00	BASE	1.04	43	1.49	39	-0.5	71	-5.1	0	0	1009.7	NA	0.0000		9999	10530	0	0	0
2016/11/20 04:21:00	BASE	1.39	42	1.54	39	-0.5	71	-5.0	0	0	1009.7	NA	0.0000		9999	10430	0	0	0
2016/11/20 04:22:00	BASE	1.44	38	1.54	37	-0.5	72	-5.0	0	0	1009.7	NA	0.0000		9999	10470	0	0	0
2016/11/20 04:23:00	BASE	1.34	36	1.54	37	-0.5	72	-4.9	0	0	1009.7	NA	0.0000		9999	10470	0	0	0
2016/11/20 04:24:00	BASE	1.11	27	1.54	37	-0.6	73	-4.9	0	0	1009.7	NA	0.0000		9999	10340	0	0	0
2016/11/20 04:25:00	BASE	0.62	20	1.54	37	-0.6	73	-4.9	0	0	1009.7	NA	0.0000		9999	10370	0	0	0
2016/11/20 04:26:00	BASE	0.13	20	1.54	37	-0.7	73	-4.9	0	0	1009.7	NA	0.0000		9999	10340	0	0	0
2016/11/20 04:27:00	BASE	0.13	24	1.54	37	-0.7	73	-4.9	0	0	1009.7	NA	0.0000		9999	10370	0	0	0
2016/11/20 04:28:00	BASE	0.35	28	1.54	37	-0.7	73	-5.0	0	0	1009.7	NA	0.0000		9999	10340	0	0	0
2016/11/20 04:29:00	BASE	0.77	27	1.54	37	-0.7	73	-5.0	0	0	1009.7	NA	0.0000		9999	9190	10400	0	0
2016/11/20 04:30:00	BASE	1.11	27	1.54	37	-0.6	72	-5.0	0	0	1009.7	NA	0.0000		9999	10430	0	0	0
2016/11/20 04:31:00	BASE	1.14	27	1.54	37	-0.6	72	-5.1	0	0	1009.7	NA	0.0000		9999	10370	0	0	0
2016/11/20 04:32:00	BASE	1.16	27	1.39	37	-0.6	71	-5.1	0	0	1009.7	NA	0.0000		9999	9090	10400	0	0
2016/11/20 04:33:00	BASE	1.15	25	1.23	27	-0.6	71	-5.1	0	0	1009.7	NA	0.0000		9999	10430	0	0	0
2016/11/20 04:34:00	BASE	1.14	22	1.23	22	-0.6	71	-5.2	0	0	1009.7	NA	0.0000		9999	10470	0	0	0
2016/11/20 04:35:00	BASE	1.13	22	1.23	22	-0.6	71	-5.2	0	0	1009.7	NA	0.0000		9999	10430	0	0	0
2016/11/20 04:36:00	BASE	1.12	22	1.23	22	-0.6	71	-5.2	0	0	1009.7	NA	0.0000		9999	10340	0	0	0
2016/11/20 04:37:00	BASE	1.13	22	1.23	22	-0.6	71	-5.3	0	0	1009.7	NA	0.0000		9999	10340	0	0	0
2016/11/20 04:38:00	BASE	1.15	22	1.23	22	-0.6	71	-5.3	0	0	1009.7	NA	0.0000		9999	10340	0	0	0
2016/11/20 04:39:00	BASE	1.13	22	1.29	22	-0.7	71	-5.3	0	0	1009.6	NA	0.0000		9999	10300	0	0	0
2016/11/20 04:40:00	BASE	0.87	22	1.29	22	-0.7	72	-5.2	0	0	1009.6	NA	0.0000		9999	10340	0	0	0
2016/11/20 04:41:00	BASE	0.40	22	1.29	22	-0.7	72	-5.1	0	0	1009.6	NA	0.0000		9999	10300	0	0	0
2016/11/20 04:42:00	BASE	0.09	24	1.29	22	-0.7	73	-4.9	0	0	1009.6	NA	0.0000		9999	10300	0	0	0
2016/11/20 04:43:00	BASE	0.00	26	1.29	22	-0.7	74	-4.9	0	0	1009.6	NA	0.0000		9999	10300	0	0	0
2016/11/20 04:44:00	BASE	0.00	26	1.29	22	-0.7	73	-4.9	0	0	1009.6	NA	0.0000		9999	9020	0	0	0
2016/11/20 04:45:00	BASE	0.00	26	1.29	22	-0.7	73	-5.0	0	0	1009.6	NA	0.0000		9999	8990	0	0	0
2016/11/20 04:46:00	BASE	0.00	26	1.29	22	-0.7	72	-5.1	0	0	1009.6	NA	0.0000		9999	8960	0	0	0
2016/11/20 04:47:00	BASE	0.00	26	1.29	22	-0.7	71	-5.3	0	0	1009.6	NA	0.0000		9999	8920	0	0	0
2016/11/20 04:48:00	BASE	0.00	26	1.29	22	-0.7	70	-5.4	0	0	1009.6	NA	0.0000		9999	8920	10370	0	0
2016/11/20 04:49:00	BASE	0.00	26	1.18	22	-0.7	70	-5.5	0	0	1009.6	NA	0.0000		9999	8890	0	0	0
2016/11/20 04:50:00	BASE	0.00	26	1.03	22	-0.6	69	-5.6	0	0	1009.6	NA	0.0000		9999	8860	0	0	0
2016/11/20 04:51:00	BASE	0.00	26	M	M	-0.6	69	-5.6	0	0	1009.6	NA	0.0000		9999	8790	0	0	0
2016/11/20 04:52:00	BASE	0.00	26	M	M	-0.6	68	-5.8	0	0	1009.7	NA	0.0000		9999	8830	0	0	0
2016/11/20 04:53:00	BASE	0.00	45	M	M	-0.6	67	-5.9	0	0	1009.7	NA	0.0000		9999	0	0	0	0
2016/11/20 04:54:00	BASE	0.00	103	M	M	-0.7	67	-6.0	0	0	1009.7	NA	0.0000		9999	0	0	0	0
2016/11/20 04:55:00	BASE	0.00	143	M	M	-0.8	67	-6.1	0	0	1009.7	NA	0.0000		9999	0	0	0	0
2016/11/20 04:56:00	BASE	0.00	163	M	M	-0.9	68	-6.1	0	0	1009.7	NA	0.0000		9999	0	0	0	0
2016/11/20 04:57:00	BASE	0.00	169	M	M	-1.1	69	-6.0	0	0	1009.7	NA	0.0000		9999	0	0	0	0
2016/11/20 04:58:00	BASE	0.00	169	M	M	-1.2	70	-5.9	0	0	1009.7	NA	0.0000		9999	0	0	0	0
2016/11/20 04:59:00	BASE	0.00	168	M	M	-1.3	72	-5.8	0	0	1009.7	NA	0.0000		9999	0	0	0	0
2016/11/20 05:00:00	BASE	0.00	163	M	M	-1.3	73	-5.6	0	0	1009.7	NA	0.0000		9999	0	0	0	0
2016/11/20 05:01:00	BASE	0.00	158	M	M	-1.4	73	-5.5	0	0	1009.7	NA	0.0000		9999	0	0	0	0
2016/11/20 05:02:00	BASE	0.00	158	M	M	-1.4	74	-5.5	0	0	1009.7	NA	0.0000		9999	0	0	0	0
2016/11/20 05:03:00	BASE	0.00	158	M	M	-1.4	74	-5.4	0	0	1009.7	NA	0.0000		9999	0	0	0	0
2016/11/20 05:04:00	BASE	0.00	159	M	M	-1.3	74	-5.4	0	0	1009.7	NA	0.0000		9999	0	0	0	0
2016/11/20 05:05:00	BASE	0.00	159	M	M	-1.3	73	-5.5	0	0	1009.7	NA	0.0000		9999	0	0	0	0
2016/11/20 05:06:00	BASE	0.00	159	M	M	-1.2	73	-5.5	0	0	1009.7	NA	0.0000		9999	0	0	0	0
2016/11/20 05:07:00	BASE	0.00	159	M	M	-1.1	72	-5.6	0	0	1009.7	NA	0.0000		9999	0	0	0	0
2016/11/20 05:08:00	BASE	0.00	159	M	M	-1.0	71	-5.7	0	0	1009.7	NA	0.0000		9999	0	0	0	0
2016/11/20 05:09:00	BASE	0.00	159	M	M	-1.0	70	-5.8	0	0	1009.7	NA	0.0000		9999	0	0	0	0
2016/11/20 05:10:00	BASE	0.00	159	M	M	-0.9	69	-5.9	0	0	1009.7	NA	0.0000		9999	0	0	0	0
2016/11/20 05:11:00	BASE	0.00	180	M	M	-1.0	69	-5.9	0	0	1009.7	NA	0.0000		9999	0	0	0	0
2016/11/20 05:12:00	BASE	0.00	270	M	M	-1.1	70	-5.8	0	0	1009.7	NA	0.0000		9999	0	0	0	0
2016/11/20 05:13:00	BASE	0.00	299	M	M	-1.2	72	-5.6	0	0	1009.7	NA	0.0000		9999	0	0	0	0
2016/11/20 05:14:00	BASE	0.00	307	M	M	-1.3	73	-5.5	0	0	1009.7	NA	0.0000		9999	0	0	0	0
2016/11/20 05:15:00	BASE	0.00	311	M	M	-1.4	74	-5.5	0	0	1009.7	NA	0.0000		9999	0	0	0	0
2016/11/20 05:16:00	BASE	0.00	319	M	M	-1.4	74	-5.4	0	0	1009.8	NA	0.0000		9999	0	0	0	0
2016/11/20 05:17:00	BASE	0.00	324	M	M	-1.4	74	-5.5	0	0	1009.8	NA	0.0000		9999	0	0	0	0
2016/11/20 05:18:00	BASE	0.00	324	M	M	-1.5	74	-5.5	0	0	1009.7	NA	0.0000		9999	0	0	0	0
2016/11/20 05:19:00	BASE	0.00	324	M	M	-1.5	74	-5.5	0	0	1009.7	NA	0.0000		9999	0	0	0	0
2016/11/20 05:20:00	BASE	0.00	324	M	M	-1.4	74	-5.5	0	1	1009.7	NA	0.0000		9999	0	0	0	0
2016/11/20 05:21:00	BASE	0.00	324	M	M	-1.4	74	-5.5	0	0	1009.7	NA	0.0000		9999	0	0	0	0
2016/11/20 05:22:00	BASE	0.00	324	M	M	-1.4	74	-5.4	0	1	1009.7	NA	0.0000		9999	0	0	0	0
2016/11/20 05:23:00	BASE	0.00	344	M	M	-1.3	73	-5.5	0	1	1009.7	NA	0.0000		9999	0	0	0	0
2016/11/20 05:24:00	BASE	0.00	19	M	M	-1.3	73	-5.6	0	1	1009.8	NA	0.0000		9999	0	0	0	0
2016/11/20 05:25:00	BASE	0.19	34	1.18	37	-1.3	72	-5.8	0	1	1009.8	NA	0.0000		9999	0	0	0	0
2016/11/20 05:26:00	BASE	0.54	37	1.18	37	-1.3	71	-6.0	0	1	1009.8	NA	0.0000		9999	0	0	0	0
2016/11/20 05:27:00	BASE	0.35	38	1.18	37	-1.4	70	-6.2	0	1	1009.8	NA	0.0000		9999	0	0	0	0
2016/11/20 05:28:00	BASE	0.00	38	1.18	37	-1.4	69	-6.3	0	1	1009.8	NA	0.0000		9999	0	0	0	0
2016/11/20 05:29:00	BASE	0.00	38	1.18	37	-1.4	69	-6.3	0	1	1009.8	NA	0.0000		9999	0	0	0	0
2016/11/20 05:30:00	BASE	0.00	38	1.18	37	-1.3	69	-6.3	0	1	1009.8	NA	0.0000		9999	0	0	0	0
2016/11/20 05:31:00	BASE	0.00	38	1.18	37	-1.3	68	-6.3	0	1	1009.8	NA	0.0000		9999	0	0	0	0
2016/11/20 05:32:00	BASE	0.04	38	1.18	37	-1.2	68	-6.3	0	1	1009.8	NA	0.0000		9999	0	0	0	0
2016/11/20 05:33:00	BASE	0.22	38	1.18	37	-1.2	68	-6.4	0	1	1009.8	NA	0.0000		9999	0	0	0	0
2016/11/20 05:34:00	BASE	0.17	38	1.18	37	-1.2	68	-6.4	0	1	1009.8	NA	0.0000		9999	0	0	0	0
2016/11/20 05:35:00	BASE	0.00	37	1.13	37	-1.2	68	-6.4	0	1	1009.9	NA	0.0000		9999	0	0	0	0
2016/11/20 05:36:00	BASE	0.00	31	1.08	38	-1.2	68	-6.4	0	1	1009.9	NA	0.0000		9999	0	0	0	0
2016/11/20 05:37:00	BASE	0.00	24	1.08	38	-1.2	68	-6.4	0	1	1009.9	NA	0.0000		9999	0	0	0	0
2016/11/20 05:38:00	BASE	0.00	24	1.08	38	-1.2	68	-6.4	0	1	1010.0	NA	0.0000		9999	9680	0	0	0
2016/11/20 05:39:00	BASE	0.00	24	1.08	38	-1.2	68	-6.5	0	1	1009.9	NA	0.0000		9999	9680	0	0	0
2016/11/20 05:40:00	BASE	0.00	24	1.08	38	-1.2	67	-6.5	0	1	1009.9	NA	0.0000		9999	9680	0	0	0
2016/11/20 05:41:00	BASE	0.00	24	1.08	38	-1.2	67	-6.5	0	1	1009.9	NA	0.0000		9999	9650	0	0	0
2016/11/20 05:42:00	BASE	0.23	28	1.13	39	-1.2	67	-6.6	0	1	1009.8	NA	0.0000		9999	9650	0	0	0
2016/11/20 05:43:00	BASE	0.76	39	1.18	49	-1.2	67	-6.6	0	1	1009.8	NA	0.0000		9999	9580	0	0	0
2016/11/20 05:44:00	BASE	1.12	47	1.23	49	-1.3	67	-6.6	0	1	1009.8	NA	0.0000		9999	9480	0	0	0
2016/11/20 05:45:00	BASE	1.07	49	1.23	49	-1.3	67	-6.6	0	2	1009.8	NA	0.0000		9999	9480	0	0	0
2016/11/20 05:46:00	BASE	0.70	51	1.23	49	-1.4	67	-6.7	0	2	1009.8	NA	0.0000		9999	9380	0	0	0
2016/11/20 05:47:00	BASE	0.22	56	1.23	49	-1.5	68	-6.6	0	2	1009.8	NA	0.0000		9999	9420	0	0	0
2016/11/20 05:48:00	BASE	0.00	61	1.23	49	-1.5	68	-6.6	0	2	1009.8	NA	0.0000		9999	9450	0	0	0
2016/11/20 05:49:00	BASE	0.00	71	1.23	49	-1.5	68	-6.7	0	2	1009.8	NA	0.0000		9999	9450	0	0	0
2016/11/20 05:50:00	BASE	0.00	79	1.23	49	-1.5	68	-6.7	0	2	1009.8	NA	0.0000		9999	9380	0	0	0
2016/11/20 05:51:00	BASE	0.00	79	1.23	49	-1.5	68	-6.7	0	2	1009.8	NA	0.0000		9999	9420	0	0	0
2016/11/20 05:52:00	BASE	0.00	79	1.23	49	-1.5	67	-6.8	1	2	1009.8	NA	0.0000		9999	9450	0	0	0
2016/11/20 05:53:00	BASE	0.00	83	1.23	49	-1.5	66	-6.9	1	2	1009.8	NA	0.0000		9999	9420	0	0	0
2016/11/20 05:54:00	BASE	0.00	88	1.23	49	-1.4	66	-7.0	1	2	1009.8	NA	0.0000		9999	9320	0	0	0
2016/11/20 05:55:00	BASE	0.00	88	1.13	49	-1.3	65	-7.0	1	2	1009.8	NA	0.0000		9999	9350	0	0	0
2016/11/20 05:56:00	BASE	0.00	88	M	M	-1.2	65	-6.9	1	3	1009.8	NA	0.0000		9999	9350	0	0	0
2016/11/20 05:57:00	BASE	0.00	88	M	M	-1.1	65	-6.9	1	3	1009.8	NA	0.0000		9999	9350	0	0	0
2016/11/20 05:58:00	BASE	0.00	88	M	M	-1.1	65	-6.8	1	3	1009.8	NA	0.0000		9999	9380	0	0	0
2016/11/20 05:59:00	BASE	0.00	88	M	M	-1.1	66	-6.8	1	3	1009.7	NA	0.0000		9999	9380	0	0	0
2016/11/20 06:00:00	BASE	0.28	88	1.18	88	-1.2	66	-6.7	1	3	1009.7	NA	0.0000		9999	9350	0	0	0
2016/11/20 06:01:00	BASE	0.91	88	1.34	88	-1.2	67	-6.6	1	3	1009.7	NA	0.0000		9999	9320	0	0	0
2016/11/20 06:02:00	BASE	1.27	90	1.34	92	-1.2	67	-6.6	1	3	1009.7	NA	0.0000		9999	9320	0	0	0
2016/11/20 06:03:00	BASE	1.27	92	1.39	94	-1.2	67	-6.5	1	3	1009.7	NA	0.0000		9999	5510	9350	0	0
2016/11/20 06:04:00	BASE	1.22	92	1.39	94	-1.2	67	-6.5	1	4	1009.7	NA	0.0000		9999	5510	9350	0	0
2016/11/20 06:05:00	BASE	1.28	94	1.54	99	-1.1	67	-6.5	1	4	1009.7	NA	0.0000		9999	5480	9290	0	0
2016/11/20 06:06:00	BASE	1.61	95	2.06	86	-1.1	67	-6.5	1	4	1009.7	NA	0.0000		9999	9320	0	0	0
2016/11/20 06:07:00	BASE	1.84	90	2.06	86	-1.2	67	-6.6	1	4	1009.7	NA	0.0000		9999	9320	0	0	0
2016/11/20 06:08:00	BASE	1.77	92	2.06	86	-1.1	66	-6.7	1	4	1009.7	NA	0.0000		9999	9250	0	0	0
2016/11/20 06:09:00	BASE	1.68	95	2.06	86	-1.1	66	-6.7	1	4	1009.8	NA	0.0000		9999	5320	9350	0	0
2016/11/20 06:10:00	BASE	1.63	94	2.06	86	-1.1	65	-6.8	1	4	1009.8	NA	0.0000		9999	5220	9290	0	0
2016/11/20 06:11:00	BASE	1.57	94	2.06	86	-1.0	65	-6.8	1	5	1009.8	NA	0.0000		9999	5180	0	0	0
2016/11/20 06:12:00	BASE	1.56	93	2.06	86	-1.0	65	-6.8	1	5	1009.7	NA	0.0000		9999	4990	0	0	0
2016/11/20 06:13:00	BASE	1.68	87	2.42	77	-1.1	66	-6.7	1	5	1009.7	NA	0.0000		9999	4950	0	0	0
2016/11/20 06:14:00	BASE	2.10	79	2.52	76	-1.1	66	-6.6	1	5	1009.7	NA	0.0000		9999	4790	0	0	0
2016/11/20 06:15:00	BASE	2.46	76	2.57	75	-1.2	67	-6.5	1	5	1009.7	NA	0.0000		9999	4820	0	0	0
2016/11/20 06:16:00	BASE	2.42	75	2.57	75	-1.3	68	-6.5	1	5	1009.7	NA	0.0000		9999	4560	0	0	0
2016/11/20 06:17:00	BASE	2.35	74	2.57	75	-1.4	68	-6.5	1	6	1009.7	NA	0.0000		9999	4490	0	0	0
2016/11/20 06:18:00	BASE	2.36	73	2.62	73	-1.4	69	-6.4	2	6	1009.7	NA	0.0000		9999	4460	0	0	0
2016/11/20 06:19:00	BASE	2.40	75	2.62	73	-1.4	69	-6.4	2	6	1009.7	NA	0.0000		9999	4530	0	0	0
2016/11/20 06:20:00	BASE	2.46	76	2.62	75	-1.4	69	-6.4	2	6	1009.7	NA	0.0000		9999	4560	0	0	0
2016/11/20 06:21:00	BASE	2.47	77	2.62	75	-1.4	69	-6.4	2	6	1009.7	NA	0.0000		9999	4530	0	0	0
2016/11/20 06:22:00	BASE	2.38	79	2.62	75	-1.4	69	-6.3	2	7	1009.7	NA	0.0000		9999	4490	0	0	0
2016/11/20 06:23:00	BASE	2.33	79	2.62	75	-1.4	70	-6.2	2	7	1009.7	NA	0.0000		9999	4530	0	0	0
2016/11/20 06:24:00	BASE	2.46	78	2.78	74	-1.4	70	-6.2	2	7	1009.7	NA	0.0000		9999	4560	0	0	0
2016/11/20 06:25:00	BASE	2.62	75	2.78	74	-1.4	70	-6.1	2	7	1009.6	NA	0.0000		9999	4530	0	0	0
2016/11/20 06:26:00	BASE	2.68	76	2.78	79	-1.3	71	-6.0	2	8	1009.6	NA	0.0000		9999	4490	0	0	0
2016/11/20 06:27:00	BASE	2.59	81	2.78	79	-1.3	71	-6.0	2	8	1009.6	NA	0.0000		9999	4460	0	0	0
2016/11/20 06:28:00	BASE	2.43	85	2.78	79	-1.3	71	-6.0	2	8	1009.6	NA	0.0000		9999	4460	0	0	0
2016/11/20 06:29:00	BASE	2.22	90	2.78	79	-1.3	70	-6.0	2	8	1009.6	NA	0.0000		9999	4460	0	0	0
2016/11/20 06:30:00	BASE	2.09	97	2.78	79	-1.3	70	-6.0	2	8	1009.6	NA	0.0000		9999	4530	0	0	0
2016/11/20 06:31:00	BASE	2.08	99	2.78	79	-1.2	70	-6.0	2	9	1009.6	NA	0.0000		9999	4490	0	0	0
2016/11/20 06:32:00	BASE	1.91	102	2.78	79	-1.2	70	-6.0	2	9	1009.6	NA	0.0000		9999	4490	0	0	0
2016/11/20 06:33:00	BASE	1.68	105	2.78	79	-1.2	70	-6.0	2	9	1009.6	NA	0.0000		9999	4490	0	0	0
2016/11/20 06:34:00	BASE	1.03	104	2.78	79	-1.2	69	-6.1	2	10	1009.6	NA	0.0000		9999	4530	0	0	0
2016/11/20 06:35:00	BASE	0.25	102	2.78	79	-1.1	69	-6.1	2	10	1009.6	NA	0.0000		9999	4590	0	0	0
2016/11/20 06:36:00	BASE	0.00	99	2.68	78	-1.1	69	-6.2	2	10	1009.6	NA	0.0000		9999	4590	0	0	0
2016/11/20 06:37:00	BASE	0.00	99	2.52	85	-1.1	68	-6.3	3	11	1009.6	NA	0.0000		9999	4530	0	0	0
2016/11/20 06:38:00	BASE	0.05	97	2.42	101	-1.1	67	-6.4	3	11	1009.6	NA	0.0000		9999	4490	0	0	0
2016/11/20 06:39:00	BASE	0.31	81	2.42	101	-1.0	67	-6.4	3	11	1009.5	NA	0.0000		9999	4460	0	0	0
2016/11/20 06:40:00	BASE	1.30	66	2.42	65	-0.9	66	-6.5	3	12	1009.5	NA	0.0000		9999	4460	0	0	0
2016/11/20 06:41:00	BASE	2.20	58	2.57	53	-0.9	66	-6.5	3	12	1009.5	NA	0.0000		9999	4430	0	0	0
2016/11/20 06:42:00	BASE	1.63	32	2.57	53	-0.8	66	-6.4	3	13	1009.5	NA	0.0000		9999	4430	0	0	0
2016/11/20 06:43:00	BASE	0.85	3	2.57	53	-0.8	66	-6.4	3	13	1009.5	NA	0.0000		9999	4430	0	0	0
2016/11/20 06:44:00	BASE	0.94	346	2.57	53	-0.8	66	-6.4	3	14	1009.5	NA	0.0000		9999	4460	0	0	0
2016/11/20 06:45:00	BASE	0.63	341	2.57	53	-0.8	66	-6.4	4	14	1009.4	NA	0.0000		9999	4400	0	0	0
2016/11/20 06:46:00	BASE	0.09	341	2.57	53	-0.7	65	-6.5	4	15	1009.4	NA	0.0000		9999	4430	0	0	0
2016/11/20 06:47:00	BASE	0.00	341	2.57	53	-0.7	64	-6.6	4	15	1009.4	NA	0.0000		9999	4400	0	0	0
2016/11/20 06:48:00	BASE	0.00	341	2.57	53	-0.7	63	-6.8	4	16	1009.4	NA	0.0000		9999	4400	0	0	0
2016/11/20 06:49:00	BASE	0.00	341	2.57	53	-0.6	63	-6.9	4	16	1009.4	NA	0.0000		9999	4430	0	0	0
2016/11/20 06:50:00	BASE	0.00	341	2.57	53	-0.6	62	-6.9	4	17	1009.3	NA	0.0000		9999	4430	0	0	0
2016/11/20 06:51:00	BASE	0.00	342	1.75	29	-0.5	62	-6.8	4	18	1009.2	NA	0.0000		9999	4430	0	0	0
2016/11/20 06:52:00	BASE	0.09	3	1.44	343	-0.5	63	-6.7	5	18	1009.2	NA	0.0000		9999	4490	0	0	0
2016/11/20 06:53:00	BASE	0.09	23	1.44	343	-0.5	64	-6.5	5	19	1009.2	NA	0.0000		9999	4490	0	0	0
2016/11/20 06:54:00	BASE	0.00	355	1.08	22	-0.5	64	-6.5	5	20	1009.1	NA	0.0000		9999	4560	0	0	0
2016/11/20 06:55:00	BASE	0.00	331	1.08	22	-0.6	64	-6.5	5	20	1009.1	NA	0.0000		9999	4490	0	0	0
2016/11/20 06:56:00	BASE	0.00	343	1.08	22	-0.6	65	-6.4	5	21	1009.1	NA	0.0000		9999	4490	0	0	0
2016/11/20 06:57:00	BASE	0.00	1	1.08	22	-0.6	64	-6.5	6	22	1009.1	NA	0.0000		9999	4490	0	0	0
2016/11/20 06:58:00	BASE	0.00	7	1.08	22	-0.6	64	-6.5	6	23	1009.1	NA	0.0000		9999	4460	0	0	0
2016/11/20 06:59:00	BASE	0.00	5	1.08	22	-0.6	66	-6.2	6	24	1009.1	NA	0.0000		9999	4490	0	0	0
2016/11/20 07:00:00	BASE	0.00	5	1.08	22	-0.6	68	-5.8	7	25	1009.1	NA	0.0000		9999	4460	0	0	0
2016/11/20 07:01:00	BASE	0.00	332	1.08	22	-0.6	70	-5.5	7	26	1009.1	NA	0.0000		9999	4490	0	0	0
2016/11/20 07:02:00	BASE	0.00	269	M	M	-0.8	73	-5.1	7	27	1009.1	NA	0.0000		9999	4530	0	0	0
2016/11/20 07:03:00	BASE	0.00	254	M	M	-0.9	75	-4.7	8	28	1009.1	NA	0.0000		9999	4590	0	0	0
2016/11/20 07:04:00	BASE	0.00	254	M	M	-1.1	77	-4.7	8	29	1009.1	NA	0.0000		9999	4590	0	0	0
2016/11/20 07:05:00	BASE	0.00	254	M	M	-1.3	78	-4.6	9	31	1009.1	NA	0.0000		9999	4560	0	0	0
2016/11/20 07:06:00	BASE	0.00	252	M	M	-1.4	79	-4.6	9	32	1009.1	NA	0.0000		9999	4490	0	0	0
2016/11/20 07:07:00	BASE	0.04	241	1.03	233	-1.4	79	-4.6	10	34	1009.1	NA	0.0000		9999	4530	0	0	0
2016/11/20 07:08:00	BASE	0.04	232	1.03	233	-1.5	79	-4.7	11	35	1009.1	NA	0.0000		9999	4560	0	0	0
2016/11/20 07:09:00	BASE	0.00	232	1.03	233	-1.5	78	-4.8	12	37	1009.1	NA	0.0000		9999	4690	0	0	0
2016/11/20 07:10:00	BASE	0.00	236	1.03	233	-1.5	77	-5.0	12	39	1009.0	NA	0.0000		9999	4630	0	0	0
2016/11/20 07:11:00	BASE	0.00	245	1.03	233	-1.4	75	-5.2	13	41	1009.0	NA	0.0000		9999	4690	0	0	0
2016/11/20 07:12:00	BASE	0.00	255	1.03	233	-1.4	74	-5.3	14	43	1009.0	NA	0.0000		9999	4660	0	0	0
2016/11/20 07:13:00	BASE	0.00	266	1.03	233	-1.3	74	-5.3	15	45	1009.0	NA	0.0000		9999	4660	0	0	0
2016/11/20 07:14:00	BASE	0.00	274	1.03	233	-1.2	74	-5.2	15	45	1009.0	NA	0.0000		9999	4630	0	0	0
2016/11/20 07:15:00	BASE	0.00	279	1.03	233	-1.1	74	-5.2	15	46	1008.9	NA	0.0000		9999	4630	8960	0	0
2016/11/20 07:16:00	BASE	0.09	287	1.03	296	-1.1	74	-5.2	15	47	1008.9	NA	0.0000		9999	4660	0	0	0
2016/11/20 07:17:00	BASE	0.09	299	1.03	296	-1.1	73	-5.3	14	48	1008.9	NA	0.0000		9999	4590	8920	0	0
2016/11/20 07:18:00	BASE	0.00	311	1.03	296	-1.1	73	-5.4	15	49	1008.8	NA	0.0000		9999	4560	8990	0	0
2016/11/20 07:19:00	BASE	0.00	318	1.03	296	-1.2	72	-5.6	15	51	1008.8	NA	0.0000		9999	4590	8890	0	0
2016/11/20 07:20:00	BASE	0.00	325	1.03	296	-1.2	70	-5.9	15	53	1008.7	NA	0.0000		9999	4560	8860	0	0
2016/11/20 07:21:00	BASE	0.00	335	1.03	296	-1.1	70	-6.0	15	54	1008.7	NA	0.0000		9999	8920	0	0	0
2016/11/20 07:22:00	BASE	0.00	341	1.03	296	-1.1	69	-6.2	15	55	1008.7	NA	0.0000		9999	8920	0	0	0
2016/11/20 07:23:00	BASE	0.00	341	1.03	296	-1.1	68	-6.3	15	56	1008.7	NA	0.0000		9999	8960	0	0	0
2016/11/20 07:24:00	BASE	0.00	341	1.03	296	-1.1	69	-6.2	15	56	1008.6	NA	0.0000		9999	8990	0	0	0
2016/11/20 07:25:00	BASE	0.00	341	1.03	296	-1.1	70	-6.0	15	57	1008.6	NA	0.0000		9999	8960	0	0	0
2016/11/20 07:26:00	BASE	0.05	341	1.08	341	-1.2	71	-5.8	15	58	1008.7	NA	0.0000		9999	8860	0	0	0
2016/11/20 07:27:00	BASE	0.05	341	1.08	341	-1.2	71	-5.8	15	59	1008.7	NA	0.0000		9999	8960	0	0	0
2016/11/20 07:28:00	BASE	0.00	341	1.08	341	-1.1	71	-5.8	16	60	1008.6	NA	0.0000		9999	8920	0	0	0
2016/11/20 07:29:00	BASE	0.00	341	1.08	341	-1.1	70	-5.8	17	62	1008.6	NA	0.0000		9999	8890	0	0	0
2016/11/20 07:30:00	BASE	0.00	341	1.08	341	-1.0	70	-5.8	17	64	1008.6	NA	0.0000		9999	8890	0	0	0
2016/11/20 07:31:00	BASE	0.00	341	1.08	341	-1.0	70	-5.8	18	67	1008.5	NA	0.0000		9999	8920	0	0	0
2016/11/20 07:32:00	BASE	0.00	341	1.08	341	-0.9	69	-5.9	19	70	1008.4	NA	0.0000		9999	8920	0	0	0
2016/11/20 07:33:00	BASE	0.00	341	1.08	341	-0.9	69	-5.9	20	71	1008.4	NA	0.0000		9999	8960	0	0	0
2016/11/20 07:34:00	BASE	0.00	341	1.08	341	-0.9	69	-5.9	20	73	1008.4	NA	0.0000		9999	8890	0	0	0
2016/11/20 07:35:00	BASE	0.00	341	1.08	341	-0.9	69	-5.9	20	73	1008.4	NA	0.0000		9999	8920	0	0	0
2016/11/20 07:36:00	BASE	0.00	341	M	M	-0.9	69	-5.9	20	75	1008.4	NA	0.0000		9999	8890	0	0	0
2016/11/20 07:37:00	BASE	0.00	341	M	M	-0.9	70	-5.8	20	77	1008.4	NA	0.0000		9999	8960	0	0	0
2016/11/20 07:38:00	BASE	0.00	341	M	M	-1.0	71	-5.6	20	78	1008.4	NA	0.0000		9999	8890	0	0	0
2016/11/20 07:39:00	BASE	0.00	341	M	M	-0.9	70	-5.7	21	79	1008.4	NA	0.0000		9999	8920	0	0	0
2016/11/20 07:40:00	BASE	0.00	341	M	M	-0.9	69	-5.9	21	81	1008.4	NA	0.0000		9999	8960	0	0	0
2016/11/20 07:41:00	BASE	0.00	341	M	M	-0.8	67	-6.1	22	84	1008.4	NA	0.0000		9999	8920	0	0	0
2016/11/20 07:42:00	BASE	0.00	341	M	M	-0.7	66	-6.2	23	87	1008.4	NA	0.0000		9999	8920	0	0	0
2016/11/20 07:43:00	BASE	0.00	341	M	M	-0.7	66	-6.3	25	90	1008.4	NA	0.0000		9999	8960	0	0	0
2016/11/20 07:44:00	BASE	0.00	341	M	M	-0.8	67	-6.2	26	93	1008.4	NA	0.0000		9999	8960	0	0	0
2016/11/20 07:45:00	BASE	0.00	341	M	M	-0.9	69	-5.9	27	96	1008.4	NA	0.0000		9999	8960	0	0	0
2016/11/20 07:46:00	BASE	0.30	312	1.39	263	-1.0	71	-5.6	28	99	1008.4	NA	0.0000		9999	8990	0	0	0
2016/11/20 07:47:00	BASE	0.69	277	1.39	276	-1.1	73	-5.4	28	102	1008.4	NA	0.0000		9999	8960	0	0	0
2016/11/20 07:48:00	BASE	0.39	276	1.39	276	-1.2	74	-5.3	30	107	1008.4	NA	0.0000		9999	8960	0	0	0
2016/11/20 07:49:00	BASE	0.00	281	1.39	276	-1.2	75	-5.2	30	108	1008.4	NA	0.0000		9999	4920	8990	0	0
2016/11/20 07:50:00	BASE	0.00	287	1.39	276	-1.2	75	-5.0	30	109	1008.4	NA	0.0000		9999	4820	9020	0	0
2016/11/20 07:51:00	BASE	0.00	287	1.39	276	-1.2	76	-5.0	29	109	1008.4	NA	0.0000		9999	4760	0	0	0
2016/11/20 07:52:00	BASE	0.00	287	1.39	276	-1.2	76	-4.9	29	109	1008.4	NA	0.0000		9999	4720	0	0	0
2016/11/20 07:53:00	BASE	0.00	287	1.39	276	-1.2	76	-4.9	30	112	1008.4	NA	0.0000		9999	4720	0	0	0
2016/11/20 07:54:00	BASE	0.00	287	1.39	276	-1.1	75	-5.0	30	114	1008.4	NA	0.0000		9999	4660	0	0	0
2016/11/20 07:55:00	BASE	0.00	287	1.39	276	-1.1	74	-5.1	31	116	1008.4	NA	0.0000		9999	4660	0	0	0
2016/11/20 07:56:00	BASE	0.00	287	1.39	276	-1.1	74	-5.2	32	121	1008.4	NA	0.0000		9999	4590	0	0	0
2016/11/20 07:57:00	BASE	0.00	287	M	M	-1.1	74	-5.2	34	125	1008.4	NA	0.0000		9999	4590	0	0	0
2016/11/20 07:58:00	BASE	0.00	287	M	M	-1.2	74	-5.2	37	132	1008.4	NA	0.0000		9999	4590	0	0	0
2016/11/20 07:59:00	BASE	0.00	287	M	M	-1.3	75	-5.1	41	142	1008.4	NA	0.0000		9999	4430	0	0	0
2016/11/20 08:00:00	BASE	0.00	287	M	M	-1.4	76	-5.0	47	155	1008.4	NA	0.0000		9999	4530	0	0	0
2016/11/20 08:01:00	BASE	0.00	285	M	M	-1.4	77	-5.0	55	169	1008.4	NA	0.0000		9999	4530	0	0	0
2016/11/20 08:02:00	BASE	0.00	213	M	M	-1.4	77	-5.0	61	183	1008.4	NA	0.0000		9999	4530	0	0	0
2016/11/20 08:03:00	BASE	0.00	152	M	M	-1.4	77	-4.9	67	196	1008.4	NA	0.0000		9999	4560	0	0	0
2016/11/20 08:04:00	BASE	0.00	151	M	M	-1.4	77	-4.9	73	208	1008.4	NA	0.0000		9999	4560	0	0	0
2016/11/20 08:05:00	BASE	0.00	151	M	M	-1.4	77	-4.9	78	220	1008.4	NA	0.0000		9999	4460	0	0	0
2016/11/20 08:06:00	BASE	0.00	151	M	M	-1.4	77	-4.9	82	227	1008.4	NA	0.0000		9999	4400	0	0	0
2016/11/20 08:07:00	BASE	0.00	151	M	M	-1.4	77	-4.9	84	233	1008.4	NA	0.0000		9999	4560	0	0	0
2016/11/20 08:08:00	BASE	0.00	151	M	M	-1.4	76	-5.0	85	237	1008.5	NA	0.0000		9999	4560	0	0	0
2016/11/20 08:09:00	BASE	0.13	152	1.08	152	-1.4	76	-5.1	86	240	1008.6	NA	0.0000		9999	4460	0	0	0
2016/11/20 08:10:00	BASE	0.13	152	1.08	152	-1.5	77	-5.0	86	241	1008.6	NA	0.0000		9999	4400	0	0	0
2016/11/20 08:11:00	BASE	0.00	152	1.08	152	-1.6	78	-4.9	86	242	1008.6	NA	0.0000		9999	4300	0	0	0
2016/11/20 08:12:00	BASE	0.00	151	1.08	152	-1.6	79	-4.8	95	259	1008.6	NA	0.0000		9999	4430	0	0	0
2016/11/20 08:13:00	BASE	0.00	151	1.08	152	-1.7	81	-4.6	112	287	1008.6	NA	0.0000		9999	4230	0	0	0
2016/11/20 08:14:00	BASE	0.00	151	1.08	152	-1.6	82	-4.4	143	342	1008.6	NA	0.0000		9999	4300	0	0	0
2016/11/20 08:15:00	BASE	0.00	151	1.08	152	-1.6	82	-4.3	161	373	1008.6	NA	0.0000		9999	4330	0	0	0
2016/11/20 08:16:00	BASE	0.00	151	1.08	152	-1.5	82	-4.2	122	304	1008.6	NA	0.0000		9999	4360	0	0	0
2016/11/20 08:17:00	BASE	0.00	151	1.08	152	-1.5	82	-4.2	80	228	1008.6	NA	0.0000		9999	4270	0	0	0
2016/11/20 08:18:00	BASE	0.00	157	1.08	152	-1.4	81	-4.3	78	225	1008.7	NA	0.0000		9999	4230	0	0	0
2016/11/20 08:19:00	BASE	0.09	187	1.18	195	-1.4	80	-4.3	79	227	1008.7	NA	0.0000		9999	4300	0	0	0
2016/11/20 08:20:00	BASE	0.86	198	1.70	183	-1.4	80	-4.4	80	230	1008.7	NA	0.0000		9999	4270	0	0	0
2016/11/20 08:21:00	BASE	1.77	183	2.26	179	-1.5	80	-4.4	85	241	1008.8	NA	0.0000		9999	4170	0	0	0
2016/11/20 08:22:00	BASE	2.05	170	2.26	179	-1.5	81	-4.3	81	233	1008.8	NA	0.0000		9999	4100	0	0	0
2016/11/20 08:23:00	BASE	2.05	155	2.26	153	-1.6	82	-4.3	76	223	1008.8	NA	0.0000		9999	4170	0	0	0
2016/11/20 08:24:00	BASE	2.00	147	2.26	153	-1.7	83	-4.2	77	225	1008.7	NA	0.0000		9999	4130	0	0	0
2016/11/20 08:25:00	BASE	1.95	147	2.31	147	-1.7	84	-4.1	77	226	1008.7	NA	0.0000		9999	4100	0	0	0
2016/11/20 08:26:00	BASE	1.84	148	2.31	147	-1.7	84	-4.1	76	226	1008.7	NA	0.0000		9999	4070	0	0	0
2016/11/20 08:27:00	BASE	1.74	151	2.31	147	-1.7	83	-4.2	75	223	1008.7	NA	0.0000		9999	4070	0	0	0
2016/11/20 08:28:00	BASE	1.78	156	2.31	147	-1.7	83	-4.3	74	223	1008.7	NA	0.0000		9999	4040	0	0	0
2016/11/20 08:29:00	BASE	2.22	155	2.88	150	-1.7	82	-4.3	73	221	1008.7	NA	0.0000		9999	4040	0	0	0
2016/11/20 08:30:00	BASE	2.60	151	2.88	147	-1.7	81	-4.5	71	218	1008.7	NA	0.0000		9999	3940	0	0	0
2016/11/20 08:31:01	BASE	2.69	148	2.88	147	-1.7	81	-4.6	70	215	1008.7	NA	0.0000		9999	4000	0	0	0
2016/11/20 08:32:00	BASE	2.64	146	2.88	147	-1.6	80	-4.7	68	214	1008.7	NA	0.0000		9999	4000	0	0	0
2016/11/20 08:33:01	BASE	2.49	142	2.88	147	-1.6	79	-4.7	67	211	1008.8	NA	0.0000		9999	3940	0	0	0
2016/11/20 08:34:00	BASE	2.44	140	2.88	147	-1.5	79	-4.8	67	210	1008.7	NA	0.0000		9999	4000	0	0	0
2016/11/20 08:35:01	BASE	2.39	138	2.88	147	-1.5	78	-4.8	67	211	1008.7	NA	0.0000		9999	3970	0	0	0
2016/11/20 08:36:00	BASE	2.41	136	2.88	147	-1.4	78	-4.8	66	211	1008.7	NA	0.0000		9999	4040	0	0	0
2016/11/20 08:37:00	BASE	2.44	136	2.88	147	-1.4	78	-4.8	65	209	1008.7	NA	0.0000		9999	4040	0	0	0
2016/11/20 08:38:01	BASE	2.36	137	2.88	147	-1.4	78	-4.7	64	207	1008.7	NA	0.0000		9999	4070	0	0	0
2016/11/20 08:39:01	BASE	2.25	136	2.88	147	-1.4	78	-4.7	63	206	1008.8	NA	0.0000		9999	4070	0	0	0
2016/11/20 08:40:01	BASE	2.01	133	2.88	147	-1.4	78	-4.7	63	205	1008.8	NA	0.0000		9999	4000	0	0	0
2016/11/20 08:41:01	BASE	1.81	133	2.78	145	-1.4	79	-4.6	63	206	1008.8	NA	0.0000		9999	4040	0	0	0
2016/11/20 08:42:01	BASE	1.70	133	2.62	137	-1.4	79	-4.6	63	207	1008.8	NA	0.0000		9999	4040	0	0	0
2016/11/20 08:43:01	BASE	1.32	131	2.62	137	-1.4	79	-4.6	63	206	1008.8	NA	0.0000		9999	4070	0	0	0
2016/11/20 08:44:01	BASE	0.61	130	2.62	137	-1.4	79	-4.5	63	207	1008.8	NA	0.0000		9999	4070	0	0	0
2016/11/20 08:45:01	BASE	0.09	130	2.57	133	-1.4	79	-4.5	63	206	1008.9	NA	0.0000		9999	4100	0	0	0
2016/11/20 08:46:01	BASE	0.23	132	2.52	138	-1.3	79	-4.6	62	206	1008.9	NA	0.0000		9999	4070	0	0	0
2016/11/20 08:47:01	BASE	0.99	137	2.42	137	-1.3	78	-4.7	62	205	1008.9	NA	0.0000		9999	4070	0	0	0
2016/11/20 08:48:01	BASE	1.53	138	2.42	137	-1.3	77	-4.7	61	203	1008.9	NA	0.0000		9999	4040	0	0	0
2016/11/20 08:49:01	BASE	1.45	132	1.95	134	-1.2	77	-4.8	60	203	1008.9	NA	0.0000		9999	4000	0	0	0
2016/11/20 08:50:01	BASE	1.38	127	1.95	134	-1.2	76	-4.9	60	202	1008.9	NA	0.0000		9999	4040	0	0	0
2016/11/20 08:51:01	BASE	1.40	119	1.85	105	-1.3	76	-4.9	59	202	1008.9	NA	0.0000		9999	4040	0	0	0
2016/11/20 08:52:01	BASE	1.40	112	1.85	105	-1.3	76	-4.9	59	202	1008.9	NA	0.0000		9999	4040	0	0	0
2016/11/20 08:53:01	BASE	1.23	111	1.85	105	-1.3	76	-5.0	60	204	1008.9	NA	0.0000		9999	4000	0	0	0
2016/11/20 08:54:01	BASE	0.91	111	1.85	105	-1.3	76	-5.0	60	204	1008.9	NA	0.0000		9999	3970	0	0	0
2016/11/20 08:55:01	BASE	0.64	107	1.85	105	-1.3	76	-5.1	60	205	1008.9	NA	0.0000		9999	4000	0	0	0
2016/11/20 08:56:01	BASE	0.28	98	1.85	105	-1.3	75	-5.2	60	206	1009.0	NA	0.0000		9999	4000	0	0	0
2016/11/20 08:57:01	BASE	0.05	62	1.85	105	-1.3	75	-5.1	61	208	1009.0	NA	0.0000		9999	4000	0	0	0
2016/11/20 08:58:01	BASE	0.82	22	1.85	105	-1.2	76	-4.9	61	210	1009.0	NA	0.0000		9999	4000	0	0	0
2016/11/20 08:59:01	BASE	1.47	18	1.85	16	-1.2	76	-4.8	62	213	1009.0	NA	0.0000		9999	4000	0	0	0
2016/11/20 09:00:01	BASE	0.74	25	1.85	16	-1.1	77	-4.7	63	216	1008.9	NA	0.0000		9999	4040	0	0	0
2016/11/20 09:01:01	BASE	0.05	29	1.85	16	-1.1	77	-4.7	64	221	1008.9	NA	0.0000		9999	4000	0	0	0
2016/11/20 09:02:01	BASE	0.04	31	1.85	16	-1.1	77	-4.6	66	225	1008.9	NA	0.0000		9999	3970	0	0	0
2016/11/20 09:03:01	BASE	0.13	33	1.85	16	-1.1	77	-4.6	67	230	1008.9	NA	0.0000		9999	3970	4690	0	0
2016/11/20 09:04:01	BASE	0.22	33	1.85	16	-1.1	77	-4.6	69	236	1008.9	NA	0.0000		9999	4000	23130	0	0
2016/11/20 09:05:01	BASE	0.13	33	1.85	16	-1.0	77	-4.6	72	242	1008.9	NA	0.0000		9999	4040	0	0	0
2016/11/20 09:06:01	BASE	0.23	33	1.85	16	-1.0	77	-4.5	74	251	1008.8	NA	0.0000		9999	4000	4530	0	0
2016/11/20 09:07:01	BASE	0.54	29	1.85	16	-1.0	77	-4.6	78	261	1008.8	NA	0.0000		9999	4040	0	0	0
2016/11/20 09:08:01	BASE	0.64	18	1.85	16	-1.1	77	-4.6	84	275	1008.8	NA	0.0000		9999	4070	0	0	0
2016/11/20 09:09:01	BASE	0.41	6	1.18	18	-1.1	77	-4.7	91	293	1008.8	NA	0.0000		9999	4040	0	0	0
2016/11/20 09:10:01	BASE	0.47	0	1.29	360	-1.1	77	-4.6	98	312	1008.8	NA	0.0000		9999	4000	0	0	0
2016/11/20 09:11:01	BASE	0.96	2	1.29	360	-1.1	78	-4.5	104	327	1008.9	NA	0.0000		9999	4070	0	0	0
2016/11/20 09:12:01	BASE	1.02	8	1.29	360	-1.1	78	-4.4	108	337	1008.9	NA	0.0000		9999	4270	0	0	0
2016/11/20 09:13:01	BASE	0.49	13	1.29	360	-1.1	79	-4.3	110	343	1008.9	NA	0.0000		9999	4130	0	0	0
2016/11/20 09:14:01	BASE	0.04	13	1.29	360	-1.1	79	-4.3	109	342	1008.9	NA	0.0000		9999	4100	4560	0	0
2016/11/20 09:15:01	BASE	0.00	13	1.29	360	-1.1	79	-4.3	107	339	1008.8	NA	0.0000		9999	4100	4590	0	0
2016/11/20 09:16:01	BASE	0.00	13	1.29	360	-1.1	78	-4.4	105	337	1008.8	NA	0.0000		9999	4170	0	0	0
2016/11/20 09:17:01	BASE	0.00	13	1.29	360	-1.0	77	-4.6	105	336	1008.8	NA	0.0000		9999	4490	0	0	0
2016/11/20 09:18:01	BASE	0.00	13	1.29	360	-1.0	76	-4.7	104	335	1008.8	NA	0.0000		9999	4460	0	0	0
2016/11/20 09:19:01	BASE	0.00	14	1.29	360	-0.9	75	-4.8	103	333	1008.8	NA	0.0000		9999	4530	0	0	0
2016/11/20 09:20:01	BASE	0.00	14	1.23	14	-0.9	74	-5.0	102	329	1008.8	NA	0.0000		9999	4200	0	0	0
2016/11/20 09:21:01	BASE	0.00	13	1.18	14	-0.9	73	-5.2	99	323	1008.8	NA	0.0000		9999	4100	0	0	0
2016/11/20 09:22:01	BASE	0.00	13	1.03	13	-0.9	72	-5.3	96	318	1008.8	NA	0.0000		9999	4100	4530	0	0
2016/11/20 09:23:01	BASE	0.00	13	M	M	-0.8	72	-5.3	95	312	1008.8	NA	0.0000		9999	4490	0	0	0
2016/11/20 09:24:01	BASE	0.00	13	M	M	-0.9	71	-5.4	94	310	1008.8	NA	0.0000		9999	4530	0	0	0
2016/11/20 09:25:01	BASE	0.00	13	M	M	-0.8	71	-5.4	94	310	1008.8	NA	0.0000		9999	4460	0	0	0
2016/11/20 09:26:01	BASE	0.00	13	M	M	-0.7	71	-5.4	94	310	1008.8	NA	0.0000		9999	4560	0	0	0
2016/11/20 09:27:01	BASE	0.00	13	M	M	-0.7	71	-5.4	94	311	1008.8	NA	0.0000		9999	4490	0	0	0
2016/11/20 09:28:01	BASE	0.00	6	M	M	-0.7	71	-5.4	94	311	1008.8	NA	0.0000		9999	4530	0	0	0
2016/11/20 09:29:01	BASE	0.00	335	M	M	-0.7	71	-5.3	93	312	1008.7	NA	0.0000		9999	4560	0	0	0
2016/11/20 09:30:01	BASE	0.00	318	M	M	-0.8	72	-5.2	93	311	1008.7	NA	0.0000		9999	4560	0	0	0
2016/11/20 09:31:01	BASE	0.00	328	M	M	-0.8	73	-5.0	93	311	1008.7	NA	0.0000		9999	4490	0	0	0
2016/11/20 09:32:01	BASE	0.00	334	M	M	-0.9	74	-4.9	93	314	1008.7	NA	0.0000		9999	4530	0	0	0
2016/11/20 09:33:01	BASE	0.00	334	M	M	-0.9	75	-4.7	94	316	1008.7	NA	0.0000		9999	4560	0	0	0
2016/11/20 09:34:01	BASE	0.00	334	M	M	-1.0	76	-4.6	95	320	1008.6	NA	0.0000		9999	4530	0	0	0
2016/11/20 09:35:01	BASE	0.00	335	M	M	-1.1	77	-4.6	96	322	1008.6	NA	0.0000		9999	4530	0	0	0
2016/11/20 09:36:01	BASE	0.00	335	M	M	-1.1	78	-4.5	98	328	1008.6	NA	0.0000		9999	4590	0	0	0
2016/11/20 09:37:01	BASE	0.00	348	M	M	-1.1	79	-4.3	101	335	1008.6	NA	0.0000		9999	4590	0	0	0
2016/11/20 09:38:01	BASE	0.00	7	M	M	-1.1	79	-4.3	103	341	1008.6	NA	0.0000		9999	4590	0	0	0
2016/11/20 09:39:01	BASE	0.00	20	M	M	-1.1	79	-4.2	103	343	1008.6	NA	0.0000		9999	4590	0	0	0
2016/11/20 09:40:01	BASE	0.00	30	M	M	-1.1	78	-4.4	102	341	1008.6	NA	0.0000		9999	4590	0	0	0
2016/11/20 09:41:01	BASE	0.00	32	M	M	-1.0	77	-4.5	101	338	1008.6	NA	0.0000		9999	4590	0	0	0
2016/11/20 09:42:01	BASE	0.00	33	M	M	-1.0	76	-4.7	99	334	1008.5	NA	0.0000		9999	4630	0	0	0
2016/11/20 09:43:01	BASE	0.00	33	M	M	-0.9	74	-5.0	98	332	1008.4	NA	0.0000		9999	4630	0	0	0
2016/11/20 09:44:01	BASE	0.00	33	M	M	-0.8	72	-5.2	98	331	1008.4	NA	0.0000		9999	4560	0	0	0
2016/11/20 09:45:01	BASE	0.00	33	M	M	-0.7	71	-5.3	97	331	1008.4	NA	0.0000		9999	4530	0	0	0
2016/11/20 09:46:01	BASE	0.00	33	M	M	-0.7	70	-5.4	96	329	1008.4	NA	0.0000		9999	4460	0	0	0
2016/11/20 09:47:01	BASE	0.00	33	M	M	-0.6	70	-5.5	96	327	1008.4	NA	0.0000		9999	4460	22310	0	0
2016/11/20 09:48:01	BASE	0.00	52	M	M	-0.7	70	-5.5	95	326	1008.4	NA	0.0000		9999	4530	0	0	0
2016/11/20 09:49:01	BASE	0.00	75	M	M	-0.7	70	-5.5	95	326	1008.4	NA	0.0000		9999	4560	0	0	0
2016/11/20 09:50:01	BASE	0.00	78	M	M	-0.8	70	-5.5	95	327	1008.4	NA	0.0000		9999	4590	0	0	0
2016/11/20 09:51:01	BASE	0.00	78	M	M	-0.8	70	-5.5	95	325	1008.4	NA	0.0000		9999	4560	0	0	0
2016/11/20 09:52:01	BASE	0.00	77	M	M	-0.7	70	-5.6	94	324	1008.4	NA	0.0000		9999	4560	0	0	0
2016/11/20 09:53:01	BASE	0.00	21	M	M	-0.6	69	-5.6	94	324	1008.4	NA	0.0000		9999	4460	0	0	0
2016/11/20 09:54:01	BASE	0.00	326	M	M	-0.5	68	-5.7	95	327	1008.4	NA	0.0000		9999	4560	0	0	0
2016/11/20 09:55:01	BASE	0.00	320	M	M	-0.4	67	-5.8	97	335	1008.4	NA	0.0000		9999	4560	0	0	0
2016/11/20 09:56:01	BASE	0.00	314	M	M	-0.3	67	-5.7	102	348	1008.4	NA	0.0000		9999	4530	0	0	0
2016/11/20 09:57:01	BASE	0.00	313	M	M	-0.3	68	-5.5	108	365	1008.4	NA	0.0000		9999	4530	0	0	0
2016/11/20 09:58:01	BASE	0.00	313	M	M	-0.3	69	-5.4	115	381	1008.4	NA	0.0000		9999	4560	0	0	0
2016/11/20 09:59:01	BASE	0.00	312	M	M	-0.4	70	-5.3	121	398	1008.4	NA	0.0000		9999	4490	0	0	0
2016/11/20 10:00:01	BASE	0.00	312	M	M	-0.5	72	-5.0	125	410	1008.4	NA	0.0000		9999	4530	0	0	0
2016/11/20 10:01:01	BASE	0.00	312	M	M	-0.6	73	-4.8	127	414	1008.4	NA	0.0000		9999	4560	0	0	0
2016/11/20 10:02:01	BASE	0.00	312	M	M	-0.7	74	-4.8	127	415	1008.4	NA	0.0000		9999	4530	0	0	0
2016/11/20 10:03:01	BASE	0.00	312	M	M	-0.7	75	-4.6	127	416	1008.4	NA	0.0000		9999	4630	0	0	0
2016/11/20 10:04:01	BASE	0.00	312	M	M	-0.7	75	-4.5	128	420	1008.4	NA	0.0000		9999	4530	0	0	0
2016/11/20 10:05:01	BASE	0.00	312	M	M	-0.7	75	-4.5	128	421	1008.4	NA	0.0000		9999	4490	24410	0	0
2016/11/20 10:06:01	BASE	0.00	292	M	M	-0.7	75	-4.6	128	421	1008.4	NA	0.0000		9999	4460	0	0	0
2016/11/20 10:07:01	BASE	0.05	269	1.08	262	-0.7	75	-4.7	128	422	1008.4	NA	0.0000		9999	4530	0	0	0
2016/11/20 10:08:01	BASE	0.53	267	1.29	271	-0.7	74	-4.7	130	430	1008.4	NA	0.0000		9999	4490	0	0	0
2016/11/20 10:09:01	BASE	1.12	270	1.39	271	-0.7	74	-4.8	133	438	1008.4	NA	0.0000		9999	4630	0	0	0
2016/11/20 10:10:01	BASE	1.30	270	1.39	271	-0.7	73	-4.9	138	449	1008.4	NA	0.0000		9999	4530	0	0	0
2016/11/20 10:11:01	BASE	1.29	261	1.39	271	-0.6	72	-5.0	141	457	1008.4	NA	0.0000		9999	4530	0	0	0
2016/11/20 10:12:01	BASE	1.31	249	1.59	250	-0.6	72	-5.0	141	456	1008.4	NA	0.0000		9999	4530	0	0	0
2016/11/20 10:13:01	BASE	1.53	241	1.90	236	-0.6	72	-5.0	138	450	1008.4	NA	0.0000		9999	4660	0	0	0
2016/11/20 10:14:01	BASE	1.81	234	2.06	233	-0.7	73	-5.0	135	443	1008.4	NA	0.0000		9999	4660	0	0	0
2016/11/20 10:15:01	BASE	1.77	224	2.06	233	-0.8	74	-4.8	133	437	1008.4	NA	0.0000		9999	4660	0	0	0
2016/11/20 10:16:01	BASE	1.51	204	2.06	233	-0.9	76	-4.6	131	432	1008.4	NA	0.0000		9999	4760	0	0	0
2016/11/20 10:17:01	BASE	1.53	187	2.06	233	-1.0	78	-4.4	130	430	1008.3	NA	0.0000		9999	4820	0	0	0
2016/11/20 10:18:01	BASE	1.45	179	2.06	233	-1.1	80	-4.2	132	436	1008.3	NA	0.0000		9999	4890	0	0	0
2016/11/20 10:19:01	BASE	0.90	177	2.06	233	-1.2	81	-4.1	138	452	1008.3	NA	0.0000		9999	4660	0	0	0
2016/11/20 10:20:01	BASE	0.28	174	2.06	233	-1.2	81	-4.0	148	480	1008.3	NA	0.0000		9999	4560	0	0	0
2016/11/20 10:21:01	BASE	0.00	159	2.06	233	-1.2	82	-3.9	161	514	1008.3	NA	0.0000		9999	4360	0	0	0
2016/11/20 10:22:01	BASE	0.18	150	2.06	233	-1.2	82	-3.9	169	537	1008.3	NA	0.0000		9999	4400	0	0	0
2016/11/20 10:23:01	BASE	0.18	155	2.06	233	-1.2	82	-4.0	171	544	1008.3	NA	0.0000		9999	4330	0	0	0
2016/11/20 10:24:01	BASE	0.00	157	1.85	175	-1.2	81	-4.0	170	544	1008.3	NA	0.0000		9999	4360	0	0	0
2016/11/20 10:25:01	BASE	0.00	164	1.85	175	-1.2	81	-4.0	170	544	1008.3	NA	0.0000		9999	4000	0	0	0
2016/11/20 10:26:01	BASE	0.00	174	1.85	175	-1.2	81	-4.1	172	550	1008.3	NA	0.0000		9999	3900	0	0	0
2016/11/20 10:27:01	BASE	0.00	178	1.44	180	-1.2	80	-4.2	175	560	1008.3	NA	0.0000		9999	3740	0	0	0
2016/11/20 10:28:01	BASE	0.00	178	1.18	177	-1.2	80	-4.2	178	570	1008.3	NA	0.0000		9999	3670	4630	0	0
2016/11/20 10:29:01	BASE	0.00	178	1.13	156	-1.2	80	-4.2	183	584	1008.3	NA	0.0000		9999	3710	21290	0	0
2016/11/20 10:30:01	BASE	0.00	178	1.13	156	-1.2	79	-4.3	187	597	1008.3	NA	0.0000		9999	4200	0	0	0
2016/11/20 10:31:01	BASE	0.00	173	1.13	156	-1.2	79	-4.3	188	600	1008.3	NA	0.0000		9999	4230	0	0	0
2016/11/20 10:32:01	BASE	0.00	144	M	M	-1.2	80	-4.3	188	591	1008.3	NA	0.0000		9999	4230	0	0	0
2016/11/20 10:33:01	BASE	M	M	M	M	-1.2	80	-4.3	188	591	M	NA	0.0000		M	4230	0	0	0
2016/11/20 10:34:01	BASE	M	M	M	M	-1.2	80	-4.2	178	572	1008.3	NA	0.0000		9999	4040	0	0	0
2016/11/20 10:35:01	BASE	0.00	106	M	M	-1.2	80	-4.1	175	565	1008.2	NA	0.0000		9999	4300	0	0	0
2016/11/20 10:36:01	BASE	0.00	106	M	M	-1.1	81	-4.0	175	565	1008.2	NA	0.0000		9999	3710	0	0	0
2016/11/20 10:37:01	BASE	0.00	106	M	M	-1.1	80	-4.1	177	569	1008.2	NA	0.0000		9999	3580	4630	0	0
2016/11/20 10:38:01	BASE	0.00	106	M	M	-1.1	80	-4.1	180	574	1008.2	NA	0.0000		9999	4630	0	0	0
2016/11/20 10:39:01	BASE	0.00	106	M	M	-1.1	79	-4.2	182	576	1008.1	NA	0.0000		9999	4660	0	0	0
2016/11/20 10:40:01	BASE	0.00	106	M	M	-1.1	79	-4.3	184	584	1008.1	NA	0.0000		9999	4660	0	0	0
2016/11/20 10:41:01	BASE	0.00	106	M	M	-1.1	79	-4.3	188	588	1008.0	NA	0.0000		9999	4590	0	0	0
2016/11/20 10:42:01	BASE	0.00	106	M	M	-1.1	79	-4.3	190	598	1008.0	NA	0.0000		9999	4560	0	0	0
2016/11/20 10:43:01	BASE	0.00	106	M	M	-1.1	79	-4.3	190	599	1008.0	NA	0.0000		9999	4590	0	0	0
2016/11/20 10:44:01	BASE	0.00	106	M	M	-1.1	79	-4.4	189	595	1008.0	NA	0.0000		9999	4630	0	0	0
2016/11/20 10:45:01	BASE	0.00	106	M	M	-1.1	78	-4.3	187	591	1008.0	NA	0.0000		9999	4660	0	0	0
2016/11/20 10:46:01	BASE	0.00	106	M	M	-1.0	78	-4.3	185	589	1008.0	NA	0.0000		9999	4820	0	0	0
2016/11/20 10:47:01	BASE	0.00	106	M	M	-1.0	78	-4.3	184	588	1008.0	NA	0.0000		9999	4860	0	0	0
2016/11/20 10:48:01	BASE	0.00	106	M	M	-0.9	78	-4.4	183	586	1008.0	NA	0.0000		9999	4890	0	0	0
2016/11/20 10:49:01	BASE	0.00	106	M	M	-0.9	78	-4.3	181	581	1008.0	NA	0.0000		9999	4790	19620	0	0
2016/11/20 10:50:01	BASE	0.00	106	M	M	-0.9	78	-4.3	180	578	1008.0	NA	0.0000		9999	4790	0	0	0
2016/11/20 10:51:00	BASE	0.00	106	M	M	-0.9	78	-4.3	180	579	1008.0	NA	0.0000		9999	4760	0	0	0
2016/11/20 10:52:00	BASE	0.00	106	M	M	-0.9	78	-4.2	181	583	1008.0	NA	0.0000		9999	4760	0	0	0
2016/11/20 10:53:00	BASE	0.00	106	M	M	-0.9	79	-4.1	182	585	1008.0	NA	0.0000		9999	4760	0	0	0
2016/11/20 10:54:00	BASE	0.00	106	M	M	-0.8	79	-4.0	183	589	1008.0	NA	0.0000		9999	4790	0	0	0
2016/11/20 10:55:00	BASE	0.00	106	M	M	-0.8	79	-3.9	185	596	1008.0	NA	0.0000		9999	4760	0	0	0
2016/11/20 10:56:00	BASE	0.00	106	M	M	-0.7	79	-3.8	188	604	1007.9	NA	0.0000		9999	4760	0	0	0
2016/11/20 10:57:00	BASE	0.00	106	M	M	-0.8	79	-3.9	191	612	1007.9	NA	0.0000		9999	4720	0	0	0
2016/11/20 10:58:00	BASE	0.00	106	M	M	-0.8	80	-3.9	193	615	1007.9	NA	0.0000		9999	4690	0	0	0
2016/11/20 10:59:00	BASE	0.00	106	M	M	-0.8	80	-3.9	196	621	1007.9	NA	0.0000		9999	4660	0	0	0
2016/11/20 11:00:00	BASE	0.00	106	M	M	-0.9	80	-3.9	200	631	1007.8	NA	0.0000		9999	4660	0	0	0
2016/11/20 11:01:00	BASE	0.00	106	M	M	-0.9	80	-4.0	204	642	1007.8	NA	0.0000		9999	4630	0	0	0
2016/11/20 11:02:00	BASE	0.00	106	M	M	-0.9	80	-4.0	208	652	1007.8	NA	0.0000		9999	4630	0	0	0
2016/11/20 11:03:00	BASE	0.00	106	M	M	-0.9	79	-4.0	212	663	1007.8	NA	0.0000		9999	4690	0	0	0
2016/11/20 11:04:00	BASE	0.00	106	M	M	-0.9	79	-4.0	215	672	1007.8	NA	0.0000		9999	4720	0	0	0
2016/11/20 11:05:00	BASE	0.00	106	M	M	-0.8	79	-4.0	215	677	1007.7	NA	0.0000		9999	4760	18570	19650	0
2016/11/20 11:06:00	BASE	0.00	106	M	M	-0.8	79	-4.0	215	674	1007.7	NA	0.0000		9999	4690	0	0	0
2016/11/20 11:07:00	BASE	0.00	106	M	M	-0.7	78	-4.0	215	675	1007.7	NA	0.0000		9999	4720	0	0	0
2016/11/20 11:08:00	BASE	0.00	106	M	M	-0.6	78	-4.0	216	676	1007.7	NA	0.0000		9999	4760	0	0	0
2016/11/20 11:09:00	BASE	0.00	106	M	M	-0.6	78	-4.0	216	680	1007.7	NA	0.0000		9999	4790	0	0	0
2016/11/20 11:10:00	BASE	0.00	106	M	M	-0.7	78	-4.0	216	679	1007.7	NA	0.0000		9999	4790	0	0	0
2016/11/20 11:11:00	BASE	0.00	106	M	M	-0.8	78	-4.1	217	679	1007.7	NA	0.0000		9999	4760	0	0	0
2016/11/20 11:12:00	BASE	0.00	106	M	M	-0.8	79	-4.1	217	682	1007.7	NA	0.0000		9999	4720	17880	0	0
2016/11/20 11:14:13	BASE	M	M	M	M	-0.9	79	-4.1	218	680	M	NA	0.0000		M	4760	0	0	0
2016/11/20 11:15:01	BASE	M	M	M	M	-0.9	79	-4.1	220	689	1007.6	NA	0.0000		9999	4760	0	0	0
2016/11/20 11:16:01	BASE	0.00	330	M	M	-0.8	79	-4.0	221	691	1007.6	NA	0.0000		9999	4760	0	0	0
2016/11/20 11:17:00	BASE	0.00	320	M	M	-0.7	78	-4.0	223	695	1007.6	NA	0.0000		9999	4790	0	0	0
2016/11/20 11:18:00	BASE	0.00	319	M	M	-0.6	78	-4.0	224	697	1007.6	NA	0.0000		9999	4760	0	0	0
2016/11/20 11:19:01	BASE	0.00	310	M	M	-0.5	77	-3.9	225	699	1007.6	NA	0.0000		9999	4690	0	0	0
2016/11/20 11:20:00	BASE	0.00	310	M	M	-0.4	77	-3.9	226	704	1007.6	NA	0.0000		9999	4660	0	0	0
2016/11/20 11:21:00	BASE	0.00	310	M	M	-0.4	77	-3.9	228	709	1007.6	NA	0.0000		9999	4720	0	0	0
2016/11/20 11:22:00	BASE	0.00	310	M	M	-0.4	77	-3.9	231	716	1007.6	NA	0.0000		9999	4660	0	0	0
2016/11/20 11:23:01	BASE	0.00	310	M	M	-0.4	77	-4.0	234	726	1007.6	NA	0.0000		9999	4690	0	0	0
2016/11/20 11:24:01	BASE	0.00	281	M	M	-0.5	77	-4.0	237	734	1007.6	NA	0.0000		9999	4660	0	0	0
2016/11/20 11:25:01	BASE	0.00	174	M	M	-0.5	78	-3.9	241	741	1007.5	NA	0.0000		9999	4720	0	0	0
2016/11/20 11:26:01	BASE	0.00	153	M	M	-0.6	78	-3.9	244	754	1007.5	NA	0.0000		9999	4690	0	0	0
2016/11/20 11:27:00	BASE	0.00	151	M	M	-0.6	79	-3.8	247	761	1007.5	NA	0.0000		9999	4660	0	0	0
2016/11/20 11:28:00	BASE	0.00	151	M	M	-0.6	80	-3.7	248	767	1007.5	NA	0.0000		9999	4660	0	0	0
2016/11/20 11:29:00	BASE	0.00	151	M	M	-0.6	80	-3.7	249	769	1007.5	NA	0.0000		9999	4690	0	0	0
2016/11/20 11:30:01	BASE	0.00	160	M	M	-0.7	80	-3.7	249	769	1007.4	NA	0.0000		9999	4660	0	0	0
2016/11/20 11:31:00	BASE	0.00	179	M	M	-0.7	80	-3.8	250	770	1007.4	NA	0.0000		9999	4660	0	0	0
2016/11/20 11:32:00	BASE	0.00	189	M	M	-0.8	80	-3.9	250	771	1007.3	NA	0.0000		9999	4660	0	0	0
2016/11/20 11:33:01	BASE	0.00	189	M	M	-0.9	80	-3.9	251	776	1007.3	NA	0.0000		9999	4660	0	0	0
2016/11/20 11:34:01	BASE	0.00	189	M	M	-0.9	80	-3.9	255	781	1007.3	NA	0.0000		9999	4660	0	0	0
2016/11/20 11:35:01	BASE	0.00	189	M	M	-0.9	80	-3.9	260	795	1007.3	NA	0.0000		9999	4630	0	0	0
2016/11/20 11:36:01	BASE	0.00	189	M	M	-0.8	80	-3.9	265	809	1007.2	NA	0.0000		9999	4660	0	0	0
2016/11/20 11:37:01	BASE	0.00	189	M	M	-0.8	80	-3.9	269	822	1007.2	NA	0.0000		9999	4660	0	0	0
2016/11/20 11:38:01	BASE	0.00	189	M	M	-0.7	79	-3.9	274	835	1007.2	NA	0.0000		9999	4660	0	0	0
2016/11/20 11:39:01	BASE	0.00	189	M	M	-0.7	79	-3.9	277	842	1007.2	NA	0.0000		9999	4660	0	0	0
2016/11/20 11:40:01	BASE	0.00	189	M	M	-0.6	79	-3.9	278	849	1007.2	NA	0.0000		9999	4660	0	0	0
2016/11/20 11:41:01	BASE	0.00	189	M	M	-0.6	78	-3.9	275	837	1007.2	NA	0.0000		9999	4660	0	0	0
2016/11/20 11:42:01	BASE	0.00	189	M	M	-0.6	79	-3.9	271	826	1007.2	NA	0.0000		9999	4720	0	0	0
2016/11/20 11:43:01	BASE	0.00	189	M	M	-0.7	79	-3.9	268	818	1007.2	NA	0.0000		9999	4690	0	0	0
2016/11/20 11:44:01	BASE	0.00	189	M	M	-0.6	80	-3.7	269	819	1007.2	NA	0.0000		9999	4660	22840	0	0
2016/11/20 11:45:01	BASE	0.00	189	M	M	-0.6	80	-3.7	273	836	1007.1	NA	0.0000		9999	4660	0	0	0
2016/11/20 11:46:01	BASE	0.00	189	M	M	-0.5	80	-3.6	283	852	1007.1	NA	0.0000		9999	4690	0	0	0
2016/11/20 11:47:01	BASE	0.00	189	M	M	-0.5	79	-3.6	296	882	1007.1	NA	0.0000		9999	4660	0	0	0
2016/11/20 11:48:01	BASE	0.00	189	M	M	-0.4	79	-3.6	310	915	1007.0	NA	0.0000		9999	4690	0	0	0
2016/11/20 11:49:01	BASE	0.00	189	M	M	-0.3	78	-3.7	322	941	1007.0	NA	0.0000		9999	4630	19490	23100	0
2016/11/20 11:50:01	BASE	0.00	189	M	M	-0.2	77	-3.7	331	959	1007.0	NA	0.0000		9999	4690	0	0	0
2016/11/20 11:51:01	BASE	0.00	189	M	M	-0.2	77	-3.7	345	991	1006.9	NA	0.0000		9999	4690	0	0	0
2016/11/20 11:52:01	BASE	0.00	189	M	M	-0.1	77	-3.6	366	1037	1006.9	NA	0.0000		9999	4720	0	0	0
2016/11/20 11:53:01	BASE	0.00	189	M	M	-0.1	78	-3.6	386	1066	1006.9	NA	0.0000		9999	4660	19130	0	0
2016/11/20 11:54:01	BASE	0.00	189	M	M	-0.1	78	-3.5	396	1093	1006.8	NA	0.0000		9999	4630	0	0	0
2016/11/20 11:55:01	BASE	0.00	189	M	M	-0.2	78	-3.5	390	1083	1006.7	NA	0.0000		9999	4660	0	0	0
2016/11/20 11:56:01	BASE	0.00	189	M	M	-0.2	79	-3.5	378	1045	1006.6	NA	0.0000		9999	4590	0	0	0
2016/11/20 11:57:01	BASE	0.00	159	M	M	-0.3	79	-3.6	369	1016	1006.6	NA	0.0000		9999	4630	0	0	0
2016/11/20 11:58:01	BASE	0.09	108	1.03	100	-0.4	79	-3.6	353	973	1006.5	NA	0.0000		9999	4660	0	0	0
2016/11/20 11:59:01	BASE	0.13	99	1.08	100	-0.5	79	-3.7	345	957	1006.5	NA	0.0000		9999	4660	0	0	0
2016/11/20 12:00:01	BASE	0.50	97	1.18	96	-0.5	79	-3.7	350	962	1006.4	NA	0.0000		9999	4660	8400	0	0
2016/11/20 12:01:01	BASE	1.13	96	1.44	96	-0.6	80	-3.6	611	1515	1006.4	NA	0.0000		9999	4630	0	0	0
2016/11/20 12:02:01	BASE	1.17	95	1.44	96	-0.6	80	-3.5	423	1096	1006.4	NA	0.0000		9999	4630	0	0	0
2016/11/20 12:03:01	BASE	0.59	91	1.44	96	-0.6	81	-3.4	422	1090	1006.4	NA	0.0000		9999	4660	0	0	0
2016/11/20 12:04:01	BASE	0.09	88	1.44	96	-0.5	81	-3.4	520	1301	1006.3	NA	0.0000		9999	4630	8430	0	0
2016/11/20 12:05:01	BASE	0.00	88	1.44	96	-0.5	81	-3.3	439	1138	1006.3	NA	0.0000		9999	4590	0	0	0
2016/11/20 12:06:01	BASE	0.00	88	1.44	96	-0.4	81	-3.2	383	1010	1006.3	NA	0.0000		9999	4660	0	0	0
2016/11/20 12:07:01	BASE	0.00	88	1.44	96	-0.4	81	-3.3	380	1003	1006.3	NA	0.0000		9999	4660	0	0	0
2016/11/20 12:08:01	BASE	0.00	88	1.44	96	-0.3	80	-3.3	455	1152	1006.2	NA	0.0000		9999	0	0	0	0
2016/11/20 12:09:01	BASE	0.00	88	1.44	96	-0.2	79	-3.3	673	1514	1006.1	NA	0.0000		9999	0	0	0	0
2016/11/20 12:10:01	BASE	0.00	93	1.44	96	-0.1	78	-3.4	655	1515	1006.1	NA	0.0000		9999	4720	8400	0	0
2016/11/20 12:11:01	BASE	0.00	142	1.39	95	-0.1	77	-3.5	621	1491	1006.1	NA	0.0000		9999	4690	8330	0	0
2016/11/20 12:12:01	BASE	0.77	151	1.95	124	-0.0	77	-3.6	584	1423	1006.1	NA	0.0000		9999	8370	0	0	0
2016/11/20 12:13:01	BASE	2.18	118	3.19	119	0.0	76	-3.7	696	1514	1006.0	NA	0.0000		9999	8270	0	0	0
2016/11/20 12:14:01	BASE	3.11	113	3.70	110	-0.0	75	-4.0	565	1385	1005.9	NA	0.0000		9999	8270	0	0	0
2016/11/20 12:15:01	BASE	3.53	111	3.96	113	-0.0	74	-4.2	516	1286	1005.9	NA	0.0000		9999	8240	0	0	0
2016/11/20 12:16:01	BASE	3.59	108	4.22	107	-0.1	72	-4.5	639	1514	1005.9	NA	0.0000		9999	8270	0	0	0
2016/11/20 12:17:01	BASE	3.54	106	4.22	107	-0.1	71	-4.8	764	1515	1005.9	NA	0.0000		9999	8270	0	0	0
2016/11/20 12:18:01	BASE	3.57	107	4.22	107	-0.1	70	-5.0	646	1514	1005.9	NA	0.0000		9999	8270	0	0	0
2016/11/20 12:19:01	BASE	3.39	109	4.22	107	-0.1	70	-5.0	704	1514	1005.9	NA	0.0000		9999	8200	0	0	0
2016/11/20 12:20:01	BASE	3.18	114	4.22	107	-0.1	70	-5.0	557	1397	1005.9	NA	0.0000		9999	8140	0	0	0
2016/11/20 12:21:01	BASE	2.91	118	4.22	107	-0.1	70	-4.9	532	1345	1005.9	NA	0.0000		9999	8010	0	0	0
2016/11/20 12:22:01	BASE	2.86	121	4.22	107	-0.2	71	-4.8	524	1336	1005.8	NA	0.0000		9999	7910	0	0	0
2016/11/20 12:23:01	BASE	2.95	122	4.22	107	-0.2	72	-4.7	505	1295	1005.8	NA	0.0000		9999	7910	0	0	0
2016/11/20 12:24:01	BASE	2.88	124	4.22	107	-0.2	73	-4.5	499	1284	1005.8	NA	0.0000		9999	7940	0	0	0
2016/11/20 12:25:01	BASE	3.07	132	4.22	107	-0.3	74	-4.3	500	1291	1005.8	NA	0.0000		9999	7870	0	0	0
2016/11/20 12:26:01	BASE	3.39	139	4.01	143	-0.3	76	-4.0	501	1299	1005.8	NA	0.0000		9999	7870	0	0	0
2016/11/20 12:27:01	BASE	3.55	141	4.01	143	-0.3	77	-3.8	490	1273	1005.8	NA	0.0000		9999	7840	0	0	0
2016/11/20 12:28:01	BASE	3.43	143	4.01	143	-0.3	78	-3.7	479	1254	1005.8	NA	0.0000		9999	7870	0	0	0
2016/11/20 12:29:01	BASE	3.11	145	4.01	143	-0.3	78	-3.7	472	1245	1005.7	NA	0.0000		9999	7870	0	0	0
2016/11/20 12:30:01	BASE	2.69	145	4.01	143	-0.3	78	-3.7	453	1201	1005.7	NA	0.0000		9999	7840	0	0	0
2016/11/20 12:31:01	BASE	2.55	146	4.01	143	-0.4	78	-3.8	439	1171	1005.7	NA	0.0000		9999	7780	0	0	0
2016/11/20 12:32:01	BASE	2.57	150	4.01	143	-0.5	78	-3.9	419	1128	1005.8	NA	0.0000		9999	7780	0	0	0
2016/11/20 12:33:01	BASE	2.62	153	4.01	143	-0.5	77	-3.9	406	1098	1005.8	NA	0.0000		9999	7680	21750	0	0
2016/11/20 12:34:01	BASE	2.61	154	4.01	143	-0.5	77	-4.0	401	1095	1005.8	NA	0.0000		9999	7870	0	0	0
2016/11/20 12:35:01	BASE	2.20	155	4.01	143	-0.5	77	-4.1	402	1095	1005.7	NA	0.0000		9999	7740	0	0	0
2016/11/20 12:36:01	BASE	1.83	160	3.81	141	-0.5	77	-4.1	405	1094	1005.7	NA	0.0000		9999	7780	0	0	0
2016/11/20 12:37:01	BASE	1.88	164	3.55	140	-0.6	77	-4.1	406	1091	1005.8	NA	0.0000		9999	7840	0	0	0
2016/11/20 12:38:01	BASE	1.99	162	3.24	148	-0.6	77	-4.1	403	1090	1005.8	NA	0.0000		9999	7870	0	0	0
2016/11/20 12:39:01	BASE	2.11	155	2.98	146	-0.6	78	-4.1	395	1067	1005.8	NA	0.0000		9999	7840	0	0	0
2016/11/20 12:40:01	BASE	2.34	147	2.98	146	-0.6	78	-4.0	387	1046	1005.8	NA	0.0000		9999	7840	0	0	0
2016/11/20 12:41:01	BASE	2.33	140	2.98	146	-0.6	78	-4.0	383	1037	1005.8	NA	0.0000		9999	7840	0	0	0
2016/11/20 12:42:01	BASE	2.10	139	2.98	146	-0.6	77	-4.0	387	1046	1005.8	NA	0.0000		9999	7840	0	0	0
2016/11/20 12:43:01	BASE	1.83	152	2.68	149	-0.5	77	-4.0	396	1073	1005.9	NA	0.0000		9999	7940	0	0	0
2016/11/20 12:44:01	BASE	1.75	177	2.52	138	-0.5	77	-4.1	403	1088	1005.9	NA	0.0000		9999	7940	0	0	0
2016/11/20 12:45:01	BASE	2.10	200	2.52	208	-0.5	77	-4.0	402	1086	1005.9	NA	0.0000		9999	4790	7970	0	0
2016/11/20 12:46:01	BASE	2.29	207	2.52	208	-0.5	77	-4.0	403	1085	1005.9	NA	0.0000		9999	4720	7940	0	0
2016/11/20 12:47:01	BASE	2.12	196	2.52	208	-0.5	77	-4.0	408	1098	1005.9	NA	0.0000		9999	4720	7940	0	0
2016/11/20 12:48:01	BASE	1.90	185	2.52	208	-0.6	78	-4.0	415	1115	1005.9	NA	0.0000		9999	7870	0	0	0
2016/11/20 12:49:01	BASE	1.76	192	2.52	208	-0.6	78	-3.9	422	1133	1006.0	NA	0.0000		9999	7870	19420	0	0
2016/11/20 12:50:01	BASE	1.71	214	2.52	208	-0.6	79	-3.8	424	1139	1006.1	NA	0.0000		9999	7910	0	0	0
2016/11/20 12:51:01	BASE	1.65	234	2.52	208	-0.6	80	-3.7	418	1127	1006.1	NA	0.0000		9999	4790	7910	0	0
2016/11/20 12:52:01	BASE	1.53	236	2.52	208	-0.7	80	-3.7	406	1101	1006.1	NA	0.0000		9999	4760	0	0	0
2016/11/20 12:53:01	BASE	1.11	234	2.52	208	-0.6	81	-3.5	396	1078	1006.1	NA	0.0000		9999	4690	0	0	0
2016/11/20 12:54:01	BASE	0.99	218	2.52	208	-0.6	81	-3.5	388	1056	1006.1	NA	0.0000		9999	4690	7840	0	0
2016/11/20 12:55:01	BASE	1.22	205	2.47	211	-0.6	81	-3.4	384	1046	1006.1	NA	0.0000		9999	4720	7740	0	0
2016/11/20 12:56:01	BASE	1.16	215	2.21	186	-0.6	81	-3.4	384	1052	1006.1	NA	0.0000		9999	4790	7810	0	0
2016/11/20 12:57:01	BASE	0.59	223	2.06	244	-0.6	81	-3.4	388	1061	1006.1	NA	0.0000		9999	4790	7780	0	0
2016/11/20 12:58:01	BASE	0.05	226	2.06	244	-0.7	81	-3.5	397	1078	1006.1	NA	0.0000		9999	8070	0	0	0
2016/11/20 12:59:01	BASE	0.00	233	2.06	244	-0.7	81	-3.6	407	1096	1006.1	NA	0.0000		9999	8070	0	0	0
2016/11/20 13:00:01	BASE	0.60	258	2.11	290	-0.7	80	-3.6	414	1112	1006.1	NA	0.0000		9999	4760	8070	0	0
2016/11/20 13:01:01	BASE	1.77	287	2.52	298	-0.6	80	-3.6	419	1127	1006.1	NA	0.0000		9999	4760	8040	0	0
2016/11/20 13:02:01	BASE	2.47	295	2.68	294	-0.5	80	-3.5	424	1133	1006.1	NA	0.0000		9999	7970	0	0	0
2016/11/20 13:03:01	BASE	2.55	293	2.68	294	-0.3	80	-3.3	415	1110	1006.2	NA	0.0000		9999	4820	8070	0	0
2016/11/20 13:04:01	BASE	2.35	292	2.68	294	-0.3	80	-3.2	398	1077	1006.3	NA	0.0000		9999	4760	0	0	0
2016/11/20 13:05:01	BASE	2.23	296	2.68	294	-0.3	81	-3.1	389	1049	1006.2	NA	0.0000		9999	4760	0	0	0
2016/11/20 13:06:01	BASE	2.22	299	2.68	294	-0.3	82	-3.1	391	1051	1006.3	NA	0.0000		9999	4820	8140	0	0
2016/11/20 13:07:01	BASE	2.15	299	2.68	294	-0.3	82	-3.1	402	1068	1006.3	NA	0.0000		9999	8140	0	0	0
2016/11/20 13:08:01	BASE	2.07	291	2.68	294	-0.3	82	-3.0	411	1091	1006.3	NA	0.0000		9999	4890	8140	0	0
2016/11/20 13:09:01	BASE	1.92	281	2.68	294	-0.3	83	-2.9	412	1095	1006.4	NA	0.0000		9999	4820	0	0	0
2016/11/20 13:10:01	BASE	1.69	283	2.68	294	-0.3	82	-2.9	411	1092	1006.3	NA	0.0000		9999	4820	0	0	0
2016/11/20 13:11:01	BASE	1.35	289	2.68	294	-0.3	82	-3.0	422	1113	1006.3	NA	0.0000		9999	4790	0	0	0
2016/11/20 13:12:01	BASE	1.30	289	2.62	295	-0.2	82	-3.0	443	1156	1006.1	NA	0.0000		9999	4820	8270	0	0
2016/11/20 13:13:01	BASE	1.77	284	2.57	297	-0.2	81	-3.1	468	1209	1006.2	NA	0.0000		9999	8240	0	0	0
2016/11/20 13:14:01	BASE	2.06	277	2.47	265	-0.1	79	-3.4	479	1238	1006.3	NA	0.0000		9999	8330	0	0	0
2016/11/20 13:15:01	BASE	2.21	274	2.78	269	-0.1	77	-3.7	476	1236	1006.3	NA	0.0000		9999	4890	8370	0	0
2016/11/20 13:16:01	BASE	2.19	274	2.78	269	-0.0	75	-4.0	462	1205	1006.2	NA	0.0000		9999	4860	0	0	0
2016/11/20 13:17:01	BASE	1.82	280	2.78	269	0.0	73	-4.3	464	1209	1006.1	NA	0.0000		9999	4790	0	0	0
2016/11/20 13:18:01	BASE	1.64	294	2.78	269	0.1	72	-4.4	470	1219	1006.1	NA	0.0000		9999	4790	8300	0	0
2016/11/20 13:19:01	BASE	1.68	310	2.78	269	0.0	72	-4.4	478	1233	1006.1	NA	0.0000		9999	4790	8400	0	0
2016/11/20 13:20:01	BASE	1.66	322	2.78	269	-0.0	73	-4.3	475	1229	1006.1	NA	0.0000		9999	4790	8330	0	0
2016/11/20 13:21:01	BASE	1.46	330	2.78	269	-0.1	74	-4.1	471	1223	1006.1	NA	0.0000		9999	4790	8330	0	0
2016/11/20 13:22:01	BASE	1.34	334	2.78	269	-0.1	76	-3.9	466	1211	1006.1	NA	0.0000		9999	4790	8300	20310	0
2016/11/20 13:23:01	BASE	1.46	336	2.78	269	-0.2	77	-3.7	468	1212	1006.1	NA	0.0000		9999	4790	8330	21820	0
2016/11/20 13:24:01	BASE	1.67	343	2.78	269	-0.2	78	-3.6	473	1223	1006.0	NA	0.0000		9999	4790	8330	0	0
2016/11/20 13:25:01	BASE	1.92	347	2.42	263	-0.2	78	-3.6	477	1229	1005.9	NA	0.0000		9999	8300	0	0	0
2016/11/20 13:26:01	BASE	2.14	345	2.42	347	-0.2	78	-3.5	474	1224	1005.9	NA	0.0000		9999	8400	0	0	0
2016/11/20 13:27:01	BASE	2.11	347	2.52	348	-0.2	78	-3.6	473	1224	1005.9	NA	0.0000		9999	8400	0	0	0
2016/11/20 13:28:01	BASE	1.88	349	2.52	348	-0.1	77	-3.6	471	1223	1005.9	NA	0.0000		9999	8430	0	0	0
2016/11/20 13:29:01	BASE	1.59	344	2.52	348	-0.1	77	-3.6	464	1204	1005.9	NA	0.0000		9999	8430	0	0	0
2016/11/20 13:30:01	BASE	1.27	349	2.52	348	-0.1	77	-3.7	459	1196	1005.9	NA	0.0000		9999	4820	8370	0	0
2016/11/20 13:31:01	BASE	1.35	346	2.52	348	-0.1	76	-3.8	449	1172	1005.9	NA	0.0000		9999	4820	8500	0	0
2016/11/20 13:32:01	BASE	1.73	333	2.52	348	-0.1	76	-3.9	436	1132	1006.0	NA	0.0000		9999	8560	0	0	0
2016/11/20 13:33:01	BASE	1.76	327	2.52	348	-0.1	75	-4.0	423	1110	1006.0	NA	0.0000		9999	4820	8690	0	0
2016/11/20 13:34:01	BASE	1.62	320	2.52	348	-0.1	75	-4.0	417	1090	1006.1	NA	0.0000		9999	4820	0	0	0
2016/11/20 13:35:01	BASE	1.44	315	2.52	348	-0.1	75	-4.0	410	1073	1006.1	NA	0.0000		9999	4790	8660	0	0
2016/11/20 13:36:01	BASE	1.40	310	2.52	348	-0.1	75	-4.0	423	1098	1006.1	NA	0.0000		9999	4790	0	0	0
2016/11/20 13:37:01	BASE	1.60	305	2.06	338	-0.0	74	-4.2	475	1217	1006.1	NA	0.0000		9999	4790	0	0	0
2016/11/20 13:38:01	BASE	1.78	300	2.16	302	0.0	73	-4.3	525	1321	1006.1	NA	0.0000		9999	4790	0	0	0
2016/11/20 13:39:01	BASE	1.70	296	2.16	302	0.0	72	-4.5	572	1407	1006.1	NA	0.0000		9999	4790	0	0	0
2016/11/20 13:40:01	BASE	1.53	296	2.16	302	0.1	71	-4.6	658	1515	1006.1	NA	0.0000		9999	4760	0	0	0
2016/11/20 13:41:01	BASE	1.64	292	2.16	302	0.1	70	-4.7	696	1515	1006.1	NA	0.0000		9999	4760	0	0	0
2016/11/20 13:42:00	BASE	1.68	293	2.16	302	0.1	70	-4.7	696	1514	1006.1	NA	0.0000		9999	4760	0	0	0
2016/11/20 13:43:00	BASE	1.55	295	2.16	302	0.2	70	-4.6	660	1514	1006.1	NA	0.0000		9999	4720	0	0	0
2016/11/20 13:44:00	BASE	1.51	296	2.16	302	0.2	70	-4.6	636	1513	1006.0	NA	0.0000		9999	4690	0	0	0
2016/11/20 13:45:00	BASE	1.48	297	2.16	302	0.3	70	-4.6	634	1507	1005.9	NA	0.0000		9999	4720	0	0	0
2016/11/20 13:46:00	BASE	1.33	297	2.16	302	0.4	69	-4.6	617	1470	1005.9	NA	0.0000		9999	4690	0	0	0
2016/11/20 13:47:00	BASE	1.33	295	2.16	302	0.4	68	-4.8	630	1499	1005.9	NA	0.0000		9999	4720	0	0	0
2016/11/20 13:48:00	BASE	1.44	297	1.95	285	0.3	68	-4.9	636	1513	1005.9	NA	0.0000		9999	4720	0	0	0
2016/11/20 13:49:00	BASE	1.27	295	1.95	285	0.4	68	-4.9	547	1335	1005.9	NA	0.0000		9999	4720	0	0	0
2016/11/20 13:50:00	BASE	1.08	289	1.95	285	0.4	68	-4.9	507	1252	1005.9	NA	0.0000		9999	4720	0	0	0
2016/11/20 13:51:00	BASE	1.16	285	1.80	277	0.5	68	-4.8	507	1254	1005.9	NA	0.0000		9999	4690	0	0	0
2016/11/20 13:52:00	BASE	1.61	281	2.06	278	0.5	68	-4.7	567	1387	1005.8	NA	0.0000		9999	4720	0	0	0
2016/11/20 13:53:00	BASE	1.93	279	2.06	279	0.6	68	-4.6	617	1489	1005.8	NA	0.0000		9999	4720	0	0	0
2016/11/20 13:54:00	BASE	1.90	279	2.06	279	0.6	69	-4.5	670	1515	1005.8	NA	0.0000		9999	4760	0	0	0
2016/11/20 13:55:00	BASE	1.71	279	2.06	279	0.5	69	-4.5	559	1372	1005.8	NA	0.0000		9999	4660	9250	24280	0
2016/11/20 13:56:00	BASE	1.37	279	2.06	279	0.4	70	-4.4	567	1396	1005.7	NA	0.0000		9999	4690	9250	0	0
2016/11/20 13:57:00	BASE	0.69	279	2.06	279	0.4	71	-4.3	575	1408	1005.7	NA	0.0000		9999	4760	9320	0	0
2016/11/20 13:58:00	BASE	0.09	279	2.06	279	0.3	71	-4.3	540	1331	1005.6	NA	0.0000		9999	9320	0	0	0
2016/11/20 13:59:00	BASE	0.00	279	2.06	279	0.3	72	-4.2	610	1478	1005.6	NA	0.0000		9999	9320	0	0	0
2016/11/20 14:00:00	BASE	0.00	279	2.06	279	0.3	72	-4.1	586	1423	1005.6	NA	0.0000		9999	0	0	0	0
2016/11/20 14:01:00	BASE	0.00	279	2.06	279	0.3	72	-4.0	582	1415	1005.5	NA	0.0000		9999	0	0	0	0
2016/11/20 14:02:00	BASE	0.00	279	2.06	279	0.4	72	-4.0	635	1515	1005.4	NA	0.0000		9999	18340	0	0	0
2016/11/20 14:03:00	BASE	0.00	279	2.01	278	0.5	72	-4.0	709	1515	1005.4	NA	0.0000		9999	0	0	0	0
2016/11/20 14:04:00	BASE	0.00	279	1.80	278	0.5	72	-4.0	730	1515	1005.4	NA	0.0000		9999	9550	0	0	0
2016/11/20 14:05:00	BASE	0.00	279	1.29	279	0.6	71	-4.0	707	1514	1005.4	NA	0.0000		9999	9610	0	0	0
2016/11/20 14:06:00	BASE	0.00	279	1.08	279	0.6	71	-4.1	666	1514	1005.5	NA	0.0000		9999	9580	0	0	0
2016/11/20 14:07:00	BASE	0.24	275	1.23	264	0.5	71	-4.2	722	1515	1005.5	NA	0.0000		9999	9610	0	0	0
2016/11/20 14:08:00	BASE	0.29	268	1.23	264	0.4	72	-4.1	619	1489	1005.5	NA	0.0000		9999	9610	0	0	0
2016/11/20 14:09:00	BASE	0.22	265	1.23	264	0.3	72	-4.1	551	1354	1005.6	NA	0.0000		9999	4560	9580	0	0
2016/11/20 14:10:00	BASE	0.45	265	1.23	264	0.1	73	-4.1	517	1284	1005.6	NA	0.0000		9999	4530	0	0	0
2016/11/20 14:11:00	BASE	0.27	265	1.23	264	0.1	74	-4.0	524	1301	1005.6	NA	0.0000		9999	4460	0	0	0
2016/11/20 14:12:00	BASE	0.00	265	1.23	264	0.2	74	-4.0	545	1343	1005.5	NA	0.0000		9999	4460	9680	18600	0
2016/11/20 14:13:00	BASE	0.00	265	1.23	264	0.3	73	-3.9	590	1430	1005.4	NA	0.0000		9999	4490	9680	0	0
2016/11/20 14:14:00	BASE	0.00	265	1.23	264	0.4	73	-3.9	580	1409	1005.5	NA	0.0000		9999	4460	9710	0	0
2016/11/20 14:15:00	BASE	0.00	265	1.23	264	0.5	73	-3.8	614	1486	1005.6	NA	0.0000		9999	4530	0	0	0
2016/11/20 14:16:00	BASE	0.00	265	1.23	264	0.6	73	-3.8	611	1483	1005.6	NA	0.0000		9999	4490	9650	23660	0
2016/11/20 14:17:00	BASE	0.00	265	1.18	265	0.7	73	-3.7	621	1503	1005.6	NA	0.0000		9999	4530	9740	0	0
2016/11/20 14:18:00	BASE	0.00	265	1.18	265	0.8	73	-3.6	669	1514	1005.6	NA	0.0000		9999	4040	4630	0	0
2016/11/20 14:19:00	BASE	0.00	265	1.18	265	0.9	73	-3.4	662	1515	1005.6	NA	0.0000		9999	4000	4590	0	0
2016/11/20 14:20:00	BASE	0.00	265	M	M	1.0	72	-3.4	636	1514	1005.6	NA	0.0000		9999	4040	0	0	0
2016/11/20 14:21:00	BASE	0.00	265	M	M	1.1	72	-3.4	633	1514	1005.6	NA	0.0000		9999	4040	0	0	0
2016/11/20 14:22:00	BASE	0.00	265	M	M	1.1	72	-3.4	646	1515	1005.5	NA	0.0000		9999	4040	0	0	0
2016/11/20 14:23:00	BASE	0.20	250	1.18	199	1.0	72	-3.4	625	1514	1005.4	NA	0.0000		9999	4040	0	0	0
2016/11/20 14:24:00	BASE	0.37	213	1.18	199	0.9	73	-3.5	641	1515	1005.4	NA	0.0000		9999	4040	0	0	0
2016/11/20 14:25:00	BASE	0.27	195	1.18	199	0.8	73	-3.5	603	1480	1005.4	NA	0.0000		9999	3970	0	0	0
2016/11/20 14:26:00	BASE	0.09	195	1.18	199	0.7	74	-3.5	578	1428	1005.4	NA	0.0000		9999	3970	23950	0	0
2016/11/20 14:27:00	BASE	0.00	195	1.18	199	0.5	75	-3.5	586	1451	1005.4	NA	0.0000		9999	3970	0	0	0
2016/11/20 14:28:00	BASE	0.00	195	1.18	199	0.4	76	-3.4	596	1472	1005.4	NA	0.0000		9999	3940	0	0	0
2016/11/20 14:29:00	BASE	0.00	195	1.18	199	0.3	76	-3.4	608	1500	1005.4	NA	0.0000		9999	3900	20670	0	0
2016/11/20 14:30:00	BASE	0.00	189	1.18	199	0.3	76	-3.3	615	1515	1005.3	NA	0.0000		9999	3900	0	0	0
2016/11/20 14:31:00	BASE	0.00	184	1.18	199	0.5	76	-3.2	658	1514	1005.3	NA	0.0000		9999	3900	0	0	0
2016/11/20 14:32:00	BASE	0.00	184	1.18	199	0.6	76	-3.1	613	1514	1005.3	NA	0.0000		9999	3870	0	0	0
2016/11/20 14:33:00	BASE	0.00	199	1.08	195	0.7	76	-3.1	608	1506	1005.3	NA	0.0000		9999	3900	0	0	0
2016/11/20 14:34:00	BASE	0.09	216	1.08	217	0.7	76	-3.1	594	1477	1005.3	NA	0.0000		9999	3900	4590	0	0
2016/11/20 14:35:00	BASE	0.09	217	1.08	217	0.7	76	-3.1	595	1482	1005.3	NA	0.0000		9999	3870	4530	0	0
2016/11/20 14:36:00	BASE	0.00	217	1.08	217	0.6	76	-3.1	590	1472	1005.3	NA	0.0000		9999	3870	4560	0	0
2016/11/20 14:37:00	BASE	0.04	217	1.08	217	0.7	76	-3.1	587	1470	1005.3	NA	0.0000		9999	3840	4560	0	0
2016/11/20 14:38:00	BASE	0.32	214	1.18	217	0.7	76	-3.1	602	1504	1005.3	NA	0.0000		9999	3870	4490	0	0
2016/11/20 14:39:00	BASE	0.81	206	1.23	199	0.7	76	-3.0	589	1473	1005.3	NA	0.0000		9999	3870	4530	0	0
2016/11/20 14:40:00	BASE	1.11	196	1.39	191	0.7	76	-3.1	598	1489	1005.3	NA	0.0000		9999	3840	4490	22250	0
2016/11/20 14:41:00	BASE	1.23	190	1.39	186	0.6	76	-3.1	620	1514	1005.3	NA	0.0000		9999	3120	3810	4490	0
2016/11/20 14:42:00	BASE	1.32	181	1.44	175	0.5	77	-3.1	646	1514	1005.3	NA	0.0000		9999	3020	3810	17650	0
2016/11/20 14:43:00	BASE	1.15	181	1.44	175	0.4	78	-3.1	611	1514	1005.2	NA	0.0000		9999	3080	3840	0	0
2016/11/20 14:44:00	BASE	1.23	181	1.65	171	0.3	78	-3.1	641	1515	1005.2	NA	0.0000		9999	3840	4530	0	0
2016/11/20 14:45:00	BASE	1.23	170	1.65	171	0.2	79	-3.0	774	1514	1005.2	NA	0.0000		9999	3810	4530	0	0
2016/11/20 14:46:00	BASE	1.15	165	1.65	171	0.2	79	-3.0	628	1515	1005.1	NA	0.0000		9999	4460	0	0	0
2016/11/20 14:47:00	BASE	1.46	160	1.90	150	0.3	79	-2.9	575	1452	1005.1	NA	0.0000		9999	4400	0	0	0
2016/11/20 14:48:00	BASE	1.77	145	2.06	134	0.4	79	-2.8	608	1515	1005.1	NA	0.0000		9999	4400	0	0	0
2016/11/20 14:49:00	BASE	2.11	131	2.52	126	0.5	79	-2.7	539	1385	1005.1	NA	0.0000		9999	3740	4430	0	0
2016/11/20 14:50:00	BASE	2.36	124	2.83	112	0.6	79	-2.7	488	1282	1005.1	NA	0.0000		9999	3710	0	0	0
2016/11/20 14:51:00	BASE	2.72	116	3.14	111	0.6	79	-2.7	459	1227	1005.0	NA	0.0000		9999	3740	0	0	0
2016/11/20 14:52:00	BASE	2.99	110	3.40	102	0.5	79	-2.8	442	1193	1004.9	NA	0.0000		9999	3640	0	0	0
2016/11/20 14:53:00	BASE	3.28	105	3.91	100	0.4	79	-2.9	434	1180	1004.9	NA	0.0000		9999	3580	0	0	0
2016/11/20 14:54:00	BASE	3.43	102	3.91	100	0.2	79	-3.0	428	1173	1004.8	NA	0.0000		9999	3480	0	0	0
2016/11/20 14:55:00	BASE	3.32	99	3.91	100	0.1	80	-3.1	423	1163	1004.8	NA	0.0000		9999	3480	0	0	0
2016/11/20 14:56:00	BASE	3.28	96	3.91	100	0.0	80	-3.1	417	1154	1004.8	NA	0.0000		9999	3410	0	0	0
2016/11/20 14:57:00	BASE	3.19	97	3.91	100	0.0	80	-3.0	408	1131	1004.8	NA	0.0000		9999	3480	0	0	0
2016/11/20 14:58:00	BASE	3.39	101	4.06	98	0.0	80	-3.1	395	1110	1004.8	NA	0.0000		9999	3410	0	0	0
2016/11/20 14:59:00	BASE	3.76	102	4.32	102	0.0	80	-3.1	385	1087	1004.8	NA	0.0000		9999	3410	0	0	0
2016/11/20 15:00:00	BASE	3.98	101	4.42	101	0.1	79	-3.1	378	1073	1004.8	NA	0.0000		9999	3380	0	0	0
2016/11/20 15:01:00	BASE	4.00	104	4.42	101	0.1	79	-3.1	373	1057	1004.8	NA	0.0000		9999	3410	0	0	0
2016/11/20 15:02:00	BASE	3.91	106	4.63	103	0.1	78	-3.2	367	1043	1004.8	NA	0.0000		9999	3380	0	0	0
2016/11/20 15:03:00	BASE	4.05	105	4.89	97	0.1	78	-3.3	362	1031	1004.8	NA	0.0000		9999	3350	0	0	0
2016/11/20 15:04:00	BASE	3.58	114	4.89	97	0.1	77	-3.4	359	1023	1004.9	NA	0.0000		9999	3350	18500	0	0
2016/11/20 15:05:00	BASE	2.80	131	4.89	97	0.1	77	-3.4	352	1007	1004.9	NA	0.0000		9999	3250	0	0	0
2016/11/20 15:06:00	BASE	2.77	136	4.89	97	0.2	78	-3.3	337	976	1005.0	NA	0.0000		9999	3120	0	0	0
2016/11/20 15:07:00	BASE	2.75	140	4.89	97	0.3	78	-3.2	322	937	1005.0	NA	0.0000		9999	3080	20570	0	0
2016/11/20 15:08:00	BASE	3.12	149	4.89	97	0.3	78	-3.0	311	916	1004.9	NA	0.0000		9999	3080	0	0	0
2016/11/20 15:09:00	BASE	3.63	154	4.89	97	0.3	79	-2.9	308	906	1004.9	NA	0.0000		9999	3020	0	0	0
2016/11/20 15:10:00	BASE	3.45	155	4.89	97	0.3	79	-2.9	310	912	1004.9	NA	0.0000		9999	2990	0	0	0
2016/11/20 15:11:00	BASE	3.16	159	4.89	97	0.2	80	-2.9	319	933	1004.9	NA	0.0000		9999	3020	0	0	0
2016/11/20 15:12:00	BASE	3.06	156	4.89	97	0.2	81	-2.8	334	968	1004.9	NA	0.0000		9999	3050	21560	0	0
2016/11/20 15:13:00	BASE	3.36	143	4.22	135	0.2	81	-2.7	346	996	1004.8	NA	0.0000		9999	3050	0	0	0
2016/11/20 15:14:00	BASE	3.81	139	4.32	141	0.2	81	-2.6	352	1011	1004.8	NA	0.0000		9999	3050	0	0	0
2016/11/20 15:15:00	BASE	4.10	141	4.37	141	0.2	81	-2.6	360	1031	1004.8	NA	0.0000		9000	3080	0	0	0
2016/11/20 15:16:00	BASE	4.32	143	4.48	144	0.2	81	-2.6	373	1060	1004.8	NA	0.0000		9999	2990	0	0	0
2016/11/20 15:17:00	BASE	4.56	142	5.04	140	0.2	81	-2.7	391	1098	1004.8	NA	0.0000		9999	2990	0	0	0
2016/11/20 15:18:00	BASE	4.80	141	5.04	139	0.2	81	-2.7	404	1127	1004.7	NA	0.0000		9999	3020	0	0	0
2016/11/20 15:19:00	BASE	4.62	142	5.04	139	0.2	81	-2.6	413	1149	1004.7	NA	0.0000		9999	2890	0	0	0
2016/11/20 15:20:00	BASE	4.31	144	5.04	139	0.2	82	-2.6	429	1186	1004.7	NA	0.0000		9999	2850	0	0	0
2016/11/20 15:21:00	BASE	4.02	143	5.04	139	0.2	82	-2.4	443	1209	1004.7	NA	0.0000		9999	2790	0	0	0
2016/11/20 15:22:00	BASE	3.88	139	5.04	139	0.3	83	-2.3	453	1226	1004.7	NA	0.0000		9999	2720	0	0	0
2016/11/20 15:23:00	BASE	3.81	135	5.04	139	0.3	83	-2.3	463	1246	1004.7	NA	0.0000		9999	3020	0	0	0
2016/11/20 15:24:00	BASE	3.49	135	5.04	139	0.3	83	-2.3	472	1263	1004.7	NA	0.0000		9999	2820	0	0	0
2016/11/20 15:25:00	BASE	3.51	135	5.04	139	0.3	83	-2.2	476	1270	1004.7	NA	0.0000		9999	2850	3710	0	0
2016/11/20 15:26:00	BASE	3.77	133	5.04	139	0.3	83	-2.2	477	1276	1004.7	NA	0.0000		9999	2790	3770	0	0
2016/11/20 15:27:00	BASE	4.03	135	5.04	139	0.2	84	-2.2	488	1303	1004.7	NA	0.0000		9999	2790	0	0	0
2016/11/20 15:28:00	BASE	4.26	139	4.73	139	0.2	84	-2.2	509	1347	1004.7	NA	0.0000		9999	2850	3770	19160	0
2016/11/20 15:29:00	BASE	4.38	139	4.89	134	0.3	84	-2.1	505	1335	1004.7	NA	0.0000		9999	2990	3870	0	0
2016/11/20 15:30:00	BASE	4.55	138	4.99	138	0.3	84	-2.1	494	1310	1004.7	NA	0.0000		9999	2820	3900	0	0
2016/11/20 15:31:00	BASE	4.54	136	4.99	138	0.3	84	-2.1	494	1309	1004.7	NA	0.0000		9999	3870	0	0	0
2016/11/20 15:32:00	BASE	4.24	134	4.99	138	0.3	84	-2.1	491	1302	1004.7	NA	0.0000		9999	4040	0	0	0
2016/11/20 15:33:00	BASE	3.86	133	4.99	138	0.3	84	-2.1	491	1302	1004.7	NA	0.0000		9999	3970	0	0	0
2016/11/20 15:34:00	BASE	3.48	132	4.99	138	0.3	83	-2.2	500	1318	1004.7	NA	0.0000		9999	3870	0	0	0
2016/11/20 15:35:00	BASE	3.30	131	4.99	138	0.3	82	-2.4	485	1284	1004.7	NA	0.0000		9999	3870	0	0	0
2016/11/20 15:36:00	BASE	3.39	130	4.99	138	0.3	82	-2.5	463	1234	1004.7	NA	0.0000		9999	3940	0	0	0
2016/11/20 15:37:00	BASE	3.44	130	4.99	138	0.3	81	-2.6	447	1200	1004.7	NA	0.0000		9999	2850	4000	0	0
2016/11/20 15:38:00	BASE	3.47	130	4.99	138	0.2	81	-2.7	440	1184	1004.7	NA	0.0000		9999	2890	0	0	0
2016/11/20 15:39:00	BASE	3.67	128	4.99	138	0.2	80	-2.8	440	1182	1004.7	NA	0.0000		9999	3150	3870	0	0
2016/11/20 15:40:00	BASE	3.62	129	4.94	135	0.2	79	-2.9	447	1197	1004.7	NA	0.0000		9999	3810	22110	0	0
2016/11/20 15:41:00	BASE	3.47	129	4.78	136	0.2	79	-3.1	462	1230	1004.6	NA	0.0000		9999	3840	0	0	0
2016/11/20 15:42:00	BASE	3.50	130	4.37	136	0.2	78	-3.2	486	1281	1004.6	NA	0.0000		9999	3870	19550	20310	0
2016/11/20 15:43:00	BASE	3.43	131	4.37	136	0.1	78	-3.3	497	1305	1004.6	NA	0.0000		9999	3870	0	0	0
2016/11/20 15:44:00	BASE	3.41	129	4.37	136	0.1	77	-3.4	492	1295	1004.6	NA	0.0000		9999	3940	0	0	0
2016/11/20 15:45:00	BASE	3.40	129	4.37	136	0.1	77	-3.4	487	1288	1004.6	NA	0.0000		9999	3770	0	0	0
2016/11/20 15:46:00	BASE	3.40	130	4.37	136	0.1	77	-3.5	477	1268	1004.6	NA	0.0000		9999	3810	0	0	0
2016/11/20 15:47:00	BASE	3.53	129	4.37	136	0.1	77	-3.5	476	1266	1004.6	NA	0.0000		9999	3640	0	0	0
2016/11/20 15:48:00	BASE	3.57	130	4.37	136	0.1	77	-3.5	481	1278	1004.6	NA	0.0000		9999	3610	0	0	0
2016/11/20 15:49:00	BASE	3.62	130	4.12	130	0.1	77	-3.5	495	1310	1004.6	NA	0.0000		9999	3580	0	0	0
2016/11/20 15:50:00	BASE	3.47	129	4.12	130	0.1	77	-3.5	505	1337	1004.6	NA	0.0000		9999	3610	0	0	0
2016/11/20 15:51:00	BASE	3.05	123	4.12	130	0.1	77	-3.6	491	1305	1004.6	NA	0.0000		9999	3640	0	0	0
2016/11/20 15:52:00	BASE	2.73	118	4.12	130	0.1	77	-3.6	462	1239	1004.6	NA	0.0000		9999	3640	0	0	0
2016/11/20 15:53:00	BASE	2.92	122	4.12	130	0.0	77	-3.5	456	1229	1004.7	NA	0.0000		9999	3610	0	0	0
2016/11/20 15:54:00	BASE	3.07	121	4.12	130	0.0	77	-3.5	452	1222	1004.7	NA	0.0000		9999	3640	0	0	0
2016/11/20 15:55:00	BASE	2.99	116	4.12	130	-0.0	77	-3.5	451	1220	1004.6	NA	0.0000		9999	3640	0	0	0
2016/11/20 15:56:00	BASE	3.04	115	4.12	130	-0.0	77	-3.6	450	1217	1004.6	NA	0.0000		9999	3640	4100	0	0
2016/11/20 15:57:00	BASE	3.15	112	4.12	130	-0.0	77	-3.6	444	1207	1004.6	NA	0.0000		9999	3610	0	0	0
2016/11/20 15:58:00	BASE	3.24	111	4.12	130	-0.1	76	-3.7	442	1205	1004.5	NA	0.0000		9999	3610	0	0	0
2016/11/20 15:59:00	BASE	3.24	112	3.65	118	-0.1	76	-3.9	450	1220	1004.5	NA	0.0000		9999	3020	3610	0	0
2016/11/20 16:00:00	BASE	3.29	110	3.65	118	-0.1	76	-3.9	468	1254	1004.4	NA	0.0000		9999	2920	3640	0	0
2016/11/20 16:01:00	BASE	3.32	109	3.65	108	-0.1	76	-3.9	488	1296	1004.4	NA	0.0000		9999	3610	0	0	0
2016/11/20 16:02:00	BASE	3.32	110	3.65	108	-0.2	76	-3.8	500	1319	1004.4	NA	0.0000		9999	3640	0	0	0
2016/11/20 16:03:00	BASE	2.96	111	3.65	108	-0.1	76	-3.8	489	1297	1004.4	NA	0.0000		9999	3640	0	0	0
2016/11/20 16:04:00	BASE	2.66	112	3.65	108	-0.1	77	-3.7	474	1265	1004.4	NA	0.0000		9999	2790	3640	0	0
2016/11/20 16:05:00	BASE	2.72	107	3.65	108	-0.1	77	-3.6	468	1252	1004.4	NA	0.0000		9999	2820	3710	0	0
2016/11/20 16:06:00	BASE	2.76	103	3.65	108	-0.1	78	-3.5	467	1252	1004.4	NA	0.0000		9999	2850	3740	0	0
2016/11/20 16:07:00	BASE	2.87	101	3.65	108	-0.1	78	-3.4	468	1254	1004.4	NA	0.0000		9999	2850	3710	20870	0
2016/11/20 16:08:00	BASE	2.89	102	3.65	108	-0.0	78	-3.4	461	1239	1004.4	NA	0.0000		9999	2820	3670	0	0
2016/11/20 16:09:00	BASE	2.76	106	3.65	108	-0.1	78	-3.4	451	1217	1004.3	NA	0.0000		9999	2760	3710	0	0
2016/11/20 16:10:00	BASE	2.59	110	3.65	108	-0.0	79	-3.3	442	1197	1004.3	NA	0.0000		9999	2760	3610	0	0
2016/11/20 16:11:00	BASE	2.39	109	3.45	110	-0.0	79	-3.3	440	1191	1004.2	NA	0.0000		9999	3580	0	0	0
2016/11/20 16:12:00	BASE	2.24	106	3.24	103	-0.0	78	-3.3	438	1184	1004.2	NA	0.0000		9999	3540	0	0	0
2016/11/20 16:13:00	BASE	2.14	108	3.24	103	-0.0	78	-3.3	430	1167	1004.3	NA	0.0000		9999	3510	22640	0	0
2016/11/20 16:14:00	BASE	2.10	111	3.24	103	-0.0	79	-3.3	419	1145	1004.2	NA	0.0000		9999	3580	4270	0	0
2016/11/20 16:15:00	BASE	1.88	113	3.24	103	0.0	79	-3.3	409	1123	1004.2	NA	0.0000		9999	3640	4100	0	0
2016/11/20 16:16:00	BASE	1.82	118	3.19	107	0.0	79	-3.2	399	1102	1004.2	NA	0.0000		9999	3510	18900	20970	0
2016/11/20 16:17:00	BASE	2.17	123	3.14	103	0.1	79	-3.1	393	1089	1004.2	NA	0.0000		9999	2790	3510	0	0
2016/11/20 16:18:00	BASE	2.39	122	3.14	103	0.1	79	-3.0	389	1081	1004.1	NA	0.0000		9999	2760	3540	0	0
2016/11/20 16:19:00	BASE	2.58	123	3.24	121	0.2	79	-3.0	385	1073	1004.1	NA	0.0000		9999	2760	3580	0	0
2016/11/20 16:20:00	BASE	2.88	124	3.24	122	0.2	80	-2.9	377	1057	1004.1	NA	0.0000		9999	2790	3610	0	0
2016/11/20 16:21:00	BASE	2.68	120	3.24	122	0.2	79	-2.9	367	1035	1004.1	NA	0.0000		9999	2790	3580	0	0
2016/11/20 16:22:00	BASE	2.40	117	3.24	122	0.2	79	-2.9	359	1018	1004.1	NA	0.0000		9999	2720	3540	0	0
2016/11/20 16:23:00	BASE	2.16	119	3.24	122	0.2	79	-3.0	355	1010	1004.1	NA	0.0000		9999	2760	0	0	0
2016/11/20 16:24:00	BASE	2.15	123	3.24	122	0.2	79	-3.0	355	1008	1004.1	NA	0.0000		9999	2720	0	0	0
2016/11/20 16:25:00	BASE	2.41	125	3.24	122	0.2	79	-3.1	358	1013	1004.1	NA	0.0000		9999	2760	0	0	0
2016/11/20 16:26:00	BASE	2.43	128	3.24	122	0.2	78	-3.1	359	1015	1004.1	NA	0.0000		9999	2720	3480	0	0
2016/11/20 16:27:00	BASE	2.45	126	3.24	122	0.2	78	-3.1	358	1014	1004.1	NA	0.0000		9999	2760	3510	0	0
2016/11/20 16:28:00	BASE	2.50	121	3.24	122	0.3	78	-3.1	360	1020	1004.1	NA	0.0000		9999	2760	3540	0	0
2016/11/20 16:29:00	BASE	2.42	118	3.24	122	0.2	78	-3.1	366	1033	1004.1	NA	0.0000		9999	2720	0	0	0
2016/11/20 16:30:00	BASE	2.34	118	2.88	119	0.2	78	-3.1	372	1047	1004.0	NA	0.0000		9999	2760	3540	0	0
2016/11/20 16:31:00	BASE	2.17	119	2.88	119	0.2	78	-3.1	374	1051	1004.0	NA	0.0000		9999	2790	3510	0	0
2016/11/20 16:32:00	BASE	1.89	119	2.83	115	0.2	78	-3.2	378	1058	1004.0	NA	0.0000		9999	2760	3540	0	0
2016/11/20 16:33:00	BASE	1.67	124	2.83	115	0.2	78	-3.2	387	1076	1004.0	NA	0.0000		9999	2790	0	0	0
2016/11/20 16:34:00	BASE	1.64	124	2.83	115	0.2	78	-3.1	394	1089	1003.9	NA	0.0000		9999	2790	0	0	0
2016/11/20 16:35:00	BASE	1.80	118	2.83	115	0.3	78	-3.1	391	1082	1003.9	NA	0.0000		9999	2720	3540	0	0
2016/11/20 16:36:00	BASE	1.93	118	2.83	115	0.3	78	-3.1	386	1070	1003.9	NA	0.0000		9999	2660	0	0	0
2016/11/20 16:37:00	BASE	1.92	118	2.68	127	0.4	78	-3.1	384	1068	1003.9	NA	0.0000		9999	2660	0	0	0
2016/11/20 16:38:00	BASE	1.86	119	2.68	127	0.4	77	-3.2	385	1070	1003.8	NA	0.0000		9999	2620	0	0	0
2016/11/20 16:39:00	BASE	1.81	122	2.68	127	0.4	75	-3.5	387	1076	1003.8	NA	0.0000		9999	2590	0	0	0
2016/11/20 16:40:00	BASE	1.57	121	2.21	118	0.5	74	-3.7	390	1083	1003.8	NA	0.0000		9999	2530	0	0	0
2016/11/20 16:41:00	BASE	1.40	118	2.21	118	0.5	72	-3.9	393	1091	1003.8	NA	0.0000		9999	2560	0	0	0
2016/11/20 16:42:00	BASE	1.27	116	2.21	118	0.6	70	-4.2	398	1105	1003.8	NA	0.0000		9999	2530	0	0	0
2016/11/20 16:43:00	BASE	0.88	112	2.21	118	0.7	68	-4.5	405	1120	1003.8	NA	0.0000		9999	2530	0	0	0
2016/11/20 16:44:00	BASE	0.33	109	2.21	118	0.8	67	-4.7	412	1134	1003.8	NA	0.0000		9999	2530	0	0	0
2016/11/20 16:45:00	BASE	0.00	107	2.21	118	0.8	66	-4.9	417	1142	1003.8	NA	0.0000		9999	2530	0	0	0
2016/11/20 16:46:00	BASE	0.00	108	2.11	121	0.9	65	-5.0	418	1143	1003.8	NA	0.0000		9999	2490	0	0	0
2016/11/20 16:47:00	BASE	0.00	110	2.11	121	1.0	64	-5.1	412	1129	1003.8	NA	0.0000		9999	2530	0	0	0
2016/11/20 16:48:00	BASE	0.00	110	2.11	121	1.0	63	-5.2	404	1110	1003.8	NA	0.0000		9999	2490	0	0	0
2016/11/20 16:49:00	BASE	0.00	110	1.65	109	1.1	63	-5.3	396	1092	1003.6	NA	0.0000		9999	2430	0	0	0
2016/11/20 16:50:00	BASE	0.00	110	1.65	109	1.1	62	-5.4	389	1074	1003.6	NA	0.0000		9999	2400	0	0	0
2016/11/20 16:51:00	BASE	0.00	110	1.65	109	1.1	62	-5.4	382	1058	1003.6	NA	0.0000		9999	2460	0	0	0
2016/11/20 16:52:00	BASE	0.00	125	1.59	109	1.2	61	-5.5	377	1048	1003.6	NA	0.0000		9999	2360	0	0	0
2016/11/20 16:53:00	BASE	0.00	145	M	M	1.1	61	-5.5	377	1043	1003.6	NA	0.0000		9999	2360	0	0	0
2016/11/20 16:54:00	BASE	0.00	144	M	M	1.1	61	-5.6	376	1043	1003.6	NA	0.0000		9999	2300	0	0	0
2016/11/20 16:55:00	BASE	0.00	140	M	M	1.1	61	-5.6	377	1043	1003.5	NA	0.0000		9999	2400	0	0	0
2016/11/20 16:56:00	BASE	0.00	140	M	M	1.1	61	-5.5	379	1046	1003.5	NA	0.0000		9999	2400	0	0	0
2016/11/20 16:57:00	BASE	0.00	140	M	M	1.1	61	-5.5	380	1044	1003.5	NA	0.0000		9999	2330	21360	0	0
2016/11/20 16:58:00	BASE	0.00	148	M	M	1.3	61	-5.4	380	1043	1003.5	NA	0.0000		9999	2430	0	0	0
2016/11/20 16:59:00	BASE	0.00	266	M	M	1.4	61	-5.4	376	1029	1003.5	NA	0.0000		9999	2430	0	0	0
2016/11/20 17:00:00	BASE	0.00	302	M	M	1.4	61	-5.4	369	1021	1003.4	NA	0.0000		9999	2490	0	0	0
2016/11/20 17:01:00	BASE	0.00	306	M	M	1.5	61	-5.3	360	1001	1003.4	NA	0.0000		9999	2490	0	0	0
2016/11/20 17:02:00	BASE	0.00	300	M	M	1.6	61	-5.1	354	986	1003.4	NA	0.0000		9999	2460	0	0	0
2016/11/20 17:03:00	BASE	0.00	315	M	M	1.7	62	-4.9	351	980	1003.4	NA	0.0000		9999	2460	0	0	0
2016/11/20 17:04:00	BASE	0.28	319	1.23	317	1.7	63	-4.5	347	975	1003.4	NA	0.0000		9999	2490	0	0	0
2016/11/20 17:05:00	BASE	0.41	312	1.23	317	1.9	65	-4.1	342	964	1003.4	NA	0.0000		9999	2430	0	0	0
2016/11/20 17:06:00	BASE	0.67	311	1.44	324	1.9	66	-3.8	342	964	1003.4	NA	0.0000		9999	2360	0	0	0
2016/11/20 17:07:00	BASE	1.26	309	1.75	305	1.7	68	-3.5	349	977	1003.4	NA	0.0000		9999	2400	0	0	0
2016/11/20 17:08:00	BASE	1.45	309	1.75	305	1.6	70	-3.4	352	987	1003.4	NA	0.0000		9999	2400	0	0	0
2016/11/20 17:09:00	BASE	1.39	309	1.75	305	1.5	71	-3.2	348	975	1003.4	NA	0.0000		9999	2460	0	0	0
2016/11/20 17:10:00	BASE	1.44	309	1.75	309	1.3	71	-3.4	343	961	1003.4	NA	0.0000		9999	2430	0	0	0
2016/11/20 17:11:00	BASE	1.53	304	1.75	309	1.2	70	-3.7	345	970	1003.3	NA	0.0000		9999	2430	0	0	0
2016/11/20 17:12:00	BASE	1.61	303	1.85	315	1.2	69	-3.9	355	992	1003.3	NA	0.0000		9999	2430	0	0	0
2016/11/20 17:13:00	BASE	1.69	306	1.85	307	1.3	68	-4.0	363	1008	1003.3	NA	0.0000		9999	2460	0	0	0
2016/11/20 17:14:00	BASE	1.83	303	2.01	294	1.3	66	-4.3	367	1021	1003.3	NA	0.0000		9999	2530	0	0	0
2016/11/20 17:15:00	BASE	1.91	302	2.01	301	1.3	66	-4.4	370	1028	1003.3	NA	0.0000		9999	2530	0	0	0
2016/11/20 17:16:00	BASE	1.86	306	2.01	301	1.3	65	-4.5	368	1021	1003.3	NA	0.0000		9999	2490	0	0	0
2016/11/20 17:17:00	BASE	1.84	306	2.01	301	1.2	65	-4.6	363	1007	1003.3	NA	0.0000		9999	2490	0	0	0
2016/11/20 17:18:00	BASE	1.83	304	2.06	304	1.1	65	-4.7	354	985	1003.2	NA	0.0000		9999	2530	0	0	0
2016/11/20 17:19:00	BASE	1.71	301	2.06	304	1.0	65	-4.8	335	942	1003.2	NA	0.0000		9999	2530	0	0	0
2016/11/20 17:20:00	BASE	1.63	298	2.06	304	1.0	65	-4.9	320	910	1003.2	NA	0.0000		9999	2460	0	0	0
2016/11/20 17:21:00	BASE	1.68	289	2.06	282	1.1	65	-4.7	318	904	1003.2	NA	0.0000		9999	2430	0	0	0
2016/11/20 17:22:00	BASE	1.80	280	2.06	282	1.2	66	-4.5	315	899	1003.1	NA	0.0000		9999	2430	0	0	0
2016/11/20 17:23:00	BASE	1.84	279	2.06	282	1.3	67	-4.2	305	874	1003.0	NA	0.0000		9999	2460	0	0	0
2016/11/20 17:24:00	BASE	1.81	279	2.06	282	1.3	69	-3.8	293	845	1003.1	NA	0.0000		9999	2400	0	0	0
2016/11/20 17:25:00	BASE	1.85	281	2.06	282	1.4	71	-3.4	285	830	1003.1	NA	0.0000		9999	2360	0	0	0
2016/11/20 17:26:00	BASE	1.92	285	2.11	292	1.4	72	-3.1	281	822	1003.1	NA	0.0000		9999	2400	0	0	0
2016/11/20 17:27:00	BASE	1.94	287	2.16	285	1.3	73	-2.9	280	822	1003.2	NA	0.0000		9999	2400	0	0	0
2016/11/20 17:28:00	BASE	2.04	285	2.31	286	1.3	74	-2.8	281	825	1003.1	NA	0.0000		9999	2400	0	0	0
2016/11/20 17:29:00	BASE	2.02	289	2.31	286	1.3	75	-2.6	285	834	1003.0	NA	0.0000		9999	2400	0	0	0
2016/11/20 17:30:00	BASE	1.90	289	2.31	286	1.2	76	-2.5	288	844	1003.0	NA	0.0000		9999	2400	0	0	0
2016/11/20 17:31:00	BASE	1.93	288	2.31	286	1.2	77	-2.4	289	846	1003.0	NA	0.0000		9999	2430	0	0	0
2016/11/20 17:32:00	BASE	1.80	288	2.31	286	1.1	77	-2.4	287	842	1003.0	NA	0.0000		9999	2400	0	0	0
2016/11/20 17:33:00	BASE	1.66	283	2.31	286	1.1	77	-2.4	283	835	1003.0	NA	0.0000		9999	2400	0	0	0
2016/11/20 17:34:00	BASE	1.57	279	2.31	286	1.1	77	-2.5	281	834	1003.0	NA	0.0000		9999	2490	0	0	0
2016/11/20 17:35:00	BASE	1.32	282	2.31	286	1.0	76	-2.8	282	837	1003.0	NA	0.0000		9999	2460	0	0	0
2016/11/20 17:36:00	BASE	0.59	287	2.31	286	1.1	74	-3.0	284	842	1003.0	NA	0.0000		9999	2400	2920	3380	0
2016/11/20 17:37:00	BASE	0.00	292	2.31	286	1.2	73	-3.1	288	854	1002.9	NA	0.0000		9999	3150	0	0	0
2016/11/20 17:38:00	BASE	0.00	295	2.11	288	1.3	71	-3.4	297	875	1002.9	NA	0.0000		9999	3280	22570	0	0
2016/11/20 17:39:00	BASE	0.00	295	2.11	288	1.2	70	-3.6	308	896	1002.9	NA	0.0000		9999	3350	0	0	0
2016/11/20 17:40:00	BASE	0.00	295	2.06	294	1.2	70	-3.7	317	918	1002.8	NA	0.0000		9999	3740	0	0	0
2016/11/20 17:41:00	BASE	0.00	295	1.85	296	1.1	69	-3.9	322	924	1002.8	NA	0.0000		9999	3970	0	0	0
2016/11/20 17:42:00	BASE	0.00	295	1.80	273	1.0	69	-4.0	324	926	1002.8	NA	0.0000		9999	3770	0	0	0
2016/11/20 17:43:00	BASE	0.00	312	1.65	277	1.1	68	-4.1	330	938	1002.8	NA	0.0000		9999	3710	0	0	0
2016/11/20 17:44:00	BASE	0.14	350	1.59	287	1.2	68	-4.1	335	945	1002.8	NA	0.0000		9999	3740	0	0	0
2016/11/20 17:45:00	BASE	0.81	353	1.54	348	1.3	67	-4.1	333	932	1002.8	NA	0.0000		9999	4920	0	0	0
2016/11/20 17:46:00	BASE	1.35	346	1.65	352	1.4	67	-4.1	322	907	1002.8	NA	0.0000		9999	4990	0	0	0
2016/11/20 17:47:00	BASE	1.55	349	1.90	350	1.3	68	-3.9	302	860	1002.8	NA	0.0000		9999	5050	0	0	0
2016/11/20 17:48:00	BASE	1.03	336	1.90	350	1.2	71	-3.5	279	809	1002.8	NA	0.0000		9999	3870	5090	0	0
2016/11/20 17:49:00	BASE	0.15	311	1.90	350	1.1	74	-3.1	257	760	1002.8	NA	0.0000		9999	3770	0	0	0
2016/11/20 17:50:00	BASE	0.00	311	1.90	350	1.0	76	-2.7	238	718	1002.8	NA	0.0000		9999	3740	0	0	0
2016/11/20 17:51:00	BASE	0.00	315	1.90	350	1.0	78	-2.4	222	682	1002.8	NA	0.0000		9999	2560	3380	0	0
2016/11/20 17:52:00	BASE	0.00	287	1.90	350	0.9	79	-2.4	210	655	1002.8	NA	0.0000		9999	3480	0	0	0
2016/11/20 17:53:00	BASE	0.00	266	1.90	350	0.9	78	-2.5	202	641	1002.9	NA	0.0000		9999	3310	0	0	0
2016/11/20 17:54:00	BASE	0.16	260	1.90	350	0.9	77	-2.6	196	628	1002.9	NA	0.0000		9999	3280	0	0	0
2016/11/20 17:55:00	BASE	1.05	243	2.42	226	0.9	76	-2.8	192	620	1002.8	NA	0.0000		9999	3180	0	0	0
2016/11/20 17:56:00	BASE	2.31	234	3.09	229	0.9	76	-3.0	189	610	1002.8	NA	0.0000		9999	3180	0	0	0
2016/11/20 17:57:00	BASE	2.99	238	3.65	225	0.8	75	-3.2	186	602	1002.8	NA	0.0000		9999	2560	3280	0	0
2016/11/20 17:58:00	BASE	2.95	257	4.37	256	0.8	74	-3.3	183	595	1002.8	NA	0.0000		9999	2560	3280	0	0
2016/11/20 17:59:00	BASE	2.18	266	4.37	256	0.8	74	-3.4	180	584	1002.8	NA	0.0000		9999	3280	0	0	0
2016/11/20 18:00:00	BASE	1.37	214	4.37	256	0.9	74	-3.2	175	571	1002.7	NA	0.0000		9999	3280	0	0	0
2016/11/20 18:01:00	BASE	0.86	165	4.37	256	1.3	74	-2.9	170	556	1002.8	NA	0.0000		9999	3310	0	0	0
2016/11/20 18:02:00	BASE	0.67	160	4.37	256	1.4	74	-2.7	166	546	1002.7	NA	0.0000		9999	3280	0	0	0
2016/11/20 18:03:00	BASE	0.76	177	4.37	256	1.5	74	-2.6	164	539	1002.8	NA	0.0000		9999	3220	0	0	0
2016/11/20 18:04:00	BASE	0.48	271	4.37	256	1.5	75	-2.5	162	532	1002.8	NA	0.0000		9999	3250	0	0	0
2016/11/20 18:05:00	BASE	0.31	135	4.37	256	1.4	75	-2.6	159	524	1002.8	NA	0.0000		9999	3150	0	0	0
2016/11/20 18:06:00	BASE	0.54	160	4.37	256	1.1	76	-2.8	156	519	1002.8	NA	0.0000		9999	2590	3310	0	0
2016/11/20 18:07:00	BASE	1.00	225	4.37	256	0.8	77	-2.7	156	518	1002.8	NA	0.0000		9999	2260	0	0	0
2016/11/20 18:08:00	BASE	1.34	228	2.98	248	0.7	79	-2.6	157	518	1002.8	NA	0.0000		9999	2430	0	0	0
2016/11/20 18:09:00	BASE	1.31	219	2.31	117	0.5	80	-2.6	157	519	1002.8	NA	0.0000		9999	2490	3120	0	0
2016/11/20 18:10:00	BASE	1.37	227	1.80	301	0.4	81	-2.5	156	517	1002.8	NA	0.0000		9999	2530	3120	0	0
2016/11/20 18:11:00	BASE	1.36	229	1.80	301	0.3	82	-2.4	156	517	1002.8	NA	0.0000		9999	2490	3120	0	0
2016/11/20 18:12:00	BASE	1.29	224	1.80	301	0.3	83	-2.3	154	512	1002.8	NA	0.0000		9999	3020	0	0	0
2016/11/20 18:13:00	BASE	1.03	224	1.70	220	0.3	82	-2.4	151	504	1002.8	NA	0.0000		9999	3120	0	0	0
2016/11/20 18:14:00	BASE	0.78	234	1.70	220	0.4	81	-2.5	148	498	1002.8	NA	0.0000		9999	2620	0	0	0
2016/11/20 18:15:00	BASE	0.41	244	1.70	220	0.4	80	-2.7	146	491	1002.8	NA	0.0000		9999	2660	0	0	0
2016/11/20 18:16:00	BASE	0.10	237	1.70	220	0.4	77	-3.1	143	483	1002.8	NA	0.0000		9999	2560	0	0	0
2016/11/20 18:17:00	BASE	0.10	228	1.70	220	0.5	75	-3.4	143	480	1002.8	NA	0.0000		9999	2490	3080	0	0
2016/11/20 18:18:00	BASE	0.00	228	1.70	220	0.5	74	-3.6	147	490	1002.7	NA	0.0000		9999	2400	3150	0	0
2016/11/20 18:19:00	BASE	0.00	228	1.70	220	0.7	72	-3.7	154	506	1002.7	NA	0.0000		9999	2430	3080	0	0
2016/11/20 18:20:00	BASE	0.28	213	1.70	220	0.8	71	-3.8	157	510	1002.6	NA	0.0000		9999	2430	3050	0	0
2016/11/20 18:21:00	BASE	1.17	187	2.01	180	0.8	71	-3.8	158	513	1002.6	NA	0.0000		9999	3050	0	0	0
2016/11/20 18:22:00	BASE	1.85	172	2.06	161	0.7	72	-3.7	160	514	1002.5	NA	0.0000		9999	3050	0	0	0
2016/11/20 18:23:00	BASE	1.94	162	2.11	160	0.7	72	-3.7	162	521	1002.5	NA	0.0000		9999	3080	0	0	0
2016/11/20 18:24:00	BASE	1.86	158	2.11	156	0.5	73	-3.8	162	524	1002.5	NA	0.0000		9999	3080	0	0	0
2016/11/20 18:25:00	BASE	1.69	154	2.11	156	0.4	74	-3.8	162	524	1002.5	NA	0.0000		9999	3050	0	0	0
2016/11/20 18:26:00	BASE	1.81	141	2.26	140	0.3	74	-3.7	162	523	1002.4	NA	0.0000		9999	2990	0	0	0
2016/11/20 18:27:00	BASE	2.02	136	2.26	140	0.3	75	-3.6	160	520	1002.3	NA	0.0000		9999	2990	0	0	0
2016/11/20 18:28:00	BASE	2.13	133	2.52	128	0.3	75	-3.6	156	510	1002.3	NA	0.0000		9999	2990	0	0	0
2016/11/20 18:29:00	BASE	2.30	132	2.57	136	0.4	76	-3.4	152	501	1002.3	NA	0.0000		9999	2950	0	0	0
2016/11/20 18:30:00	BASE	2.23	139	2.57	136	0.4	77	-3.1	149	495	1002.3	NA	0.0000		9999	2850	0	0	0
2016/11/20 18:31:00	BASE	1.95	141	2.57	136	0.4	79	-2.9	148	494	1002.3	NA	0.0000		9999	2530	3120	0	0
2016/11/20 18:32:00	BASE	1.65	135	2.57	136	0.3	80	-2.7	149	497	1002.4	NA	0.0000		9999	2490	0	0	0
2016/11/20 18:33:00	BASE	1.30	125	2.57	136	0.3	82	-2.5	150	497	1002.5	NA	0.0000		9999	2560	3150	0	0
2016/11/20 18:34:00	BASE	1.12	125	2.57	136	0.2	83	-2.4	148	494	1002.3	NA	0.0000		9999	2990	0	0	0
2016/11/20 18:35:00	BASE	1.47	134	2.57	136	0.2	83	-2.4	149	495	1002.3	NA	0.0000		9999	3080	0	0	0
2016/11/20 18:36:00	BASE	2.09	140	2.57	136	0.1	82	-2.5	151	502	1002.2	NA	0.0000		9999	3050	0	0	0
2016/11/20 18:37:00	BASE	2.17	142	2.57	136	0.1	82	-2.6	154	508	1002.2	NA	0.0000		9999	2990	0	0	0
2016/11/20 18:38:00	BASE	1.45	134	2.57	136	0.2	81	-2.6	154	510	1002.2	NA	0.0000		9999	3050	0	0	0
2016/11/20 18:39:00	BASE	1.15	139	2.52	145	0.3	81	-2.7	154	510	1002.2	NA	0.0000		9999	2950	0	0	0
2016/11/20 18:40:00	BASE	1.64	148	2.52	145	0.3	80	-2.8	157	518	1002.2	NA	0.0000		9999	2990	0	0	0
2016/11/20 18:41:00	BASE	1.97	142	2.52	145	0.3	79	-2.9	164	534	1002.2	NA	0.0000		9999	3080	0	0	0
2016/11/20 18:42:00	BASE	2.06	139	2.52	145	0.3	79	-2.9	171	551	1002.2	NA	0.0000		9999	3150	0	0	0
2016/11/20 18:43:00	BASE	2.15	145	2.52	144	0.3	79	-2.9	173	558	1002.2	NA	0.0000		9999	3080	0	0	0
2016/11/20 18:44:00	BASE	2.25	154	2.52	144	0.2	80	-2.9	176	565	1002.1	NA	0.0000		6000	3050	0	0	0
2016/11/20 18:45:00	BASE	2.22	155	2.52	144	0.2	80	-2.8	182	581	1002.1	NA	0.0000	UP	4500	0	0	0	3350
2016/11/20 18:46:00	BASE	2.03	143	2.52	144	0.2	81	-2.6	189	597	1002.1	NA	0.0000	UP	4600	3250	0	0	0
2016/11/20 18:47:00	BASE	1.86	132	2.52	144	0.2	82	-2.5	188	594	1002.0	NA	0.0000	UP	6000	3080	0	0	0
2016/11/20 18:48:00	BASE	1.85	135	2.52	144	0.2	83	-2.3	183	583	1001.9	NA	0.0000	UP	8000	3150	22970	0	0
2016/11/20 18:49:00	BASE	2.08	144	2.52	149	0.2	84	-2.3	178	571	1001.8	NA	0.0000	UP	5000	3180	0	0	0
2016/11/20 18:50:00	BASE	2.25	150	2.62	152	0.2	84	-2.2	176	565	1001.9	NA	0.0000	UP	3600	3050	0	0	0
2016/11/20 18:51:00	BASE	2.06	147	2.62	152	0.2	84	-2.2	172	555	1001.8	NA	0.0000	-SN	4200	3080	0	0	0
2016/11/20 18:52:00	BASE	1.92	131	2.62	152	0.2	85	-2.1	167	542	1001.9	NA	0.0000	-SN	4000	3120	0	0	0
2016/11/20 18:53:00	BASE	1.83	125	2.62	152	0.2	85	-2.1	164	535	1001.9	NA	0.0000	-SN	4100	3120	0	0	0
2016/11/20 18:54:00	BASE	2.15	143	3.34	153	0.2	85	-2.0	164	538	1001.8	NA	0.0000	-SN	4100	2760	0	0	0
2016/11/20 18:55:00	BASE	2.78	155	3.60	146	0.2	85	-2.1	166	545	1001.8	NA	0.0000	-SN	4800	1080	0	0	0
2016/11/20 18:56:00	BASE	2.80	147	3.60	146	0.1	84	-2.2	166	543	1001.8	NA	0.0000	-SN	5000	3150	0	0	0
2016/11/20 18:57:00	BASE	2.47	133	3.60	146	0.1	84	-2.3	162	533	1001.9	NA	0.0000	-SN	8000	3150	0	0	0
2016/11/20 18:58:00	BASE	2.43	129	3.60	146	0.1	83	-2.4	157	522	1001.8	NA	0.0000	-SN	9000	980	0	0	0
2016/11/20 18:59:00	BASE	2.71	138	3.60	146	0.1	83	-2.5	156	516	1001.8	NA	0.0000	-SN	8000	0	0	0	3350
2016/11/20 19:00:00	BASE	3.07	138	3.60	146	0.1	83	-2.4	159	521	1001.8	NA	0.0000	-SN	5000	590	0	0	0
2016/11/20 19:01:00	BASE	3.05	132	3.60	146	0.1	83	-2.4	161	525	1001.8	NA	0.0000	-SN	4600	2560	0	0	0
2016/11/20 19:02:00	BASE	2.75	130	3.60	146	0.1	83	-2.4	163	528	1001.7	NA	0.0000	-SN	4600	0	0	0	3450
2016/11/20 19:03:00	BASE	2.70	129	3.60	146	0.1	84	-2.3	167	534	1001.7	NA	0.0000	-SN	4400	520	1510	0	0
2016/11/20 19:04:00	BASE	2.74	132	3.60	146	0.1	84	-2.2	169	539	1001.6	NA	0.0000	-SN	4700	390	0	0	0
2016/11/20 19:05:00	BASE	2.87	138	3.55	135	0.1	84	-2.2	167	531	1001.6	NA	0.0000	-SN	5000	890	22800	0	0
2016/11/20 19:06:00	BASE	2.95	145	3.55	135	0.1	84	-2.2	160	509	1001.6	NA	0.0000	-SN	5000	520	0	0	0
2016/11/20 19:07:00	BASE	2.85	147	3.55	135	0.1	84	-2.3	152	488	1001.6	NA	0.0000	-SN	5000	2460	0	0	0
2016/11/20 19:08:00	BASE	2.99	137	3.60	124	0.1	84	-2.3	147	472	1001.6	NA	0.0000	-SN	2900	1640	2490	0	0
2016/11/20 19:09:00	BASE	3.09	121	3.60	124	0.1	83	-2.4	144	460	1001.6	NA	0.0000	-SN	1900	1870	0	0	0
2016/11/20 19:10:00	BASE	2.68	119	3.60	124	0.1	82	-2.6	140	450	1001.6	NA	0.0000	-SN	4800	390	0	0	0
2016/11/20 19:11:00	BASE	2.53	134	3.60	124	0.1	81	-2.7	138	444	1001.5	NA	0.0000	-SN	4200	390	0	0	0
2016/11/20 19:12:00	BASE	3.35	141	4.58	128	0.1	81	-2.7	136	439	1001.5	NA	0.0000	-SN	3400	390	0	0	0
2016/11/20 19:13:00	BASE	4.08	135	5.04	132	0.1	81	-2.7	135	435	1001.4	NA	0.0000	-SN	2100	330	0	0	0
2016/11/20 19:14:00	BASE	4.09	129	5.04	132	0.1	82	-2.7	136	438	1001.5	NA	0.0000	-SN	1200	1710	0	0	0
2016/11/20 19:15:00	BASE	3.91	124	5.04	132	0.0	83	-2.5	138	445	1001.5	NA	0.0000	-SN	1100	360	0	0	0
2016/11/20 19:16:00	BASE	3.95	121	5.04	132	-0.0	84	-2.4	137	446	1001.5	NA	0.0000	-SN	1400	2400	0	0	0
2016/11/20 19:17:00	BASE	4.16	124	5.04	132	-0.1	85	-2.3	133	433	1001.4	NA	0.0000	-SN BR	2000	1480	0	0	0
2016/11/20 19:18:00	BASE	4.27	131	5.04	132	-0.1	86	-2.3	130	425	1001.4	NA	0.0000	-SN BR	1800	1900	22640	0	0
2016/11/20 19:19:00	BASE	4.61	129	5.56	129	-0.1	86	-2.2	127	416	1001.4	NA	0.0000	-SN BR	4600	1540	0	0	0
2016/11/20 19:20:00	BASE	5.10	119	5.71	120	-0.1	86	-2.1	122	403	1001.4	NA	0.0000	-SN BR	4500	1350	0	0	0
2016/11/20 19:21:00	BASE	5.05	117	5.71	120	-0.2	87	-2.1	115	386	1001.4	NA	0.0000	-SN BR	7000	1050	1800	0	0
2016/11/20 19:22:00	BASE	4.73	124	5.71	120	-0.2	87	-2.1	108	367	1001.4	NA	0.0000	-SN BR	7000	1940	0	0	0
2016/11/20 19:23:00	BASE	4.48	122	5.71	120	-0.2	87	-2.1	103	352	1001.4	NA	0.0000	-SN BR	2400	1640	2460	0	0
2016/11/20 19:24:00	BASE	4.51	119	5.71	120	-0.4	88	-2.2	100	344	1001.4	NA	0.0000	-SN BR	1500	1570	2460	0	0
2016/11/20 19:25:00	BASE	4.96	130	5.71	120	-0.5	88	-2.1	98	339	1001.3	NA	0.0000	-SN BR	2200	390	0	0	0
2016/11/20 19:26:00	BASE	5.47	139	6.02	141	-0.5	89	-2.1	97	346	1001.3	NA	0.0000	-SN BR	1300	1770	2300	0	0
2016/11/20 19:27:00	BASE	5.34	140	6.02	141	-0.6	90	-2.1	96	356	1001.3	NA	0.0000	-SN BR	2000	1740	2620	0	0
2016/11/20 19:28:00	BASE	4.65	133	6.02	141	-0.6	90	-2.0	96	359	1001.4	NA	0.0000	-SN BR	4200	1440	0	0	0
2016/11/20 19:29:00	BASE	4.40	122	6.02	141	-0.7	91	-2.0	97	360	1001.3	NA	0.0000	-SN BR	3300	1440	0	0	0
2016/11/20 19:30:00	BASE	4.53	127	6.02	141	-0.7	91	-2.0	97	363	1001.3	NA	0.0000	-SN BR	3500	2460	0	0	0
2016/11/20 19:31:00	BASE	5.06	139	6.17	141	-0.7	91	-1.9	98	370	1001.2	NA	0.0000	-SN BR	3400	390	0	0	0
2016/11/20 19:32:00	BASE	5.58	138	6.17	141	-0.7	92	-1.9	99	374	1001.1	NA	0.0000	-SN BR	2900	560	0	0	0
2016/11/20 19:33:00	BASE	5.55	132	6.17	141	-0.7	92	-1.9	99	373	1001.1	NA	0.0000	-SN BR	2600	560	2660	0	0
2016/11/20 19:34:00	BASE	5.58	130	6.38	121	-0.7	92	-1.8	100	376	1001.1	NA	0.0000	-SN BR	1900	0	0	0	2760
2016/11/20 19:35:00	BASE	5.85	126	6.84	120	-0.7	92	-1.9	102	384	1001.0	NA	0.0000	-SN BR	1000	620	2620	0	0
2016/11/20 19:36:00	BASE	6.29	123	7.00	125	-0.7	92	-1.9	104	392	1001.0	NA	0.0000	-SN BR	1500	360	0	0	0
2016/11/20 19:37:00	BASE	6.01	125	7.00	125	-0.7	92	-1.9	106	403	1001.0	NA	0.0000	-SN BR	3500	360	3080	0	0
2016/11/20 19:38:00	BASE	5.43	126	7.00	125	-0.8	92	-1.9	109	412	1001.0	NA	0.0000	-SN BR	1900	1710	0	0	0
2016/11/20 19:39:00	BASE	5.27	124	7.00	125	-0.7	91	-2.0	111	415	1001.0	NA	0.0000	-SN BR	1400	490	1570	0	0
2016/11/20 19:40:00	BASE	5.62	116	7.00	125	-0.7	91	-2.1	112	415	1001.0	NA	0.0000	-SN BR	4400	1670	0	0	0
2016/11/20 19:41:00	BASE	6.01	109	7.00	125	-0.7	90	-2.2	112	415	1001.0	NA	0.0000	-SN BR	4500	1710	0	0	0
2016/11/20 19:42:00	BASE	5.27	110	7.00	125	-0.8	90	-2.3	111	413	1001.0	NA	0.0000	-SN BR	5000	1350	0	0	0
2016/11/20 19:43:00	BASE	4.98	119	7.00	125	-0.8	89	-2.4	112	413	1000.9	NA	0.0000	-SN BR	6000	750	0	0	0
2016/11/20 19:44:00	BASE	5.21	121	7.00	125	-0.8	89	-2.5	113	414	1000.9	NA	0.0000	-SN BR	7000	1740	0	0	0
2016/11/20 19:45:00	BASE	5.53	109	7.00	125	-0.8	89	-2.4	114	415	1000.9	NA	0.0000	-SN BR	6000	1710	0	0	0
2016/11/20 19:46:00	BASE	6.16	104	7.15	102	-0.8	89	-2.4	114	415	1000.8	NA	0.0000	-SN BR	4500	0	0	0	2950
2016/11/20 19:47:00	BASE	5.94	114	7.15	102	-0.7	89	-2.3	113	409	1000.8	NA	0.0000	-SN BR	3400	520	1770	0	0
2016/11/20 19:48:00	BASE	5.26	118	7.15	102	-0.5	89	-2.1	112	408	1000.8	NA	0.0000	-SN BR	3600	0	0	0	2820
2016/11/20 19:49:00	BASE	4.95	117	7.15	102	-0.5	89	-2.0	112	407	1000.8	NA	0.0000	-SN BR	3600	1440	0	0	0
2016/11/20 19:50:00	BASE	5.15	121	7.15	102	-0.4	89	-1.9	112	407	1000.7	NA	0.0000	-SN BR	3900	1380	0	0	0
2016/11/20 19:51:00	BASE	5.02	121	7.15	102	-0.3	89	-1.8	112	407	1000.6	NA	0.0000	-SN BR	4400	1670	0	0	0
2016/11/20 19:52:00	BASE	5.18	116	7.15	102	-0.2	90	-1.7	111	403	1000.6	NA	0.0000	-SN BR	4000	0	0	0	2850
2016/11/20 19:53:00	BASE	5.42	118	7.15	102	-0.2	90	-1.7	109	397	1000.6	NA	0.0000	-SN BR	3500	0	0	0	3020
2016/11/20 19:54:00	BASE	5.02	120	7.15	102	-0.2	90	-1.6	107	392	1000.6	NA	0.0000	-SN BR	3300	1570	21000	0	0
2016/11/20 19:55:00	BASE	5.09	122	7.15	102	-0.2	90	-1.6	107	391	1000.6	NA	0.0000	-SN BR	3100	2920	0	0	0
2016/11/20 19:56:00	BASE	4.86	125	6.17	125	-0.2	90	-1.6	107	390	1000.6	NA	0.0000	-SN BR	2700	1440	0	0	0
2016/11/20 19:57:00	BASE	4.11	122	6.17	125	-0.2	90	-1.6	107	388	1000.7	NA	0.0000	-SN BR	2600	1640	0	0	0
2016/11/20 19:58:00	BASE	3.69	112	6.17	125	-0.2	90	-1.6	107	386	1000.6	NA	0.0000	-SN BR	2900	1670	0	0	0
2016/11/20 19:59:00	BASE	3.80	106	6.17	125	-0.2	90	-1.6	107	388	1000.6	NA	0.0000	-SN BR	4000	1540	0	0	0
2016/11/20 20:00:00	BASE	3.95	110	6.17	125	-0.2	91	-1.6	108	391	1000.5	NA	0.0000	-SN BR	5000	1410	0	0	0
2016/11/20 20:01:00	BASE	4.06	110	6.17	125	-0.2	91	-1.5	110	398	1000.5	NA	0.0000	-SN BR	5000	1610	22250	0	0
2016/11/20 20:02:00	BASE	4.31	110	6.17	125	-0.2	91	-1.5	112	406	1000.4	NA	0.0000	-SN BR	7000	0	0	0	2560
2016/11/20 20:03:00	BASE	4.13	115	5.61	133	-0.2	91	-1.6	114	412	1000.4	NA	0.0000	-SN BR	6000	2430	0	0	0
2016/11/20 20:04:00	BASE	3.88	113	5.61	133	-0.2	91	-1.6	114	410	1000.4	NA	0.0000	-SN BR	4100	1670	0	0	0
2016/11/20 20:05:00	BASE	4.21	108	5.14	128	-0.3	91	-1.6	112	405	1000.4	NA	0.0000	-SN BR	2700	1480	0	0	0
2016/11/20 20:06:00	BASE	4.73	109	5.56	113	-0.3	91	-1.6	110	400	1000.4	NA	0.0000	-SN BR	2100	1640	0	0	0
2016/11/20 20:07:00	BASE	4.87	112	5.56	113	-0.3	91	-1.6	108	395	1000.4	NA	0.2540	-SN BR	2500	1410	0	0	0
2016/11/20 20:08:00	BASE	4.56	117	5.56	113	-0.3	91	-1.6	108	392	1000.4	NA	0.0000	-SN BR	3300	1510	0	0	0
2016/11/20 20:09:00	BASE	4.45	114	5.56	113	-0.4	91	-1.6	106	387	1000.3	NA	0.0000	-SN BR	3500	1380	0	0	0
2016/11/20 20:10:00	BASE	5.02	108	5.81	107	-0.4	91	-1.6	105	382	1000.3	NA	0.0000	-SN BR	5000	1180	0	0	0
2016/11/20 20:11:00	BASE	5.45	109	5.81	107	-0.4	92	-1.6	102	373	1000.3	NA	0.0000	-SN BR	6000	690	0	0	0
2016/11/20 20:12:00	BASE	5.04	106	5.81	107	-0.5	92	-1.6	100	366	1000.3	NA	0.0000	-SN BR	5000	0	0	0	2560
2016/11/20 20:13:00	BASE	4.78	99	5.81	107	-0.5	92	-1.6	97	356	1000.3	NA	0.0000	-SN BR	5000	0	0	0	2590
2016/11/20 20:14:00	BASE	4.48	101	5.81	107	-0.5	92	-1.6	94	348	1000.3	NA	0.0000	-SN BR	4700	460	0	0	0
2016/11/20 20:15:00	BASE	4.51	106	5.81	107	-0.4	92	-1.6	93	343	1000.3	NA	0.0000	-SN BR	5000	390	0	0	0
2016/11/20 20:16:00	BASE	4.63	105	5.81	107	-0.4	92	-1.5	92	341	1000.2	NA	0.0000	-SN BR	4500	0	0	0	2590
2016/11/20 20:17:00	BASE	3.98	110	5.81	107	-0.3	92	-1.4	94	346	1000.2	NA	0.0000	-SN BR	3100	0	0	0	2490
2016/11/20 20:18:00	BASE	3.54	120	5.81	107	-0.2	92	-1.3	97	354	1000.1	NA	0.0000	-SN BR	1800	0	0	0	2560
2016/11/20 20:19:00	BASE	3.64	117	5.81	107	-0.1	92	-1.2	100	363	1000.1	NA	0.0000	-SN BR	1500	0	0	0	2660
2016/11/20 20:20:00	BASE	3.00	114	5.71	110	0.1	92	-1.0	102	367	1000.1	NA	0.0000	-SN BR	7000	690	0	0	0
2016/11/20 20:21:00	BASE	2.87	126	5.30	107	0.3	92	-0.9	104	374	1000.0	NA	0.0000	-SN BR	8000	490	0	0	0
2016/11/20 20:22:00	BASE	3.66	135	5.30	107	0.4	92	-0.8	105	377	999.9	NA	0.0000	-SN BR	6000	0	0	0	2430
2016/11/20 20:23:00	BASE	3.58	132	5.09	107	0.5	91	-0.8	106	378	999.9	NA	0.0000	-SN BR	5000	620	0	0	0
2016/11/20 20:24:00	BASE	3.33	128	5.09	107	0.5	91	-0.7	105	377	999.9	NA	0.0000	-SN BR	4900	520	0	0	0
2016/11/20 20:25:00	BASE	3.46	129	4.94	101	0.5	91	-0.7	105	375	999.9	NA	0.0000	-SN BR	5000	690	0	0	0
2016/11/20 20:26:00	BASE	4.21	141	5.45	152	0.5	91	-0.8	105	374	999.8	NA	0.0000	-SN BR	3800	0	0	0	2490
2016/11/20 20:27:00	BASE	4.79	148	5.45	152	0.4	91	-0.9	103	370	999.8	NA	0.0000	-SN BR	3100	1440	0	0	0
2016/11/20 20:28:00	BASE	4.97	151	5.61	160	0.3	91	-0.9	101	365	999.8	NA	0.0000	-SN BR	4300	2230	0	0	0
2016/11/20 20:29:00	BASE	4.76	153	5.61	160	0.2	92	-1.0	101	361	999.8	NA	0.0000	-SN BR	7000	660	2200	0	0
2016/11/20 20:30:00	BASE	4.30	144	5.61	160	0.0	92	-1.2	99	355	999.9	NA	0.0000	-SN BR	7000	1540	0	0	0
2016/11/20 20:31:00	BASE	3.83	133	5.61	160	-0.1	92	-1.3	99	353	999.9	NA	0.0000	-SN BR	4700	1510	2200	0	0
2016/11/20 20:32:00	BASE	3.25	122	5.61	160	-0.2	92	-1.3	99	353	999.9	NA	0.0000	-SN BR	3900	1410	2260	0	0
2016/11/20 20:33:00	BASE	3.12	120	5.61	160	-0.3	93	-1.3	99	355	999.9	NA	0.0000	-SN BR	4300	1440	0	0	0
2016/11/20 20:34:00	BASE	3.07	122	5.61	160	-0.3	93	-1.3	102	362	999.9	NA	0.0000	-SN BR	2900	1440	2200	0	0
2016/11/20 20:35:00	BASE	2.19	116	5.61	160	-0.3	94	-1.2	104	366	999.9	NA	0.0000	-SN BR	2600	1480	2330	0	0
2016/11/20 20:36:00	BASE	1.71	122	5.61	160	-0.3	94	-1.2	107	373	999.9	NA	0.0000	-SN BR	2700	1380	0	0	0
2016/11/20 20:37:00	BASE	2.34	130	5.61	160	-0.3	94	-1.1	111	386	999.8	NA	0.0000	-SN BR	4600	0	0	0	2950
2016/11/20 20:38:00	BASE	2.77	119	5.04	149	-0.2	94	-1.0	116	398	999.8	NA	0.0000	-SN BR	4700	0	0	0	2660
2016/11/20 20:39:00	BASE	2.61	110	5.04	149	-0.1	95	-0.9	117	401	999.8	NA	0.0000	-SN BR	3900	0	0	0	2690
2016/11/20 20:40:00	BASE	2.58	126	4.42	127	-0.0	95	-0.8	119	406	999.8	NA	0.0000	-SN BR	2700	0	0	0	2460
2016/11/20 20:41:00	BASE	3.30	149	4.53	146	0.0	95	-0.7	120	406	999.7	NA	0.0000	-SN BR	2200	850	0	0	0
2016/11/20 20:42:00	BASE	3.82	155	4.53	146	0.1	94	-0.7	119	402	999.7	NA	0.0000	-SN BR	9000	1350	0	0	0
2016/11/20 20:43:00	BASE	4.17	148	4.78	126	0.1	94	-0.7	116	392	999.6	NA	0.0000	-SN BR	9999	1210	2170	0	0
2016/11/20 20:44:00	BASE	4.42	136	5.40	132	0.1	94	-0.7	113	384	999.6	NA	0.0000	-SN BR	9999	1210	0	0	0
2016/11/20 20:45:00	BASE	4.52	135	5.40	132	0.1	94	-0.7	109	373	999.5	NA	0.0000	-SN BR	8000	1410	0	0	0
2016/11/20 20:46:00	BASE	5.12	134	6.02	132	0.1	95	-0.6	103	356	999.4	NA	0.0000	-SN BR	9000	1410	0	0	0
2016/11/20 20:47:00	BASE	5.78	134	6.38	141	0.2	95	-0.6	98	344	999.3	NA	0.0000	-SN BR	9999	1380	22800	0	0
2016/11/20 20:48:00	BASE	5.93	138	6.38	141	0.2	95	-0.5	94	333	999.2	NA	0.0000	-SN BR	9999	1610	0	0	0
2016/11/20 20:49:00	BASE	5.90	141	6.43	140	0.2	95	-0.5	91	324	999.2	NA	0.0000	-SN BR	9999	1710	0	0	0
2016/11/20 20:50:00	BASE	5.77	141	6.43	140	0.1	95	-0.6	90	322	999.2	NA	0.0000	-SN BR	9999	2030	0	0	0
2016/11/20 20:51:00	BASE	5.63	137	6.43	140	0.0	95	-0.7	92	326	999.2	NA	0.0000	-SN	9999	2100	0	0	0
2016/11/20 20:52:00	BASE	5.65	133	6.43	140	-0.1	95	-0.8	94	334	999.2	NA	0.0000	-SN	9999	1840	22440	0	0
2016/11/20 20:53:00	BASE	5.56	137	6.43	140	-0.3	95	-1.0	95	341	999.2	NA	0.0000	-SN	9000	1940	0	0	0
2016/11/20 20:54:00	BASE	5.38	134	6.43	140	-0.4	95	-1.1	95	341	999.3	NA	0.0000	-SN	9000	1770	0	0	0
2016/11/20 20:55:00	BASE	5.00	133	6.43	140	-0.4	95	-1.1	95	338	999.4	NA	0.0000	-SN	7000	430	0	0	0
2016/11/20 20:56:00	BASE	4.86	133	6.43	140	-0.4	95	-1.1	95	341	999.3	NA	0.0000	-SN BR	6000	1800	0	0	0
2016/11/20 20:57:00	BASE	4.93	133	6.43	140	-0.4	96	-1.0	97	348	999.3	NA	0.0000	-SN BR	7000	1870	0	0	0
2016/11/20 20:58:00	BASE	4.88	137	6.43	140	-0.4	96	-1.0	100	351	999.3	NA	0.0000	-SN BR	6000	1800	0	0	0
2016/11/20 20:59:00	BASE	4.95	141	6.17	142	-0.4	96	-1.0	101	353	999.2	NA	0.0000	-SN BR	5000	1800	0	0	0
2016/11/20 21:00:00	BASE	5.14	142	6.02	132	-0.5	96	-1.0	101	352	999.1	NA	0.0000	-SN BR	5000	1710	0	0	0
2016/11/20 21:01:00	BASE	4.87	142	5.92	135	-0.5	96	-1.1	102	351	999.2	NA	0.0000	-SN BR	5000	1710	0	0	0
2016/11/20 21:02:00	BASE	4.34	150	5.81	143	-0.5	96	-1.1	101	349	999.1	NA	0.0000	-SN BR	5000	1770	0	0	0
2016/11/20 21:03:00	BASE	3.76	170	5.81	143	-0.6	96	-1.1	99	344	999.1	NA	0.0000	-SN BR	5000	430	0	0	0
2016/11/20 21:04:00	BASE	3.77	177	5.81	143	-0.6	96	-1.1	97	337	999.0	NA	0.0000	-SN BR	5000	390	2200	0	0
2016/11/20 21:05:00	BASE	4.99	178	6.02	179	-0.6	96	-1.1	93	327	999.0	NA	0.0000	-SN BR	6000	660	1840	0	0
2016/11/20 21:06:00	BASE	5.41	183	6.02	179	-0.6	96	-1.1	92	323	999.0	NA	0.0000	-SN BR	7000	1770	0	0	0
2016/11/20 21:07:00	BASE	5.37	181	6.02	179	-0.6	96	-1.1	95	329	998.9	NA	0.0000	-SN BR	8000	1840	0	0	0
2016/11/20 21:08:00	BASE	5.42	172	6.02	179	-0.6	97	-1.1	93	323	999.0	NA	0.0000	-SN BR	9000	2000	0	0	0
2016/11/20 21:09:00	BASE	5.21	163	6.02	179	-0.6	97	-1.0	89	312	998.9	NA	0.0000	-SN BR	8000	2260	0	0	0
2016/11/20 21:10:00	BASE	4.83	156	6.02	179	-0.4	97	-0.8	85	299	998.9	NA	0.0000	-SN BR	9000	2200	0	0	0
2016/11/20 21:11:00	BASE	4.36	148	6.02	179	-0.3	97	-0.7	81	290	998.8	NA	0.0000	-SN BR	9999	2430	0	0	0
2016/11/20 21:12:00	BASE	4.54	146	6.02	179	-0.2	97	-0.6	79	285	998.8	NA	0.0000	-SN BR	9999	2300	0	0	0
2016/11/20 21:13:00	BASE	4.61	155	6.02	179	-0.1	97	-0.5	81	289	998.8	NA	0.0000	-SN BR	9999	2360	0	0	0
2016/11/20 21:14:00	BASE	4.73	164	6.12	169	0.0	97	-0.4	82	292	998.7	NA	0.0000	-SN BR	9999	1610	2530	0	0
2016/11/20 21:15:00	BASE	4.55	164	6.12	169	0.0	97	-0.4	83	293	998.7	NA	0.0000	-SN	9999	1570	0	0	0
2016/11/20 21:16:00	BASE	3.99	143	6.12	169	-0.0	97	-0.5	83	294	998.7	NA	0.0000		9999	1640	2430	0	0
2016/11/20 21:17:00	BASE	4.78	123	6.33	125	-0.1	97	-0.5	84	295	998.6	NA	0.0000		9999	1740	2300	0	0
2016/11/20 21:18:00	BASE	4.93	126	6.33	125	-0.1	97	-0.5	84	296	998.6	NA	0.0000		9999	2030	2660	0	0
2016/11/20 21:19:00	BASE	4.13	132	6.33	125	0.1	97	-0.4	83	292	998.6	NA	0.0000		9999	2330	0	0	0
2016/11/20 21:20:00	BASE	3.81	136	6.33	125	0.2	96	-0.3	80	284	998.6	NA	0.0000		9999	1840	0	0	0
2016/11/20 21:21:00	BASE	3.53	143	6.33	125	0.4	96	-0.1	77	273	998.6	NA	0.0000		9999	1670	0	0	0
2016/11/20 21:22:00	BASE	3.48	144	6.33	125	0.6	96	0.1	73	263	998.6	NA	0.0000		9999	1800	2430	0	0
2016/11/20 21:23:00	BASE	3.43	127	6.33	125	0.7	96	0.1	71	256	998.7	NA	0.0000		9999	1640	0	0	0
2016/11/20 21:24:00	BASE	3.06	116	6.33	125	0.7	95	-0.0	68	248	998.7	NA	0.0000		9999	1740	0	0	0
2016/11/20 21:25:00	BASE	2.50	125	6.33	125	0.7	94	-0.1	68	246	998.6	NA	0.0000		9999	1610	0	0	0
2016/11/20 21:26:00	BASE	1.70	139	6.33	125	0.6	94	-0.2	67	243	998.6	NA	0.0000		9999	1640	0	0	0
2016/11/20 21:27:00	BASE	0.70	151	5.76	130	0.6	93	-0.3	66	241	998.5	NA	0.0000		9999	1610	0	0	0
2016/11/20 21:28:00	BASE	0.14	116	4.73	139	0.7	93	-0.3	65	237	998.5	NA	0.0000		9999	1670	2490	0	0
2016/11/20 21:29:00	BASE	0.00	66	4.42	143	0.8	93	-0.2	64	235	998.6	NA	0.0000		9999	1570	0	0	0
2016/11/20 21:30:00	BASE	0.44	27	4.12	141	1.0	93	0.0	64	234	998.5	NA	0.0000		9999	1510	2400	0	0
2016/11/20 21:31:00	BASE	0.65	338	4.12	141	1.3	93	0.3	63	230	998.6	NA	0.0000		9999	1610	0	0	0
2016/11/20 21:32:00	BASE	0.30	320	4.06	113	1.6	92	0.4	62	226	998.6	NA	0.0000		9999	1510	2430	0	0
2016/11/20 21:33:00	BASE	0.90	290	3.24	119	1.8	91	0.5	60	221	998.5	NA	0.0000		9999	2360	0	0	0
2016/11/20 21:34:00	BASE	1.69	245	3.24	119	2.0	89	0.4	59	216	998.5	NA	0.0000		9999	2170	0	0	0
2016/11/20 21:35:00	BASE	0.88	241	2.52	242	2.2	88	0.3	58	213	998.6	NA	0.0000		9999	2170	0	0	0
2016/11/20 21:36:00	BASE	0.64	154	2.52	242	2.2	87	0.2	57	210	998.6	NA	0.0000		9999	2200	0	0	0
2016/11/20 21:37:00	BASE	1.83	127	3.45	157	2.2	86	0.1	55	206	998.5	NA	0.0000		9999	2230	0	0	0
2016/11/20 21:38:00	BASE	2.89	156	3.91	160	2.1	86	-0.0	55	204	998.5	NA	0.0000		9999	2200	0	0	0
2016/11/20 21:39:00	BASE	3.52	150	4.01	131	1.9	87	-0.1	55	203	998.5	NA	0.0000		9999	2100	0	0	0
2016/11/20 21:40:00	BASE	3.52	130	4.01	131	1.8	87	-0.2	54	201	998.5	NA	0.0000		9999	2170	0	0	0
2016/11/20 21:41:00	BASE	4.09	125	5.35	127	1.5	87	-0.4	54	199	998.5	NA	0.0000	UP	9999	1710	0	0	0
2016/11/20 21:42:00	BASE	4.76	131	5.35	127	1.3	88	-0.5	54	199	998.5	NA	0.0000	UP	5000	2170	0	0	0
2016/11/20 21:43:00	BASE	5.00	130	5.71	128	1.0	89	-0.7	54	200	998.4	NA	0.0000	UP BR	3500	2130	0	0	0
2016/11/20 21:44:00	BASE	5.05	125	5.71	128	0.7	89	-0.8	54	200	998.4	NA	0.0000	UP BR	2600	2130	0	0	0
2016/11/20 21:45:00	BASE	4.62	119	5.71	128	0.5	90	-0.9	55	204	998.3	NA	0.0000	UP BR	1900	2030	0	0	0
2016/11/20 21:46:00	BASE	4.59	122	5.71	128	0.4	91	-0.9	55	203	998.3	NA	0.0000	UP BR	1600	460	0	0	0
2016/11/20 21:47:00	BASE	4.91	122	5.71	121	0.3	92	-0.9	54	199	998.2	NA	0.0000	UP BR	1400	430	0	0	0
2016/11/20 21:48:00	BASE	4.87	116	5.71	121	0.2	92	-0.9	52	193	998.2	NA	0.0000	UP BR	1200	2030	0	0	0
2016/11/20 21:49:00	BASE	4.42	119	5.71	121	0.2	93	-0.8	51	188	998.3	NA	0.0000	UP BR	1100	1940	0	0	0
2016/11/20 21:50:00	BASE	4.35	123	5.71	121	0.2	93	-0.7	49	183	998.2	NA	0.0000	UP BR	1100	430	0	0	0
2016/11/20 21:51:00	BASE	3.83	117	5.71	121	0.3	94	-0.6	48	179	998.2	NA	0.0000	UP BR	1000	430	0	0	0
2016/11/20 21:52:00	BASE	4.12	120	5.92	136	0.4	94	-0.5	47	174	998.2	NA	0.0000	UP BR	1000	1740	0	0	0
2016/11/20 21:53:00	BASE	4.72	116	5.92	136	0.5	94	-0.4	46	170	998.2	NA	0.0000	UP BR	0900	1900	0	0	0
2016/11/20 21:54:00	BASE	3.19	100	5.92	136	0.7	94	-0.2	45	168	998.2	NA	0.0000	UP BR	0800	430	0	0	0
2016/11/20 21:55:00	BASE	2.51	103	5.92	136	0.9	94	0.1	45	169	998.1	NA	0.0000	UP BR	0900	430	0	0	0
2016/11/20 21:56:00	BASE	2.23	109	5.92	136	1.2	94	0.3	47	174	998.2	NA	0.0000	UP BR	0900	390	0	0	0
2016/11/20 21:57:00	BASE	1.40	70	5.92	136	1.4	93	0.5	49	181	998.1	NA	0.2540	UP BR	0900	390	0	0	0
2016/11/20 21:58:00	BASE	1.48	4	5.92	136	1.7	93	0.6	52	190	998.1	NA	0.0000	UP BR	0900	360	0	0	0
2016/11/20 21:59:00	BASE	2.14	351	5.92	136	1.9	92	0.7	55	200	998.0	NA	0.0000	UP BR	0900	390	0	0	0
2016/11/20 22:00:00	BASE	2.89	323	5.92	136	2.1	90	0.7	58	210	998.0	NA	0.0000	UP BR	1000	390	1610	0	0
2016/11/20 22:01:00	BASE	1.75	262	5.92	136	2.2	89	0.6	62	221	998.0	NA	0.0000	UP BR	1100	360	1970	0	0
2016/11/20 22:02:00	BASE	1.32	219	5.35	127	2.1	88	0.4	64	228	998.0	NA	0.0000	UP BR	1100	360	0	0	0
2016/11/20 22:03:00	BASE	2.87	231	4.22	219	1.9	88	0.1	65	229	998.0	NA	0.0000	UP BR	1200	390	2030	0	0
2016/11/20 22:04:00	BASE	4.23	226	5.61	209	1.6	88	-0.2	63	225	997.9	NA	0.0000	UP BR	1400	390	0	0	0
2016/11/20 22:05:00	BASE	3.91	220	5.61	209	1.2	88	-0.5	61	216	998.0	NA	0.0000	UP BR	1500	430	0	0	0
2016/11/20 22:06:00	BASE	2.30	238	5.61	209	0.9	89	-0.7	57	205	998.0	NA	0.0000	UP BR	1400	430	0	0	0
2016/11/20 22:07:00	BASE	1.89	229	5.61	209	0.7	90	-0.7	53	194	998.0	NA	0.0000	UP BR	1400	2000	0	0	0
2016/11/20 22:08:00	BASE	2.25	204	5.61	209	0.6	91	-0.7	51	188	997.9	NA	0.0000	UP BR	1400	430	0	0	0
2016/11/20 22:09:00	BASE	2.18	215	5.61	209	0.5	92	-0.7	51	186	997.9	NA	0.0000	UP BR	1400	430	0	0	0
2016/11/20 22:10:00	BASE	2.38	222	5.61	209	0.4	92	-0.7	51	187	997.9	NA	0.0000	UP BR	1400	390	0	0	0
2016/11/20 22:11:00	BASE	3.52	209	5.61	209	0.4	93	-0.7	52	188	997.8	NA	0.0000	UP BR	1400	430	0	0	0
2016/11/20 22:12:00	BASE	2.70	208	5.61	209	0.4	93	-0.6	53	189	997.8	NA	0.0000	UP BR	1400	2000	0	0	0
2016/11/20 22:13:00	BASE	0.63	220	5.61	209	0.5	94	-0.4	53	190	997.9	NA	0.0000	UP BR	1400	2100	0	0	0
2016/11/20 22:14:00	BASE	0.72	232	5.04	209	0.5	94	-0.4	52	188	997.9	NA	0.0000	UP BR	1400	460	0	0	0
2016/11/20 22:15:00	BASE	1.70	217	5.04	209	0.6	94	-0.2	51	183	997.8	NA	0.0000	UP BR	1400	2200	0	0	0
2016/11/20 22:16:00	BASE	2.52	173	5.04	209	0.8	94	-0.1	49	176	997.8	NA	0.0000	UP BR	1400	2200	0	0	0
2016/11/20 22:17:00	BASE	3.32	157	5.04	209	0.8	94	-0.0	46	168	997.8	NA	0.0000	BR	1400	2000	0	0	0
2016/11/20 22:18:00	BASE	3.03	154	5.04	209	0.9	94	0.0	44	160	997.8	NA	0.0000	BR	1300	2130	0	0	0
2016/11/20 22:19:00	BASE	2.27	149	5.04	209	0.9	94	0.0	43	155	997.8	NA	0.0000	BR	1300	2070	0	0	0
2016/11/20 22:20:00	BASE	2.27	156	5.04	209	0.9	93	-0.1	42	152	997.8	NA	0.0000	BR	1300	2170	0	0	0
2016/11/20 22:21:00	BASE	2.47	157	4.12	177	0.8	93	-0.2	41	150	997.8	NA	0.0000	BR	1300	2260	0	0	0
2016/11/20 22:22:00	BASE	3.09	156	4.32	154	0.6	93	-0.4	40	147	997.8	NA	0.0000	BR	1300	2330	0	0	0
2016/11/20 22:23:00	BASE	3.79	158	4.32	154	0.6	93	-0.4	39	145	997.8	NA	0.0000	BR	1300	2260	0	0	0
2016/11/20 22:24:00	BASE	3.60	161	4.32	154	0.6	93	-0.4	39	144	997.8	NA	0.0000	BR	1300	2260	0	0	0
2016/11/20 22:25:01	BASE	3.21	167	4.32	154	0.5	94	-0.4	39	145	997.8	NA	0.0000	BR	1300	2260	0	0	0
2016/11/20 22:26:00	BASE	3.01	180	4.32	154	0.6	94	-0.3	40	146	997.8	NA	0.0000	BR	1300	2230	0	0	0
2016/11/20 22:27:00	BASE	3.02	180	4.32	154	0.6	94	-0.3	40	147	997.8	NA	0.0000	BR	1300	2130	0	0	0
2016/11/20 22:28:00	BASE	2.79	166	4.32	154	0.6	94	-0.3	40	145	997.8	NA	0.0000	BR	1300	2200	0	0	0
2016/11/20 22:29:00	BASE	2.79	148	4.32	154	0.6	94	-0.3	39	143	997.8	NA	0.0000	BR	1300	1480	2200	0	0
2016/11/20 22:30:00	BASE	3.04	145	4.32	154	0.6	94	-0.3	38	139	997.7	NA	0.0000	BR	1300	1410	2300	0	0
2016/11/20 22:31:00	BASE	3.11	158	4.32	154	0.6	94	-0.3	37	136	997.7	NA	0.0000	BR	1300	1410	0	0	0
2016/11/20 22:32:00	BASE	3.50	163	4.27	160	0.6	94	-0.2	37	136	997.6	NA	0.0000	BR	1300	1440	0	0	0
2016/11/20 22:33:00	BASE	3.99	157	4.84	159	0.7	94	-0.2	36	133	997.6	NA	0.0000	BR	1300	1380	0	0	0
2016/11/20 22:34:00	BASE	3.91	149	4.84	159	0.7	94	-0.1	36	135	997.6	NA	0.0000	BR	1300	1440	0	0	0
2016/11/20 22:35:00	BASE	3.98	151	4.84	153	0.8	94	-0.1	37	138	997.6	NA	0.0000	BR	1300	1380	0	0	0
2016/11/20 22:36:00	BASE	4.33	171	5.61	183	0.8	94	-0.0	37	138	997.6	NA	0.0000	BR	1300	1480	2360	0	0
2016/11/20 22:37:00	BASE	3.87	185	5.61	183	1.0	94	0.1	38	141	997.7	NA	0.0000	BR	1300	1440	0	0	0
2016/11/20 22:38:00	BASE	3.33	178	5.61	183	1.0	94	0.1	40	145	997.7	NA	0.0000	BR	1200	1440	0	0	0
2016/11/20 22:39:00	BASE	2.38	154	5.61	183	1.0	93	0.0	41	149	997.7	NA	0.0000	BR	1200	1380	0	0	0
2016/11/20 22:40:00	BASE	1.27	160	5.61	183	1.0	93	-0.0	41	148	997.6	NA	0.0000	BR	1200	1310	0	0	0
2016/11/20 22:41:00	BASE	1.56	202	5.61	183	1.0	93	-0.0	41	145	997.6	NA	0.0000	BR	1200	1440	0	0	0
2016/11/20 22:42:00	BASE	2.35	213	5.61	183	1.0	93	0.0	39	140	997.6	NA	0.0000	BR	1700	1510	0	0	0
2016/11/20 22:43:00	BASE	3.33	208	6.28	228	1.1	93	0.1	38	135	997.5	NA	0.0000	UP BR	7000	1440	0	0	0
2016/11/20 22:44:00	BASE	2.96	189	6.28	228	1.3	93	0.3	36	129	997.6	NA	0.0000	UP BR	6000	1350	0	0	0
2016/11/20 22:45:00	BASE	0.91	159	6.28	228	1.5	92	0.3	35	125	997.7	NA	0.0000	UP BR	5000	1440	0	0	0
2016/11/20 22:46:00	BASE	0.48	218	6.28	228	1.6	91	0.4	33	120	997.6	NA	0.0000	UP BR	5000	1380	0	0	0
2016/11/20 22:47:00	BASE	1.11	250	6.28	228	1.7	91	0.4	33	118	997.6	NA	0.0000	UP BR	5000	690	0	0	0
2016/11/20 22:48:00	BASE	2.13	205	6.28	228	1.8	90	0.3	32	117	997.6	NA	0.0000	UP BR	5000	1410	0	0	0
2016/11/20 22:49:00	BASE	2.20	173	6.28	228	1.8	89	0.2	33	119	997.7	NA	0.0000	UP BR	4600	920	0	0	0
2016/11/20 22:50:00	BASE	0.74	124	6.28	228	1.7	89	0.1	34	121	997.6	NA	0.0000	UP BR	4100	1120	0	0	0
2016/11/20 22:51:00	BASE	1.44	141	6.28	228	1.5	89	-0.0	35	123	997.5	NA	0.0000	UP BR	4400	850	0	0	0
2016/11/20 22:52:00	BASE	3.43	181	6.28	228	1.3	89	-0.2	36	124	997.4	NA	0.0000	UP BR	4400	690	0	0	0
2016/11/20 22:53:00	BASE	4.32	179	5.25	171	1.1	90	-0.3	35	123	997.3	NA	0.0000	UP BR	3700	660	0	0	0
2016/11/20 22:54:00	BASE	4.46	169	5.25	171	0.9	91	-0.4	35	123	997.4	NA	0.0000	UP BR	2500	850	0	0	0
2016/11/20 22:55:00	BASE	4.02	163	5.25	171	0.8	92	-0.4	35	123	997.4	NA	0.0000	UP BR	1500	790	0	0	0
2016/11/20 22:56:00	BASE	4.09	163	5.25	171	0.7	92	-0.5	35	122	997.3	NA	0.0000	UP BR	1200	590	0	0	0
2016/11/20 22:57:00	BASE	4.68	164	5.81	171	0.5	93	-0.5	35	122	997.2	NA	0.0000	UP BR	1100	0	0	0	2560
2016/11/20 22:58:00	BASE	4.40	166	5.81	171	0.4	93	-0.5	35	121	997.2	NA	0.0000	UP BR	1300	0	0	0	2430
2016/11/20 22:59:00	BASE	3.15	161	5.81	171	0.4	94	-0.5	34	123	997.2	NA	0.0000	-SN BR	1400	560	0	0	0
2016/11/20 23:00:00	BASE	2.29	145	5.81	171	0.4	94	-0.4	34	121	997.2	NA	0.0000	-SN BR	1500	590	0	0	0
2016/11/20 23:01:00	BASE	2.45	121	5.81	171	0.4	95	-0.3	33	120	997.2	NA	0.0000	-SN BR	1400	2200	0	0	0
2016/11/20 23:02:00	BASE	3.24	116	5.81	171	0.5	95	-0.3	33	120	997.2	NA	0.0000	-SN BR	1400	2170	0	0	0
2016/11/20 23:03:00	BASE	3.75	113	5.81	171	0.5	95	-0.1	33	118	997.2	NA	0.0000	-SN BR	1500	1210	2130	0	0
2016/11/20 23:04:00	BASE	3.53	114	5.81	171	0.6	95	-0.1	32	117	997.2	NA	0.0000	-SN BR	1500	2100	0	0	0
2016/11/20 23:05:00	BASE	3.08	123	5.81	171	0.6	95	-0.1	31	116	997.2	NA	0.0000	-SN BR	1500	2130	0	0	0
2016/11/20 23:06:00	BASE	2.71	120	5.81	171	0.6	95	-0.0	30	113	997.2	NA	0.0000	-SN BR	1600	2070	0	0	0
2016/11/20 23:07:00	BASE	2.50	119	4.32	123	0.6	95	-0.0	29	110	997.2	NA	0.0000	-SN BR	1600	2100	0	0	0
2016/11/20 23:08:00	BASE	2.45	120	4.32	123	0.7	95	-0.1	29	108	997.2	NA	0.0000	-SN BR	1500	2070	0	0	0
2016/11/20 23:09:00	BASE	2.59	115	4.32	123	0.6	95	-0.1	28	106	997.2	NA	0.0000	-SN BR	1600	1280	2070	0	0
2016/11/20 23:10:00	BASE	2.64	106	4.32	123	0.6	95	-0.1	28	106	997.2	NA	0.0000	-SN BR	1700	1020	0	0	0
2016/11/20 23:11:00	BASE	2.91	106	4.32	123	0.6	95	-0.1	29	106	997.2	NA	0.0000	-SN BR	1700	690	1180	0	0
2016/11/20 23:12:00	BASE	3.08	112	4.12	126	0.6	95	-0.1	28	105	997.2	NA	0.0000	-SN BR	1700	1150	1870	0	0
2016/11/20 23:13:00	BASE	2.91	125	4.12	126	0.6	95	-0.1	28	105	997.1	NA	0.0000	-SN BR	1900	1080	2100	0	0
2016/11/20 23:14:00	BASE	2.95	132	3.76	113	0.6	95	-0.1	28	104	997.1	NA	0.0000	-SN BR	2500	1150	2130	0	0
2016/11/20 23:15:00	BASE	3.36	129	4.01	124	0.6	95	-0.1	28	103	997.1	NA	0.0000	-SN BR	3400	1080	2000	0	0
2016/11/20 23:16:00	BASE	3.46	129	4.01	124	0.6	95	-0.1	28	103	997.1	NA	0.0000	-SN BR	3500	1050	0	0	0
2016/11/20 23:17:00	BASE	3.36	135	4.06	132	0.6	95	-0.2	29	104	997.1	NA	0.0000	-SN BR	3600	850	0	0	0
2016/11/20 23:18:00	BASE	3.67	141	4.37	135	0.5	95	-0.2	28	103	997.1	NA	0.0000	-SN BR	4100	1310	0	0	0
2016/11/20 23:19:00	BASE	3.86	140	4.37	135	0.5	95	-0.2	28	102	997.1	NA	0.0000	-SN BR	4000	1310	0	0	0
2016/11/20 23:20:00	BASE	3.52	137	4.37	135	0.5	95	-0.1	28	101	997.1	NA	0.0000	-SN BR	3700	1310	0	0	0
2016/11/20 23:21:00	BASE	2.88	131	4.37	135	0.6	96	-0.1	29	103	997.1	NA	0.2540	-SN BR	4300	1250	0	0	0
2016/11/20 23:22:00	BASE	3.00	125	4.37	135	0.6	96	-0.0	29	106	997.0	NA	0.0000	-SN BR	4800	1380	2130	0	0
2016/11/20 23:23:00	BASE	3.13	132	4.37	135	0.6	96	0.1	30	106	997.0	NA	0.0000	-SN BR	4900	1350	1870	0	0
2016/11/20 23:24:00	BASE	2.68	148	4.37	135	0.7	96	0.1	30	108	997.0	NA	0.0000	-SN BR	4800	980	0	0	0
2016/11/20 23:25:00	BASE	2.63	159	4.37	135	0.7	96	0.1	31	109	997.0	NA	0.0000	-SN BR	4600	1180	0	0	0
2016/11/20 23:26:00	BASE	2.64	151	4.37	135	0.7	96	0.1	32	112	997.0	NA	0.0000	-SN BR	4900	1280	0	0	0
2016/11/20 23:27:00	BASE	2.74	134	4.37	135	0.7	96	0.1	33	114	997.0	NA	0.0000	-SN BR	6000	690	1350	0	0
2016/11/20 23:28:00	BASE	2.97	128	4.12	142	0.7	96	0.1	33	116	997.0	NA	0.0000	-SN BR	7000	1020	0	0	0
2016/11/20 23:29:00	BASE	2.89	147	3.91	142	0.7	96	0.1	35	120	996.9	NA	0.0000	-SN BR	4000	560	1250	0	0
2016/11/20 23:30:00	BASE	2.31	182	3.91	142	0.7	96	0.2	34	119	996.8	NA	0.0000	-SN BR	3100	1250	0	0	0
2016/11/20 23:31:00	BASE	1.90	174	3.91	142	0.9	96	0.3	36	124	996.7	NA	0.0000	-SN BR	4500	360	0	0	0
2016/11/20 23:32:00	BASE	2.41	138	3.65	135	1.0	96	0.5	39	131	996.7	NA	0.0000	-SN BR	1900	360	1480	0	0
2016/11/20 23:33:00	BASE	3.29	138	4.37	141	1.1	96	0.4	40	134	996.6	NA	0.0000	-SN BR	0900	1350	1970	0	0
2016/11/20 23:34:00	BASE	3.35	143	4.37	141	1.1	95	0.4	40	136	996.6	NA	0.0000	-SN BR	1200	690	1310	0	0
2016/11/20 23:35:01	BASE	2.33	149	4.37	141	1.1	95	0.3	40	134	996.7	NA	0.0000	-SN BR	2100	750	0	0	0
2016/11/20 23:36:00	BASE	1.73	146	4.37	141	1.0	94	0.2	39	132	996.7	NA	0.0000	-SN BR	2200	950	0	0	0
2016/11/20 23:37:00	BASE	1.29	158	4.37	141	1.0	94	0.2	38	128	996.7	NA	0.0000	-SN BR	2400	1280	0	0	0
2016/11/20 23:38:00	BASE	1.14	192	4.37	141	1.1	94	0.3	39	130	996.6	NA	0.0000	-SN BR	2500	560	0	0	0
2016/11/20 23:39:00	BASE	1.67	213	4.37	141	1.1	94	0.3	38	129	996.6	NA	0.0000	-SN BR	2600	430	1480	0	0
2016/11/20 23:40:00	BASE	2.01	247	4.37	141	1.2	95	0.5	38	127	996.6	NA	0.0000	-SN BR	2800	980	0	0	0
2016/11/20 23:41:00	BASE	2.18	257	4.37	141	1.4	94	0.6	37	125	996.6	NA	0.0000	-SN BR	2700	1380	0	0	0
2016/11/20 23:42:00	BASE	1.63	231	4.37	141	1.5	93	0.5	36	122	996.5	NA	0.0000	-SN BR	3000	1480	0	0	0
2016/11/20 23:43:00	BASE	1.21	216	3.70	150	1.5	93	0.5	36	120	996.5	NA	0.0000	-SN BR	2900	1570	0	0	0
2016/11/20 23:44:00	BASE	1.36	214	2.88	249	1.6	92	0.4	35	117	996.5	NA	0.0000	-SN BR	4100	1670	0	0	0
2016/11/20 23:45:00	BASE	1.48	206	2.88	249	1.5	92	0.3	35	115	996.5	NA	0.0000	-SN BR	4300	1280	0	0	0
2016/11/20 23:46:00	BASE	1.54	189	2.88	249	1.4	91	0.1	34	112	996.4	NA	0.0000	-SN BR	4200	1710	0	0	0
2016/11/20 23:47:00	BASE	1.58	172	2.88	249	1.3	92	0.1	34	111	996.5	NA	0.0000	-SN BR	4100	1210	0	0	0
2016/11/20 23:48:00	BASE	1.87	157	3.40	158	1.2	92	0.1	34	112	996.4	NA	0.0000	-SN BR	3900	980	0	0	0
2016/11/20 23:49:00	BASE	2.83	149	3.96	145	1.2	92	0.1	35	114	996.4	NA	0.0000	-SN BR	4400	790	0	0	0
2016/11/20 23:50:00	BASE	3.44	151	3.96	145	1.2	93	0.1	35	114	996.4	NA	0.0000	-SN BR	5000	920	1540	0	0
2016/11/20 23:51:00	BASE	3.10	157	3.96	145	1.2	93	0.1	36	116	996.4	NA	0.0000	-SN BR	5000	1150	0	0	0
2016/11/20 23:52:00	BASE	3.06	159	3.96	145	1.1	93	0.1	37	117	996.3	NA	0.0000	-SN BR	5000	720	0	0	0
2016/11/20 23:53:00	BASE	3.91	154	5.04	146	1.0	93	0.0	37	117	996.2	NA	0.0000	-SN BR	5000	1610	0	0	0
2016/11/20 23:54:00	BASE	4.91	147	5.92	151	0.9	93	-0.1	38	118	996.1	NA	0.0000	-SN BR	5000	1570	0	0	0
2016/11/20 23:55:00	BASE	5.36	146	6.79	156	0.8	94	-0.1	38	118	996.1	NA	0.0000	-SN BR	3600	1480	0	0	0
2016/11/20 23:56:00	BASE	5.23	146	6.79	156	0.7	94	-0.1	38	117	996.1	NA	0.0000	-SN BR	2400	1640	0	0	0
2016/11/20 23:57:00	BASE	4.68	143	6.79	156	0.7	94	-0.1	37	115	996.1	NA	0.0000	-SN BR	2200	1540	0	0	0
2016/11/20 23:58:00	BASE	4.32	142	6.79	156	0.6	95	-0.2	37	114	996.1	NA	0.0000	-SN BR	2000	1280	0	0	0
2016/11/20 23:59:00	BASE	4.46	144	6.79	156	0.6	95	-0.1	36	112	996.0	NA	0.0000	-SN BR	2100	1570	0	0	0